<?xml version="1.0" encoding="UTF-8" standalone="no" ?>
<gpx xmlns="http://www.topografix.com/GPX/1/1" xmlns:xsi="http://www.w3.org/2001/XMLSchema-instance" xsi:schemaLocation="http://www.topografix.com/GPX/1/1 http://www.topografix.com/GPX/1/1/gpx.xsd" version="1.1" creator="VisuGPX - https://www.visugpx.com">
  <metadata>
    <name>montaud-saint quentin</name>
    <desc><![CDATA[petit decrassage avant l apero ...]]></desc>
  </metadata>
  <trk>
    <name><![CDATA[montaud - saint quentin]]></name>
    <trkseg>
      <trkpt lat="45.26366" lon="5.55871">
        <ele>667.77</ele>
        <time>2013-06-02T13:30:04Z</time>
      </trkpt>
      <trkpt lat="45.26366" lon="5.5587">
        <ele>667.77</ele>
        <time>2013-06-02T13:30:05Z</time>
      </trkpt>
      <trkpt lat="45.26356" lon="5.55887">
        <ele>670.66</ele>
        <time>2013-06-02T13:30:15Z</time>
      </trkpt>
      <trkpt lat="45.26356" lon="5.55887">
        <ele>675.46</ele>
        <time>2013-06-02T13:30:17Z</time>
      </trkpt>
      <trkpt lat="45.26356" lon="5.55888">
        <ele>679.79</ele>
        <time>2013-06-02T13:30:19Z</time>
      </trkpt>
      <trkpt lat="45.26356" lon="5.55888">
        <ele>684.6</ele>
        <time>2013-06-02T13:30:21Z</time>
      </trkpt>
      <trkpt lat="45.26357" lon="5.55888">
        <ele>687.96</ele>
        <time>2013-06-02T13:30:23Z</time>
      </trkpt>
      <trkpt lat="45.26357" lon="5.55889">
        <ele>691.81</ele>
        <time>2013-06-02T13:30:25Z</time>
      </trkpt>
      <trkpt lat="45.26357" lon="5.55889">
        <ele>694.69</ele>
        <time>2013-06-02T13:30:27Z</time>
      </trkpt>
      <trkpt lat="45.26357" lon="5.55889">
        <ele>699.02</ele>
        <time>2013-06-02T13:30:30Z</time>
      </trkpt>
      <trkpt lat="45.26358" lon="5.55889">
        <ele>703.34</ele>
        <time>2013-06-02T13:30:33Z</time>
      </trkpt>
      <trkpt lat="45.26357" lon="5.55888">
        <ele>706.71</ele>
        <time>2013-06-02T13:30:36Z</time>
      </trkpt>
      <trkpt lat="45.26356" lon="5.55887">
        <ele>710.07</ele>
        <time>2013-06-02T13:30:39Z</time>
      </trkpt>
      <trkpt lat="45.26356" lon="5.55887">
        <ele>713.44</ele>
        <time>2013-06-02T13:30:42Z</time>
      </trkpt>
      <trkpt lat="45.26356" lon="5.55887">
        <ele>717.28</ele>
        <time>2013-06-02T13:30:46Z</time>
      </trkpt>
      <trkpt lat="45.26355" lon="5.55886">
        <ele>720.65</ele>
        <time>2013-06-02T13:30:50Z</time>
      </trkpt>
      <trkpt lat="45.26355" lon="5.55886">
        <ele>722.57</ele>
        <time>2013-06-02T13:30:54Z</time>
      </trkpt>
      <trkpt lat="45.26353" lon="5.55887">
        <ele>725.45</ele>
        <time>2013-06-02T13:30:59Z</time>
      </trkpt>
      <trkpt lat="45.26353" lon="5.55886">
        <ele>728.82</ele>
        <time>2013-06-02T13:31:04Z</time>
      </trkpt>
      <trkpt lat="45.26352" lon="5.55886">
        <ele>731.7</ele>
        <time>2013-06-02T13:31:09Z</time>
      </trkpt>
      <trkpt lat="45.2635" lon="5.55886">
        <ele>734.58</ele>
        <time>2013-06-02T13:31:16Z</time>
      </trkpt>
      <trkpt lat="45.2635" lon="5.55889">
        <ele>737.95</ele>
        <time>2013-06-02T13:31:24Z</time>
      </trkpt>
      <trkpt lat="45.2635" lon="5.55891">
        <ele>741.31</ele>
        <time>2013-06-02T13:31:37Z</time>
      </trkpt>
      <trkpt lat="45.26349" lon="5.5589">
        <ele>744.2</ele>
        <time>2013-06-02T13:31:54Z</time>
      </trkpt>
      <trkpt lat="45.26349" lon="5.5589">
        <ele>745.64</ele>
        <time>2013-06-02T13:32:16Z</time>
      </trkpt>
      <trkpt lat="45.2635" lon="5.5589">
        <ele>745.64</ele>
        <time>2013-06-02T13:32:37Z</time>
      </trkpt>
      <trkpt lat="45.2635" lon="5.5589">
        <ele>745.64</ele>
        <time>2013-06-02T13:32:58Z</time>
      </trkpt>
      <trkpt lat="45.26349" lon="5.55896">
        <ele>746.12</ele>
        <time>2013-06-02T13:33:02Z</time>
      </trkpt>
      <trkpt lat="45.26349" lon="5.55903">
        <ele>745.64</ele>
        <time>2013-06-02T13:33:08Z</time>
      </trkpt>
      <trkpt lat="45.2635" lon="5.55902">
        <ele>746.6</ele>
        <time>2013-06-02T13:33:10Z</time>
      </trkpt>
      <trkpt lat="45.26353" lon="5.55895">
        <ele>746.6</ele>
        <time>2013-06-02T13:33:21Z</time>
      </trkpt>
      <trkpt lat="45.26353" lon="5.55894">
        <ele>746.6</ele>
        <time>2013-06-02T13:33:58Z</time>
      </trkpt>
      <trkpt lat="45.26353" lon="5.55894">
        <ele>746.6</ele>
        <time>2013-06-02T13:34:36Z</time>
      </trkpt>
      <trkpt lat="45.26353" lon="5.55894">
        <ele>745.64</ele>
        <time>2013-06-02T13:35:11Z</time>
      </trkpt>
      <trkpt lat="45.26354" lon="5.55894">
        <ele>745.64</ele>
        <time>2013-06-02T13:35:46Z</time>
      </trkpt>
      <trkpt lat="45.26354" lon="5.55895">
        <ele>745.64</ele>
        <time>2013-06-02T13:36:17Z</time>
      </trkpt>
      <trkpt lat="45.26342" lon="5.55922">
        <ele>746.12</ele>
        <time>2013-06-02T13:36:27Z</time>
      </trkpt>
      <trkpt lat="45.26335" lon="5.55931">
        <ele>746.12</ele>
        <time>2013-06-02T13:36:30Z</time>
      </trkpt>
      <trkpt lat="45.26336" lon="5.55941">
        <ele>744.2</ele>
        <time>2013-06-02T13:36:33Z</time>
      </trkpt>
      <trkpt lat="45.2635" lon="5.55926">
        <ele>742.76</ele>
        <time>2013-06-02T13:36:40Z</time>
      </trkpt>
      <trkpt lat="45.26365" lon="5.55899">
        <ele>740.83</ele>
        <time>2013-06-02T13:36:45Z</time>
      </trkpt>
      <trkpt lat="45.26374" lon="5.55881">
        <ele>739.39</ele>
        <time>2013-06-02T13:36:48Z</time>
      </trkpt>
      <trkpt lat="45.26374" lon="5.55874">
        <ele>738.91</ele>
        <time>2013-06-02T13:36:49Z</time>
      </trkpt>
      <trkpt lat="45.26373" lon="5.55867">
        <ele>738.43</ele>
        <time>2013-06-02T13:36:50Z</time>
      </trkpt>
      <trkpt lat="45.26371" lon="5.5586">
        <ele>737.47</ele>
        <time>2013-06-02T13:36:51Z</time>
      </trkpt>
      <trkpt lat="45.26369" lon="5.55853">
        <ele>736.03</ele>
        <time>2013-06-02T13:36:52Z</time>
      </trkpt>
      <trkpt lat="45.26363" lon="5.55836">
        <ele>733.14</ele>
        <time>2013-06-02T13:36:55Z</time>
      </trkpt>
      <trkpt lat="45.2636" lon="5.55833">
        <ele>731.7</ele>
        <time>2013-06-02T13:36:56Z</time>
      </trkpt>
      <trkpt lat="45.26358" lon="5.55829">
        <ele>730.74</ele>
        <time>2013-06-02T13:36:57Z</time>
      </trkpt>
      <trkpt lat="45.26349" lon="5.55814">
        <ele>727.37</ele>
        <time>2013-06-02T13:37:01Z</time>
      </trkpt>
      <trkpt lat="45.26339" lon="5.55805">
        <ele>724.97</ele>
        <time>2013-06-02T13:37:04Z</time>
      </trkpt>
      <trkpt lat="45.26334" lon="5.55797">
        <ele>721.61</ele>
        <time>2013-06-02T13:37:08Z</time>
      </trkpt>
      <trkpt lat="45.26332" lon="5.55794">
        <ele>719.68</ele>
        <time>2013-06-02T13:37:10Z</time>
      </trkpt>
      <trkpt lat="45.26332" lon="5.55791">
        <ele>718.24</ele>
        <time>2013-06-02T13:37:11Z</time>
      </trkpt>
      <trkpt lat="45.26338" lon="5.55785">
        <ele>715.36</ele>
        <time>2013-06-02T13:37:13Z</time>
      </trkpt>
      <trkpt lat="45.2635" lon="5.55779">
        <ele>711.51</ele>
        <time>2013-06-02T13:37:16Z</time>
      </trkpt>
      <trkpt lat="45.26356" lon="5.55771">
        <ele>710.07</ele>
        <time>2013-06-02T13:37:18Z</time>
      </trkpt>
      <trkpt lat="45.26368" lon="5.55757">
        <ele>708.63</ele>
        <time>2013-06-02T13:37:21Z</time>
      </trkpt>
      <trkpt lat="45.26373" lon="5.55752">
        <ele>708.15</ele>
        <time>2013-06-02T13:37:22Z</time>
      </trkpt>
      <trkpt lat="45.26399" lon="5.5572">
        <ele>704.78</ele>
        <time>2013-06-02T13:37:28Z</time>
      </trkpt>
      <trkpt lat="45.264" lon="5.55715">
        <ele>704.3</ele>
        <time>2013-06-02T13:37:29Z</time>
      </trkpt>
      <trkpt lat="45.264" lon="5.55711">
        <ele>703.34</ele>
        <time>2013-06-02T13:37:30Z</time>
      </trkpt>
      <trkpt lat="45.26399" lon="5.55706">
        <ele>701.9</ele>
        <time>2013-06-02T13:37:31Z</time>
      </trkpt>
      <trkpt lat="45.26398" lon="5.55699">
        <ele>701.9</ele>
        <time>2013-06-02T13:37:32Z</time>
      </trkpt>
      <trkpt lat="45.26398" lon="5.55691">
        <ele>699.98</ele>
        <time>2013-06-02T13:37:33Z</time>
      </trkpt>
      <trkpt lat="45.26398" lon="5.55685">
        <ele>699.5</ele>
        <time>2013-06-02T13:37:34Z</time>
      </trkpt>
      <trkpt lat="45.26399" lon="5.55679">
        <ele>698.53</ele>
        <time>2013-06-02T13:37:35Z</time>
      </trkpt>
      <trkpt lat="45.264" lon="5.55672">
        <ele>698.05</ele>
        <time>2013-06-02T13:37:36Z</time>
      </trkpt>
      <trkpt lat="45.26401" lon="5.55666">
        <ele>697.09</ele>
        <time>2013-06-02T13:37:37Z</time>
      </trkpt>
      <trkpt lat="45.26402" lon="5.5566">
        <ele>696.13</ele>
        <time>2013-06-02T13:37:38Z</time>
      </trkpt>
      <trkpt lat="45.26404" lon="5.55655">
        <ele>695.17</ele>
        <time>2013-06-02T13:37:39Z</time>
      </trkpt>
      <trkpt lat="45.26406" lon="5.55651">
        <ele>694.69</ele>
        <time>2013-06-02T13:37:40Z</time>
      </trkpt>
      <trkpt lat="45.26407" lon="5.55648">
        <ele>694.21</ele>
        <time>2013-06-02T13:37:41Z</time>
      </trkpt>
      <trkpt lat="45.26409" lon="5.55646">
        <ele>693.25</ele>
        <time>2013-06-02T13:37:42Z</time>
      </trkpt>
      <trkpt lat="45.2641" lon="5.55644">
        <ele>692.77</ele>
        <time>2013-06-02T13:37:43Z</time>
      </trkpt>
      <trkpt lat="45.26411" lon="5.55643">
        <ele>691.33</ele>
        <time>2013-06-02T13:37:44Z</time>
      </trkpt>
      <trkpt lat="45.26417" lon="5.55641">
        <ele>690.84</ele>
        <time>2013-06-02T13:37:46Z</time>
      </trkpt>
      <trkpt lat="45.26419" lon="5.55636">
        <ele>688.44</ele>
        <time>2013-06-02T13:37:49Z</time>
      </trkpt>
      <trkpt lat="45.26419" lon="5.55635">
        <ele>687.96</ele>
        <time>2013-06-02T13:37:50Z</time>
      </trkpt>
      <trkpt lat="45.26423" lon="5.55621">
        <ele>685.08</ele>
        <time>2013-06-02T13:37:55Z</time>
      </trkpt>
      <trkpt lat="45.26424" lon="5.55618">
        <ele>683.15</ele>
        <time>2013-06-02T13:37:56Z</time>
      </trkpt>
      <trkpt lat="45.26425" lon="5.55615">
        <ele>682.19</ele>
        <time>2013-06-02T13:37:57Z</time>
      </trkpt>
      <trkpt lat="45.26427" lon="5.55611">
        <ele>681.71</ele>
        <time>2013-06-02T13:37:58Z</time>
      </trkpt>
      <trkpt lat="45.26437" lon="5.55608">
        <ele>681.71</ele>
        <time>2013-06-02T13:37:59Z</time>
      </trkpt>
      <trkpt lat="45.26519" lon="5.55575">
        <ele>679.31</ele>
        <time>2013-06-02T13:38:02Z</time>
      </trkpt>
      <trkpt lat="45.26534" lon="5.55577">
        <ele>676.42</ele>
        <time>2013-06-02T13:38:06Z</time>
      </trkpt>
      <trkpt lat="45.26538" lon="5.55578">
        <ele>675.94</ele>
        <time>2013-06-02T13:38:07Z</time>
      </trkpt>
      <trkpt lat="45.2654" lon="5.55578">
        <ele>675.94</ele>
        <time>2013-06-02T13:38:08Z</time>
      </trkpt>
      <trkpt lat="45.26555" lon="5.55572">
        <ele>675.46</ele>
        <time>2013-06-02T13:38:13Z</time>
      </trkpt>
      <trkpt lat="45.26557" lon="5.55572">
        <ele>674.98</ele>
        <time>2013-06-02T13:38:14Z</time>
      </trkpt>
      <trkpt lat="45.26559" lon="5.55572">
        <ele>674.5</ele>
        <time>2013-06-02T13:38:15Z</time>
      </trkpt>
      <trkpt lat="45.26563" lon="5.55572">
        <ele>674.02</ele>
        <time>2013-06-02T13:38:16Z</time>
      </trkpt>
      <trkpt lat="45.26565" lon="5.55572">
        <ele>673.54</ele>
        <time>2013-06-02T13:38:17Z</time>
      </trkpt>
      <trkpt lat="45.26569" lon="5.55572">
        <ele>673.06</ele>
        <time>2013-06-02T13:38:18Z</time>
      </trkpt>
      <trkpt lat="45.26592" lon="5.55586">
        <ele>670.18</ele>
        <time>2013-06-02T13:38:25Z</time>
      </trkpt>
      <trkpt lat="45.26611" lon="5.55594">
        <ele>666.81</ele>
        <time>2013-06-02T13:38:30Z</time>
      </trkpt>
      <trkpt lat="45.26615" lon="5.55594">
        <ele>666.33</ele>
        <time>2013-06-02T13:38:31Z</time>
      </trkpt>
      <trkpt lat="45.2663" lon="5.55596">
        <ele>665.85</ele>
        <time>2013-06-02T13:38:34Z</time>
      </trkpt>
      <trkpt lat="45.26635" lon="5.55595">
        <ele>665.85</ele>
        <time>2013-06-02T13:38:35Z</time>
      </trkpt>
      <trkpt lat="45.2664" lon="5.55595">
        <ele>665.37</ele>
        <time>2013-06-02T13:38:36Z</time>
      </trkpt>
      <trkpt lat="45.26646" lon="5.55595">
        <ele>664.89</ele>
        <time>2013-06-02T13:38:37Z</time>
      </trkpt>
      <trkpt lat="45.26651" lon="5.55595">
        <ele>664.89</ele>
        <time>2013-06-02T13:38:38Z</time>
      </trkpt>
      <trkpt lat="45.26656" lon="5.55595">
        <ele>664.89</ele>
        <time>2013-06-02T13:38:39Z</time>
      </trkpt>
      <trkpt lat="45.26659" lon="5.55595">
        <ele>664.41</ele>
        <time>2013-06-02T13:38:40Z</time>
      </trkpt>
      <trkpt lat="45.26664" lon="5.55596">
        <ele>663.93</ele>
        <time>2013-06-02T13:38:41Z</time>
      </trkpt>
      <trkpt lat="45.26668" lon="5.55596">
        <ele>662.97</ele>
        <time>2013-06-02T13:38:42Z</time>
      </trkpt>
      <trkpt lat="45.26673" lon="5.55597">
        <ele>662.49</ele>
        <time>2013-06-02T13:38:43Z</time>
      </trkpt>
      <trkpt lat="45.26678" lon="5.55597">
        <ele>661.04</ele>
        <time>2013-06-02T13:38:44Z</time>
      </trkpt>
      <trkpt lat="45.26683" lon="5.55597">
        <ele>660.56</ele>
        <time>2013-06-02T13:38:45Z</time>
      </trkpt>
      <trkpt lat="45.26689" lon="5.55597">
        <ele>660.08</ele>
        <time>2013-06-02T13:38:46Z</time>
      </trkpt>
      <trkpt lat="45.26695" lon="5.55596">
        <ele>659.12</ele>
        <time>2013-06-02T13:38:47Z</time>
      </trkpt>
      <trkpt lat="45.26699" lon="5.55595">
        <ele>658.64</ele>
        <time>2013-06-02T13:38:48Z</time>
      </trkpt>
      <trkpt lat="45.26712" lon="5.5559">
        <ele>655.28</ele>
        <time>2013-06-02T13:38:51Z</time>
      </trkpt>
      <trkpt lat="45.26715" lon="5.55586">
        <ele>654.31</ele>
        <time>2013-06-02T13:38:52Z</time>
      </trkpt>
      <trkpt lat="45.2672" lon="5.55574">
        <ele>651.43</ele>
        <time>2013-06-02T13:38:55Z</time>
      </trkpt>
      <trkpt lat="45.26724" lon="5.55568">
        <ele>650.95</ele>
        <time>2013-06-02T13:38:56Z</time>
      </trkpt>
      <trkpt lat="45.26727" lon="5.55563">
        <ele>649.03</ele>
        <time>2013-06-02T13:38:57Z</time>
      </trkpt>
      <trkpt lat="45.26731" lon="5.55546">
        <ele>647.1</ele>
        <time>2013-06-02T13:39:00Z</time>
      </trkpt>
      <trkpt lat="45.26734" lon="5.5554">
        <ele>646.14</ele>
        <time>2013-06-02T13:39:01Z</time>
      </trkpt>
      <trkpt lat="45.26737" lon="5.55534">
        <ele>645.66</ele>
        <time>2013-06-02T13:39:02Z</time>
      </trkpt>
      <trkpt lat="45.2674" lon="5.5553">
        <ele>645.66</ele>
        <time>2013-06-02T13:39:03Z</time>
      </trkpt>
      <trkpt lat="45.26743" lon="5.55527">
        <ele>645.18</ele>
        <time>2013-06-02T13:39:04Z</time>
      </trkpt>
      <trkpt lat="45.26744" lon="5.55524">
        <ele>644.7</ele>
        <time>2013-06-02T13:39:05Z</time>
      </trkpt>
      <trkpt lat="45.26748" lon="5.55513">
        <ele>643.26</ele>
        <time>2013-06-02T13:39:09Z</time>
      </trkpt>
      <trkpt lat="45.26748" lon="5.55509">
        <ele>642.3</ele>
        <time>2013-06-02T13:39:10Z</time>
      </trkpt>
      <trkpt lat="45.2675" lon="5.55501">
        <ele>640.86</ele>
        <time>2013-06-02T13:39:12Z</time>
      </trkpt>
      <trkpt lat="45.26751" lon="5.55497">
        <ele>640.38</ele>
        <time>2013-06-02T13:39:13Z</time>
      </trkpt>
      <trkpt lat="45.26753" lon="5.55492">
        <ele>639.41</ele>
        <time>2013-06-02T13:39:14Z</time>
      </trkpt>
      <trkpt lat="45.26757" lon="5.55472">
        <ele>637.01</ele>
        <time>2013-06-02T13:39:17Z</time>
      </trkpt>
      <trkpt lat="45.26758" lon="5.55467">
        <ele>636.53</ele>
        <time>2013-06-02T13:39:18Z</time>
      </trkpt>
      <trkpt lat="45.26758" lon="5.55451">
        <ele>634.61</ele>
        <time>2013-06-02T13:39:20Z</time>
      </trkpt>
      <trkpt lat="45.26759" lon="5.55429">
        <ele>631.24</ele>
        <time>2013-06-02T13:39:23Z</time>
      </trkpt>
      <trkpt lat="45.2676" lon="5.55422">
        <ele>630.28</ele>
        <time>2013-06-02T13:39:24Z</time>
      </trkpt>
      <trkpt lat="45.26762" lon="5.55394">
        <ele>627.4</ele>
        <time>2013-06-02T13:39:28Z</time>
      </trkpt>
      <trkpt lat="45.26758" lon="5.55358">
        <ele>624.03</ele>
        <time>2013-06-02T13:39:35Z</time>
      </trkpt>
      <trkpt lat="45.26756" lon="5.55341">
        <ele>620.19</ele>
        <time>2013-06-02T13:39:39Z</time>
      </trkpt>
      <trkpt lat="45.26756" lon="5.55329">
        <ele>619.23</ele>
        <time>2013-06-02T13:39:42Z</time>
      </trkpt>
      <trkpt lat="45.26759" lon="5.55311">
        <ele>617.3</ele>
        <time>2013-06-02T13:39:47Z</time>
      </trkpt>
      <trkpt lat="45.26758" lon="5.55305">
        <ele>616.82</ele>
        <time>2013-06-02T13:39:48Z</time>
      </trkpt>
      <trkpt lat="45.26756" lon="5.55299">
        <ele>615.86</ele>
        <time>2013-06-02T13:39:49Z</time>
      </trkpt>
      <trkpt lat="45.26736" lon="5.55254">
        <ele>615.38</ele>
        <time>2013-06-02T13:39:58Z</time>
      </trkpt>
      <trkpt lat="45.26714" lon="5.55239">
        <ele>612.02</ele>
        <time>2013-06-02T13:40:04Z</time>
      </trkpt>
      <trkpt lat="45.26711" lon="5.55238">
        <ele>611.54</ele>
        <time>2013-06-02T13:40:05Z</time>
      </trkpt>
      <trkpt lat="45.267" lon="5.55236">
        <ele>608.65</ele>
        <time>2013-06-02T13:40:09Z</time>
      </trkpt>
      <trkpt lat="45.26691" lon="5.55231">
        <ele>605.29</ele>
        <time>2013-06-02T13:40:12Z</time>
      </trkpt>
      <trkpt lat="45.26682" lon="5.55225">
        <ele>602.88</ele>
        <time>2013-06-02T13:40:21Z</time>
      </trkpt>
      <trkpt lat="45.2668" lon="5.55224">
        <ele>601.92</ele>
        <time>2013-06-02T13:40:37Z</time>
      </trkpt>
      <trkpt lat="45.26663" lon="5.55221">
        <ele>598.56</ele>
        <time>2013-06-02T13:40:44Z</time>
      </trkpt>
      <trkpt lat="45.26642" lon="5.55216">
        <ele>595.67</ele>
        <time>2013-06-02T13:40:50Z</time>
      </trkpt>
      <trkpt lat="45.26632" lon="5.55209">
        <ele>592.31</ele>
        <time>2013-06-02T13:40:53Z</time>
      </trkpt>
      <trkpt lat="45.26622" lon="5.55204">
        <ele>591.35</ele>
        <time>2013-06-02T13:40:57Z</time>
      </trkpt>
      <trkpt lat="45.26619" lon="5.55197">
        <ele>590.39</ele>
        <time>2013-06-02T13:41:01Z</time>
      </trkpt>
      <trkpt lat="45.26621" lon="5.55192">
        <ele>590.87</ele>
        <time>2013-06-02T13:41:13Z</time>
      </trkpt>
      <trkpt lat="45.26621" lon="5.55192">
        <ele>588.46</ele>
        <time>2013-06-02T13:41:20Z</time>
      </trkpt>
      <trkpt lat="45.26621" lon="5.55192">
        <ele>588.95</ele>
        <time>2013-06-02T13:41:21Z</time>
      </trkpt>
      <trkpt lat="45.26621" lon="5.55192">
        <ele>590.87</ele>
        <time>2013-06-02T13:41:22Z</time>
      </trkpt>
      <trkpt lat="45.26621" lon="5.55192">
        <ele>588.95</ele>
        <time>2013-06-02T13:41:26Z</time>
      </trkpt>
      <trkpt lat="45.26621" lon="5.55192">
        <ele>592.79</ele>
        <time>2013-06-02T13:41:27Z</time>
      </trkpt>
      <trkpt lat="45.26621" lon="5.55192">
        <ele>591.35</ele>
        <time>2013-06-02T13:41:28Z</time>
      </trkpt>
      <trkpt lat="45.26619" lon="5.55187">
        <ele>592.31</ele>
        <time>2013-06-02T13:41:39Z</time>
      </trkpt>
      <trkpt lat="45.26624" lon="5.55186">
        <ele>592.31</ele>
        <time>2013-06-02T13:41:42Z</time>
      </trkpt>
      <trkpt lat="45.26627" lon="5.55185">
        <ele>592.31</ele>
        <time>2013-06-02T13:41:44Z</time>
      </trkpt>
      <trkpt lat="45.2666" lon="5.55162">
        <ele>596.15</ele>
        <time>2013-06-02T13:41:57Z</time>
      </trkpt>
      <trkpt lat="45.26691" lon="5.55132">
        <ele>598.56</ele>
        <time>2013-06-02T13:42:10Z</time>
      </trkpt>
      <trkpt lat="45.26692" lon="5.55119">
        <ele>601.44</ele>
        <time>2013-06-02T13:42:22Z</time>
      </trkpt>
      <trkpt lat="45.26691" lon="5.55119">
        <ele>602.4</ele>
        <time>2013-06-02T13:42:30Z</time>
      </trkpt>
      <trkpt lat="45.26694" lon="5.55115">
        <ele>602.4</ele>
        <time>2013-06-02T13:42:31Z</time>
      </trkpt>
      <trkpt lat="45.26698" lon="5.55108">
        <ele>602.4</ele>
        <time>2013-06-02T13:42:33Z</time>
      </trkpt>
      <trkpt lat="45.26706" lon="5.55087">
        <ele>606.25</ele>
        <time>2013-06-02T13:42:45Z</time>
      </trkpt>
      <trkpt lat="45.26706" lon="5.55086">
        <ele>605.77</ele>
        <time>2013-06-02T13:42:46Z</time>
      </trkpt>
      <trkpt lat="45.26708" lon="5.55084">
        <ele>605.77</ele>
        <time>2013-06-02T13:42:47Z</time>
      </trkpt>
      <trkpt lat="45.26707" lon="5.55065">
        <ele>607.21</ele>
        <time>2013-06-02T13:42:57Z</time>
      </trkpt>
      <trkpt lat="45.26707" lon="5.55065">
        <ele>607.69</ele>
        <time>2013-06-02T13:43:05Z</time>
      </trkpt>
      <trkpt lat="45.26706" lon="5.55048">
        <ele>609.61</ele>
        <time>2013-06-02T13:43:15Z</time>
      </trkpt>
      <trkpt lat="45.26707" lon="5.5502">
        <ele>610.57</ele>
        <time>2013-06-02T13:43:23Z</time>
      </trkpt>
      <trkpt lat="45.26723" lon="5.5499">
        <ele>607.21</ele>
        <time>2013-06-02T13:43:31Z</time>
      </trkpt>
      <trkpt lat="45.26731" lon="5.5498">
        <ele>604.33</ele>
        <time>2013-06-02T13:43:34Z</time>
      </trkpt>
      <trkpt lat="45.26734" lon="5.54975">
        <ele>604.81</ele>
        <time>2013-06-02T13:43:35Z</time>
      </trkpt>
      <trkpt lat="45.26738" lon="5.54969">
        <ele>604.33</ele>
        <time>2013-06-02T13:43:36Z</time>
      </trkpt>
      <trkpt lat="45.26758" lon="5.54922">
        <ele>604.81</ele>
        <time>2013-06-02T13:43:44Z</time>
      </trkpt>
      <trkpt lat="45.26764" lon="5.54872">
        <ele>605.29</ele>
        <time>2013-06-02T13:43:54Z</time>
      </trkpt>
      <trkpt lat="45.26766" lon="5.54866">
        <ele>605.29</ele>
        <time>2013-06-02T13:43:55Z</time>
      </trkpt>
      <trkpt lat="45.26767" lon="5.5486">
        <ele>604.81</ele>
        <time>2013-06-02T13:43:56Z</time>
      </trkpt>
      <trkpt lat="45.2677" lon="5.54855">
        <ele>604.33</ele>
        <time>2013-06-02T13:43:57Z</time>
      </trkpt>
      <trkpt lat="45.26775" lon="5.54841">
        <ele>603.85</ele>
        <time>2013-06-02T13:43:59Z</time>
      </trkpt>
      <trkpt lat="45.26787" lon="5.54805">
        <ele>601.44</ele>
        <time>2013-06-02T13:44:06Z</time>
      </trkpt>
      <trkpt lat="45.26787" lon="5.54794">
        <ele>598.56</ele>
        <time>2013-06-02T13:44:10Z</time>
      </trkpt>
      <trkpt lat="45.26782" lon="5.54779">
        <ele>595.67</ele>
        <time>2013-06-02T13:44:12Z</time>
      </trkpt>
      <trkpt lat="45.2678" lon="5.54772">
        <ele>594.71</ele>
        <time>2013-06-02T13:44:13Z</time>
      </trkpt>
      <trkpt lat="45.26778" lon="5.54763">
        <ele>593.27</ele>
        <time>2013-06-02T13:44:14Z</time>
      </trkpt>
      <trkpt lat="45.26776" lon="5.54754">
        <ele>592.31</ele>
        <time>2013-06-02T13:44:15Z</time>
      </trkpt>
      <trkpt lat="45.26774" lon="5.54724">
        <ele>588.95</ele>
        <time>2013-06-02T13:44:21Z</time>
      </trkpt>
      <trkpt lat="45.2677" lon="5.54711">
        <ele>587.02</ele>
        <time>2013-06-02T13:44:23Z</time>
      </trkpt>
      <trkpt lat="45.2677" lon="5.54707">
        <ele>585.1</ele>
        <time>2013-06-02T13:44:24Z</time>
      </trkpt>
      <trkpt lat="45.26769" lon="5.54691">
        <ele>583.18</ele>
        <time>2013-06-02T13:44:26Z</time>
      </trkpt>
      <trkpt lat="45.26767" lon="5.54684">
        <ele>583.18</ele>
        <time>2013-06-02T13:44:27Z</time>
      </trkpt>
      <trkpt lat="45.26756" lon="5.54658">
        <ele>579.81</ele>
        <time>2013-06-02T13:44:32Z</time>
      </trkpt>
      <trkpt lat="45.26752" lon="5.54645">
        <ele>578.85</ele>
        <time>2013-06-02T13:44:34Z</time>
      </trkpt>
      <trkpt lat="45.26749" lon="5.54637">
        <ele>578.37</ele>
        <time>2013-06-02T13:44:35Z</time>
      </trkpt>
      <trkpt lat="45.2674" lon="5.5461">
        <ele>576.93</ele>
        <time>2013-06-02T13:44:42Z</time>
      </trkpt>
      <trkpt lat="45.26731" lon="5.54589">
        <ele>574.04</ele>
        <time>2013-06-02T13:44:48Z</time>
      </trkpt>
      <trkpt lat="45.26728" lon="5.54584">
        <ele>572.6</ele>
        <time>2013-06-02T13:44:49Z</time>
      </trkpt>
      <trkpt lat="45.26725" lon="5.5458">
        <ele>571.64</ele>
        <time>2013-06-02T13:44:50Z</time>
      </trkpt>
      <trkpt lat="45.2672" lon="5.54569">
        <ele>568.76</ele>
        <time>2013-06-02T13:44:53Z</time>
      </trkpt>
      <trkpt lat="45.26712" lon="5.54558">
        <ele>565.39</ele>
        <time>2013-06-02T13:44:58Z</time>
      </trkpt>
      <trkpt lat="45.26713" lon="5.54546">
        <ele>562.51</ele>
        <time>2013-06-02T13:45:01Z</time>
      </trkpt>
      <trkpt lat="45.26714" lon="5.54542">
        <ele>561.55</ele>
        <time>2013-06-02T13:45:02Z</time>
      </trkpt>
      <trkpt lat="45.26712" lon="5.5454">
        <ele>561.07</ele>
        <time>2013-06-02T13:45:03Z</time>
      </trkpt>
      <trkpt lat="45.2671" lon="5.54537">
        <ele>560.11</ele>
        <time>2013-06-02T13:45:05Z</time>
      </trkpt>
      <trkpt lat="45.26708" lon="5.54537">
        <ele>558.66</ele>
        <time>2013-06-02T13:45:07Z</time>
      </trkpt>
      <trkpt lat="45.26704" lon="5.54525">
        <ele>554.82</ele>
        <time>2013-06-02T13:45:12Z</time>
      </trkpt>
      <trkpt lat="45.26707" lon="5.54513">
        <ele>550.97</ele>
        <time>2013-06-02T13:45:17Z</time>
      </trkpt>
      <trkpt lat="45.26712" lon="5.54511">
        <ele>550.01</ele>
        <time>2013-06-02T13:45:19Z</time>
      </trkpt>
      <trkpt lat="45.26721" lon="5.54505">
        <ele>550.01</ele>
        <time>2013-06-02T13:45:32Z</time>
      </trkpt>
      <trkpt lat="45.26724" lon="5.54502">
        <ele>550.97</ele>
        <time>2013-06-02T13:45:44Z</time>
      </trkpt>
      <trkpt lat="45.26729" lon="5.54501">
        <ele>550.49</ele>
        <time>2013-06-02T13:45:49Z</time>
      </trkpt>
      <trkpt lat="45.26735" lon="5.54499">
        <ele>547.13</ele>
        <time>2013-06-02T13:45:54Z</time>
      </trkpt>
      <trkpt lat="45.2673" lon="5.54482">
        <ele>543.76</ele>
        <time>2013-06-02T13:46:01Z</time>
      </trkpt>
      <trkpt lat="45.26728" lon="5.54478">
        <ele>542.32</ele>
        <time>2013-06-02T13:46:03Z</time>
      </trkpt>
      <trkpt lat="45.26733" lon="5.54455">
        <ele>537.51</ele>
        <time>2013-06-02T13:46:08Z</time>
      </trkpt>
      <trkpt lat="45.26737" lon="5.54436">
        <ele>534.15</ele>
        <time>2013-06-02T13:46:13Z</time>
      </trkpt>
      <trkpt lat="45.26735" lon="5.54432">
        <ele>532.71</ele>
        <time>2013-06-02T13:46:14Z</time>
      </trkpt>
      <trkpt lat="45.26734" lon="5.54417">
        <ele>529.34</ele>
        <time>2013-06-02T13:46:17Z</time>
      </trkpt>
      <trkpt lat="45.2673" lon="5.54404">
        <ele>525.02</ele>
        <time>2013-06-02T13:46:20Z</time>
      </trkpt>
      <trkpt lat="45.26728" lon="5.544">
        <ele>524.06</ele>
        <time>2013-06-02T13:46:21Z</time>
      </trkpt>
      <trkpt lat="45.26728" lon="5.54392">
        <ele>523.09</ele>
        <time>2013-06-02T13:46:22Z</time>
      </trkpt>
      <trkpt lat="45.26726" lon="5.54386">
        <ele>521.65</ele>
        <time>2013-06-02T13:46:23Z</time>
      </trkpt>
      <trkpt lat="45.26726" lon="5.5438">
        <ele>521.17</ele>
        <time>2013-06-02T13:46:24Z</time>
      </trkpt>
      <trkpt lat="45.26725" lon="5.54373">
        <ele>520.21</ele>
        <time>2013-06-02T13:46:25Z</time>
      </trkpt>
      <trkpt lat="45.26724" lon="5.54366">
        <ele>519.25</ele>
        <time>2013-06-02T13:46:26Z</time>
      </trkpt>
      <trkpt lat="45.26723" lon="5.5436">
        <ele>518.77</ele>
        <time>2013-06-02T13:46:27Z</time>
      </trkpt>
      <trkpt lat="45.26722" lon="5.54355">
        <ele>518.29</ele>
        <time>2013-06-02T13:46:28Z</time>
      </trkpt>
      <trkpt lat="45.26721" lon="5.54344">
        <ele>517.33</ele>
        <time>2013-06-02T13:46:30Z</time>
      </trkpt>
      <trkpt lat="45.26723" lon="5.54331">
        <ele>515.88</ele>
        <time>2013-06-02T13:46:33Z</time>
      </trkpt>
      <trkpt lat="45.26723" lon="5.54328">
        <ele>515.88</ele>
        <time>2013-06-02T13:46:34Z</time>
      </trkpt>
      <trkpt lat="45.26724" lon="5.54321">
        <ele>514.44</ele>
        <time>2013-06-02T13:46:39Z</time>
      </trkpt>
      <trkpt lat="45.26723" lon="5.54319">
        <ele>514.44</ele>
        <time>2013-06-02T13:46:40Z</time>
      </trkpt>
      <trkpt lat="45.26723" lon="5.54316">
        <ele>513.96</ele>
        <time>2013-06-02T13:46:41Z</time>
      </trkpt>
      <trkpt lat="45.26724" lon="5.54312">
        <ele>513.48</ele>
        <time>2013-06-02T13:46:42Z</time>
      </trkpt>
      <trkpt lat="45.26725" lon="5.54309">
        <ele>513</ele>
        <time>2013-06-02T13:46:43Z</time>
      </trkpt>
      <trkpt lat="45.26727" lon="5.54306">
        <ele>512.04</ele>
        <time>2013-06-02T13:46:44Z</time>
      </trkpt>
      <trkpt lat="45.26746" lon="5.54306">
        <ele>509.64</ele>
        <time>2013-06-02T13:46:49Z</time>
      </trkpt>
      <trkpt lat="45.26765" lon="5.54312">
        <ele>505.31</ele>
        <time>2013-06-02T13:46:55Z</time>
      </trkpt>
      <trkpt lat="45.2677" lon="5.54314">
        <ele>503.87</ele>
        <time>2013-06-02T13:46:57Z</time>
      </trkpt>
      <trkpt lat="45.26775" lon="5.5432">
        <ele>501.46</ele>
        <time>2013-06-02T13:47:07Z</time>
      </trkpt>
      <trkpt lat="45.26775" lon="5.5432">
        <ele>499.06</ele>
        <time>2013-06-02T13:47:10Z</time>
      </trkpt>
      <trkpt lat="45.26777" lon="5.54322">
        <ele>500.5</ele>
        <time>2013-06-02T13:47:23Z</time>
      </trkpt>
      <trkpt lat="45.26777" lon="5.54322">
        <ele>500.98</ele>
        <time>2013-06-02T13:47:41Z</time>
      </trkpt>
      <trkpt lat="45.26778" lon="5.54321">
        <ele>503.39</ele>
        <time>2013-06-02T13:47:55Z</time>
      </trkpt>
      <trkpt lat="45.2678" lon="5.54319">
        <ele>502.91</ele>
        <time>2013-06-02T13:48:09Z</time>
      </trkpt>
      <trkpt lat="45.26784" lon="5.54319">
        <ele>500.5</ele>
        <time>2013-06-02T13:48:22Z</time>
      </trkpt>
      <trkpt lat="45.26783" lon="5.54319">
        <ele>497.14</ele>
        <time>2013-06-02T13:48:26Z</time>
      </trkpt>
      <trkpt lat="45.26784" lon="5.54318">
        <ele>496.18</ele>
        <time>2013-06-02T13:48:27Z</time>
      </trkpt>
      <trkpt lat="45.26791" lon="5.54319">
        <ele>491.85</ele>
        <time>2013-06-02T13:48:33Z</time>
      </trkpt>
      <trkpt lat="45.26791" lon="5.5432">
        <ele>491.37</ele>
        <time>2013-06-02T13:48:34Z</time>
      </trkpt>
      <trkpt lat="45.26798" lon="5.54319">
        <ele>488.01</ele>
        <time>2013-06-02T13:48:39Z</time>
      </trkpt>
      <trkpt lat="45.26801" lon="5.54324">
        <ele>485.12</ele>
        <time>2013-06-02T13:48:43Z</time>
      </trkpt>
      <trkpt lat="45.26802" lon="5.54327">
        <ele>484.16</ele>
        <time>2013-06-02T13:48:53Z</time>
      </trkpt>
      <trkpt lat="45.26807" lon="5.54323">
        <ele>483.68</ele>
        <time>2013-06-02T13:49:01Z</time>
      </trkpt>
      <trkpt lat="45.26811" lon="5.54316">
        <ele>480.8</ele>
        <time>2013-06-02T13:49:07Z</time>
      </trkpt>
      <trkpt lat="45.26815" lon="5.54302">
        <ele>478.39</ele>
        <time>2013-06-02T13:49:13Z</time>
      </trkpt>
      <trkpt lat="45.26817" lon="5.5429">
        <ele>475.51</ele>
        <time>2013-06-02T13:49:17Z</time>
      </trkpt>
      <trkpt lat="45.26819" lon="5.54282">
        <ele>473.59</ele>
        <time>2013-06-02T13:49:20Z</time>
      </trkpt>
      <trkpt lat="45.26823" lon="5.54273">
        <ele>471.66</ele>
        <time>2013-06-02T13:49:24Z</time>
      </trkpt>
      <trkpt lat="45.26826" lon="5.5427">
        <ele>470.7</ele>
        <time>2013-06-02T13:49:28Z</time>
      </trkpt>
      <trkpt lat="45.26822" lon="5.54265">
        <ele>469.74</ele>
        <time>2013-06-02T13:49:32Z</time>
      </trkpt>
      <trkpt lat="45.26819" lon="5.54259">
        <ele>467.82</ele>
        <time>2013-06-02T13:49:44Z</time>
      </trkpt>
      <trkpt lat="45.26819" lon="5.54257">
        <ele>467.34</ele>
        <time>2013-06-02T13:49:50Z</time>
      </trkpt>
      <trkpt lat="45.26817" lon="5.54244">
        <ele>467.34</ele>
        <time>2013-06-02T13:50:00Z</time>
      </trkpt>
      <trkpt lat="45.26816" lon="5.54237">
        <ele>464.93</ele>
        <time>2013-06-02T13:50:11Z</time>
      </trkpt>
      <trkpt lat="45.26816" lon="5.54236">
        <ele>464.45</ele>
        <time>2013-06-02T13:50:13Z</time>
      </trkpt>
      <trkpt lat="45.2682" lon="5.54234">
        <ele>460.61</ele>
        <time>2013-06-02T13:50:19Z</time>
      </trkpt>
      <trkpt lat="45.26822" lon="5.54234">
        <ele>459.65</ele>
        <time>2013-06-02T13:50:20Z</time>
      </trkpt>
      <trkpt lat="45.26834" lon="5.54235">
        <ele>454.84</ele>
        <time>2013-06-02T13:50:26Z</time>
      </trkpt>
      <trkpt lat="45.26837" lon="5.54235">
        <ele>452.44</ele>
        <time>2013-06-02T13:50:30Z</time>
      </trkpt>
      <trkpt lat="45.26838" lon="5.54236">
        <ele>451.48</ele>
        <time>2013-06-02T13:50:31Z</time>
      </trkpt>
      <trkpt lat="45.26849" lon="5.54243">
        <ele>446.67</ele>
        <time>2013-06-02T13:50:36Z</time>
      </trkpt>
      <trkpt lat="45.26855" lon="5.54248">
        <ele>444.27</ele>
        <time>2013-06-02T13:50:39Z</time>
      </trkpt>
      <trkpt lat="45.26859" lon="5.54255">
        <ele>440.42</ele>
        <time>2013-06-02T13:50:45Z</time>
      </trkpt>
      <trkpt lat="45.26864" lon="5.5426">
        <ele>437.54</ele>
        <time>2013-06-02T13:50:49Z</time>
      </trkpt>
      <trkpt lat="45.26871" lon="5.54261">
        <ele>434.17</ele>
        <time>2013-06-02T13:50:54Z</time>
      </trkpt>
      <trkpt lat="45.26871" lon="5.5426">
        <ele>432.73</ele>
        <time>2013-06-02T13:50:56Z</time>
      </trkpt>
      <trkpt lat="45.26868" lon="5.54253">
        <ele>429.85</ele>
        <time>2013-06-02T13:51:01Z</time>
      </trkpt>
      <trkpt lat="45.26868" lon="5.54245">
        <ele>427.44</ele>
        <time>2013-06-02T13:51:04Z</time>
      </trkpt>
      <trkpt lat="45.26861" lon="5.54225">
        <ele>422.64</ele>
        <time>2013-06-02T13:51:13Z</time>
      </trkpt>
      <trkpt lat="45.26861" lon="5.54224">
        <ele>422.16</ele>
        <time>2013-06-02T13:51:15Z</time>
      </trkpt>
      <trkpt lat="45.26859" lon="5.54222">
        <ele>420.71</ele>
        <time>2013-06-02T13:51:18Z</time>
      </trkpt>
      <trkpt lat="45.26856" lon="5.54223">
        <ele>420.71</ele>
        <time>2013-06-02T13:51:23Z</time>
      </trkpt>
      <trkpt lat="45.26858" lon="5.5422">
        <ele>416.87</ele>
        <time>2013-06-02T13:51:33Z</time>
      </trkpt>
      <trkpt lat="45.2686" lon="5.54219">
        <ele>419.75</ele>
        <time>2013-06-02T13:51:34Z</time>
      </trkpt>
      <trkpt lat="45.26869" lon="5.5421">
        <ele>418.79</ele>
        <time>2013-06-02T13:51:55Z</time>
      </trkpt>
      <trkpt lat="45.26871" lon="5.54208">
        <ele>419.75</ele>
        <time>2013-06-02T13:52:08Z</time>
      </trkpt>
      <trkpt lat="45.26873" lon="5.54205">
        <ele>418.79</ele>
        <time>2013-06-02T13:52:11Z</time>
      </trkpt>
      <trkpt lat="45.26874" lon="5.54201">
        <ele>416.39</ele>
        <time>2013-06-02T13:52:15Z</time>
      </trkpt>
      <trkpt lat="45.2688" lon="5.542">
        <ele>413.02</ele>
        <time>2013-06-02T13:52:19Z</time>
      </trkpt>
      <trkpt lat="45.2688" lon="5.542">
        <ele>412.54</ele>
        <time>2013-06-02T13:52:20Z</time>
      </trkpt>
      <trkpt lat="45.26881" lon="5.54203">
        <ele>410.62</ele>
        <time>2013-06-02T13:52:21Z</time>
      </trkpt>
      <trkpt lat="45.26883" lon="5.54207">
        <ele>408.7</ele>
        <time>2013-06-02T13:52:24Z</time>
      </trkpt>
      <trkpt lat="45.26882" lon="5.54207">
        <ele>408.22</ele>
        <time>2013-06-02T13:52:25Z</time>
      </trkpt>
      <trkpt lat="45.26882" lon="5.54206">
        <ele>407.26</ele>
        <time>2013-06-02T13:52:27Z</time>
      </trkpt>
      <trkpt lat="45.26882" lon="5.54205">
        <ele>406.29</ele>
        <time>2013-06-02T13:52:28Z</time>
      </trkpt>
      <trkpt lat="45.26883" lon="5.54188">
        <ele>402.93</ele>
        <time>2013-06-02T13:52:32Z</time>
      </trkpt>
      <trkpt lat="45.26886" lon="5.54186">
        <ele>401.97</ele>
        <time>2013-06-02T13:52:33Z</time>
      </trkpt>
      <trkpt lat="45.26889" lon="5.5418">
        <ele>398.6</ele>
        <time>2013-06-02T13:52:37Z</time>
      </trkpt>
      <trkpt lat="45.26893" lon="5.5418">
        <ele>397.64</ele>
        <time>2013-06-02T13:52:38Z</time>
      </trkpt>
      <trkpt lat="45.26891" lon="5.54181">
        <ele>394.76</ele>
        <time>2013-06-02T13:52:41Z</time>
      </trkpt>
      <trkpt lat="45.26894" lon="5.54176">
        <ele>392.36</ele>
        <time>2013-06-02T13:52:44Z</time>
      </trkpt>
      <trkpt lat="45.26895" lon="5.54175">
        <ele>388.51</ele>
        <time>2013-06-02T13:52:47Z</time>
      </trkpt>
      <trkpt lat="45.26901" lon="5.54179">
        <ele>388.03</ele>
        <time>2013-06-02T13:52:48Z</time>
      </trkpt>
      <trkpt lat="45.26907" lon="5.54184">
        <ele>385.63</ele>
        <time>2013-06-02T13:52:50Z</time>
      </trkpt>
      <trkpt lat="45.26914" lon="5.54181">
        <ele>384.18</ele>
        <time>2013-06-02T13:52:51Z</time>
      </trkpt>
      <trkpt lat="45.26917" lon="5.5418">
        <ele>382.26</ele>
        <time>2013-06-02T13:52:52Z</time>
      </trkpt>
      <trkpt lat="45.26918" lon="5.54179">
        <ele>381.3</ele>
        <time>2013-06-02T13:52:53Z</time>
      </trkpt>
      <trkpt lat="45.26933" lon="5.54185">
        <ele>378.9</ele>
        <time>2013-06-02T13:53:07Z</time>
      </trkpt>
      <trkpt lat="45.26933" lon="5.54185">
        <ele>379.38</ele>
        <time>2013-06-02T13:53:27Z</time>
      </trkpt>
      <trkpt lat="45.26945" lon="5.54184">
        <ele>377.45</ele>
        <time>2013-06-02T13:53:32Z</time>
      </trkpt>
      <trkpt lat="45.26945" lon="5.54176">
        <ele>374.09</ele>
        <time>2013-06-02T13:53:37Z</time>
      </trkpt>
      <trkpt lat="45.2695" lon="5.54176">
        <ele>373.61</ele>
        <time>2013-06-02T13:53:41Z</time>
      </trkpt>
      <trkpt lat="45.26966" lon="5.54179">
        <ele>372.17</ele>
        <time>2013-06-02T13:53:51Z</time>
      </trkpt>
      <trkpt lat="45.26968" lon="5.5418">
        <ele>369.76</ele>
        <time>2013-06-02T13:53:55Z</time>
      </trkpt>
      <trkpt lat="45.26969" lon="5.54182">
        <ele>367.84</ele>
        <time>2013-06-02T13:53:57Z</time>
      </trkpt>
      <trkpt lat="45.26967" lon="5.54184">
        <ele>363.04</ele>
        <time>2013-06-02T13:54:01Z</time>
      </trkpt>
      <trkpt lat="45.26966" lon="5.54184">
        <ele>361.11</ele>
        <time>2013-06-02T13:54:02Z</time>
      </trkpt>
      <trkpt lat="45.26967" lon="5.54184">
        <ele>360.63</ele>
        <time>2013-06-02T13:54:03Z</time>
      </trkpt>
      <trkpt lat="45.26972" lon="5.54183">
        <ele>356.79</ele>
        <time>2013-06-02T13:54:06Z</time>
      </trkpt>
      <trkpt lat="45.26975" lon="5.54184">
        <ele>356.31</ele>
        <time>2013-06-02T13:54:07Z</time>
      </trkpt>
      <trkpt lat="45.26979" lon="5.54182">
        <ele>354.86</ele>
        <time>2013-06-02T13:54:08Z</time>
      </trkpt>
      <trkpt lat="45.26984" lon="5.54181">
        <ele>351.5</ele>
        <time>2013-06-02T13:54:11Z</time>
      </trkpt>
      <trkpt lat="45.2699" lon="5.54178">
        <ele>348.62</ele>
        <time>2013-06-02T13:54:13Z</time>
      </trkpt>
      <trkpt lat="45.26994" lon="5.54176">
        <ele>346.21</ele>
        <time>2013-06-02T13:54:15Z</time>
      </trkpt>
      <trkpt lat="45.26995" lon="5.54176">
        <ele>343.33</ele>
        <time>2013-06-02T13:54:17Z</time>
      </trkpt>
      <trkpt lat="45.27012" lon="5.54174">
        <ele>340.44</ele>
        <time>2013-06-02T13:54:19Z</time>
      </trkpt>
      <trkpt lat="45.27019" lon="5.54173">
        <ele>337.56</ele>
        <time>2013-06-02T13:54:21Z</time>
      </trkpt>
      <trkpt lat="45.27025" lon="5.54171">
        <ele>336.6</ele>
        <time>2013-06-02T13:54:22Z</time>
      </trkpt>
      <trkpt lat="45.27122" lon="5.54193">
        <ele>335.16</ele>
        <time>2013-06-02T13:54:24Z</time>
      </trkpt>
      <trkpt lat="45.27131" lon="5.54186">
        <ele>330.83</ele>
        <time>2013-06-02T13:54:27Z</time>
      </trkpt>
      <trkpt lat="45.27136" lon="5.54178">
        <ele>326.02</ele>
        <time>2013-06-02T13:54:30Z</time>
      </trkpt>
      <trkpt lat="45.27139" lon="5.54175">
        <ele>324.1</ele>
        <time>2013-06-02T13:54:31Z</time>
      </trkpt>
      <trkpt lat="45.27162" lon="5.54175">
        <ele>319.3</ele>
        <time>2013-06-02T13:54:38Z</time>
      </trkpt>
      <trkpt lat="45.27166" lon="5.54179">
        <ele>318.33</ele>
        <time>2013-06-02T13:54:40Z</time>
      </trkpt>
      <trkpt lat="45.27186" lon="5.5419">
        <ele>315.93</ele>
        <time>2013-06-02T13:54:46Z</time>
      </trkpt>
      <trkpt lat="45.27185" lon="5.5419">
        <ele>314.97</ele>
        <time>2013-06-02T13:54:47Z</time>
      </trkpt>
      <trkpt lat="45.27188" lon="5.54188">
        <ele>314.49</ele>
        <time>2013-06-02T13:54:48Z</time>
      </trkpt>
      <trkpt lat="45.27186" lon="5.54174">
        <ele>310.64</ele>
        <time>2013-06-02T13:54:52Z</time>
      </trkpt>
      <trkpt lat="45.27184" lon="5.54167">
        <ele>308.72</ele>
        <time>2013-06-02T13:54:54Z</time>
      </trkpt>
      <trkpt lat="45.27182" lon="5.5416">
        <ele>305.84</ele>
        <time>2013-06-02T13:54:56Z</time>
      </trkpt>
      <trkpt lat="45.27187" lon="5.54143">
        <ele>300.55</ele>
        <time>2013-06-02T13:55:00Z</time>
      </trkpt>
      <trkpt lat="45.27191" lon="5.54134">
        <ele>296.22</ele>
        <time>2013-06-02T13:55:05Z</time>
      </trkpt>
      <trkpt lat="45.27195" lon="5.54131">
        <ele>295.74</ele>
        <time>2013-06-02T13:55:07Z</time>
      </trkpt>
      <trkpt lat="45.27198" lon="5.54104">
        <ele>290.94</ele>
        <time>2013-06-02T13:55:14Z</time>
      </trkpt>
      <trkpt lat="45.27215" lon="5.54088">
        <ele>288.05</ele>
        <time>2013-06-02T13:55:18Z</time>
      </trkpt>
      <trkpt lat="45.27234" lon="5.54086">
        <ele>283.73</ele>
        <time>2013-06-02T13:55:22Z</time>
      </trkpt>
      <trkpt lat="45.2724" lon="5.54088">
        <ele>279.4</ele>
        <time>2013-06-02T13:55:25Z</time>
      </trkpt>
      <trkpt lat="45.27242" lon="5.54088">
        <ele>278.44</ele>
        <time>2013-06-02T13:55:26Z</time>
      </trkpt>
      <trkpt lat="45.27244" lon="5.5409">
        <ele>275.07</ele>
        <time>2013-06-02T13:55:28Z</time>
      </trkpt>
      <trkpt lat="45.2725" lon="5.54092">
        <ele>272.67</ele>
        <time>2013-06-02T13:55:30Z</time>
      </trkpt>
      <trkpt lat="45.27252" lon="5.54096">
        <ele>268.83</ele>
        <time>2013-06-02T13:55:33Z</time>
      </trkpt>
      <trkpt lat="45.27264" lon="5.54101">
        <ele>265.46</ele>
        <time>2013-06-02T13:55:37Z</time>
      </trkpt>
      <trkpt lat="45.27268" lon="5.54104">
        <ele>264.5</ele>
        <time>2013-06-02T13:55:39Z</time>
      </trkpt>
      <trkpt lat="45.2736" lon="5.54133">
        <ele>263.06</ele>
        <time>2013-06-02T13:55:41Z</time>
      </trkpt>
      <trkpt lat="45.27357" lon="5.54141">
        <ele>262.1</ele>
        <time>2013-06-02T13:55:44Z</time>
      </trkpt>
      <trkpt lat="45.27367" lon="5.54145">
        <ele>260.65</ele>
        <time>2013-06-02T13:55:46Z</time>
      </trkpt>
      <trkpt lat="45.27385" lon="5.54141">
        <ele>256.81</ele>
        <time>2013-06-02T13:55:50Z</time>
      </trkpt>
      <trkpt lat="45.2739" lon="5.5414">
        <ele>256.33</ele>
        <time>2013-06-02T13:55:51Z</time>
      </trkpt>
      <trkpt lat="45.27396" lon="5.54139">
        <ele>255.37</ele>
        <time>2013-06-02T13:55:52Z</time>
      </trkpt>
      <trkpt lat="45.27402" lon="5.54136">
        <ele>254.41</ele>
        <time>2013-06-02T13:55:53Z</time>
      </trkpt>
      <trkpt lat="45.2741" lon="5.54132">
        <ele>252.96</ele>
        <time>2013-06-02T13:55:55Z</time>
      </trkpt>
      <trkpt lat="45.27412" lon="5.54127">
        <ele>252.48</ele>
        <time>2013-06-02T13:55:56Z</time>
      </trkpt>
      <trkpt lat="45.27412" lon="5.54123">
        <ele>252</ele>
        <time>2013-06-02T13:55:57Z</time>
      </trkpt>
      <trkpt lat="45.27413" lon="5.54121">
        <ele>251.04</ele>
        <time>2013-06-02T13:55:58Z</time>
      </trkpt>
      <trkpt lat="45.27415" lon="5.54112">
        <ele>249.6</ele>
        <time>2013-06-02T13:56:00Z</time>
      </trkpt>
      <trkpt lat="45.27417" lon="5.54109">
        <ele>248.64</ele>
        <time>2013-06-02T13:56:01Z</time>
      </trkpt>
      <trkpt lat="45.27419" lon="5.54108">
        <ele>247.68</ele>
        <time>2013-06-02T13:56:02Z</time>
      </trkpt>
      <trkpt lat="45.2743" lon="5.54096">
        <ele>244.31</ele>
        <time>2013-06-02T13:56:05Z</time>
      </trkpt>
      <trkpt lat="45.2744" lon="5.54089">
        <ele>241.43</ele>
        <time>2013-06-02T13:56:07Z</time>
      </trkpt>
      <trkpt lat="45.27443" lon="5.54083">
        <ele>238.54</ele>
        <time>2013-06-02T13:56:09Z</time>
      </trkpt>
      <trkpt lat="45.27448" lon="5.54082">
        <ele>237.58</ele>
        <time>2013-06-02T13:56:10Z</time>
      </trkpt>
      <trkpt lat="45.27464" lon="5.54077">
        <ele>233.74</ele>
        <time>2013-06-02T13:56:14Z</time>
      </trkpt>
      <trkpt lat="45.27475" lon="5.54074">
        <ele>229.89</ele>
        <time>2013-06-02T13:56:17Z</time>
      </trkpt>
      <trkpt lat="45.2748" lon="5.54069">
        <ele>227.49</ele>
        <time>2013-06-02T13:56:19Z</time>
      </trkpt>
      <trkpt lat="45.27486" lon="5.54059">
        <ele>226.53</ele>
        <time>2013-06-02T13:56:22Z</time>
      </trkpt>
      <trkpt lat="45.27488" lon="5.54058">
        <ele>226.05</ele>
        <time>2013-06-02T13:56:23Z</time>
      </trkpt>
      <trkpt lat="45.2749" lon="5.54059">
        <ele>225.57</ele>
        <time>2013-06-02T13:56:24Z</time>
      </trkpt>
      <trkpt lat="45.27492" lon="5.5406">
        <ele>224.61</ele>
        <time>2013-06-02T13:56:26Z</time>
      </trkpt>
      <trkpt lat="45.27495" lon="5.54061">
        <ele>223.64</ele>
        <time>2013-06-02T13:56:27Z</time>
      </trkpt>
      <trkpt lat="45.27496" lon="5.54062">
        <ele>223.16</ele>
        <time>2013-06-02T13:56:28Z</time>
      </trkpt>
      <trkpt lat="45.27497" lon="5.54065">
        <ele>222.68</ele>
        <time>2013-06-02T13:56:29Z</time>
      </trkpt>
      <trkpt lat="45.27504" lon="5.54067">
        <ele>222.68</ele>
        <time>2013-06-02T13:56:31Z</time>
      </trkpt>
      <trkpt lat="45.27523" lon="5.5407">
        <ele>225.57</ele>
        <time>2013-06-02T13:56:37Z</time>
      </trkpt>
      <trkpt lat="45.27532" lon="5.54071">
        <ele>227.49</ele>
        <time>2013-06-02T13:56:48Z</time>
      </trkpt>
      <trkpt lat="45.27535" lon="5.5407">
        <ele>228.45</ele>
        <time>2013-06-02T13:56:52Z</time>
      </trkpt>
      <trkpt lat="45.27541" lon="5.5407">
        <ele>229.41</ele>
        <time>2013-06-02T13:56:56Z</time>
      </trkpt>
      <trkpt lat="45.27555" lon="5.54074">
        <ele>232.3</ele>
        <time>2013-06-02T13:57:08Z</time>
      </trkpt>
      <trkpt lat="45.27568" lon="5.54085">
        <ele>235.66</ele>
        <time>2013-06-02T13:57:21Z</time>
      </trkpt>
      <trkpt lat="45.2757" lon="5.5409">
        <ele>236.62</ele>
        <time>2013-06-02T13:57:36Z</time>
      </trkpt>
      <trkpt lat="45.27569" lon="5.54092">
        <ele>236.62</ele>
        <time>2013-06-02T13:57:38Z</time>
      </trkpt>
      <trkpt lat="45.27567" lon="5.541">
        <ele>237.58</ele>
        <time>2013-06-02T13:57:42Z</time>
      </trkpt>
      <trkpt lat="45.27568" lon="5.54127">
        <ele>239.99</ele>
        <time>2013-06-02T13:57:51Z</time>
      </trkpt>
      <trkpt lat="45.2758" lon="5.5414">
        <ele>242.39</ele>
        <time>2013-06-02T13:57:57Z</time>
      </trkpt>
      <trkpt lat="45.27607" lon="5.54172">
        <ele>243.83</ele>
        <time>2013-06-02T13:58:10Z</time>
      </trkpt>
      <trkpt lat="45.27634" lon="5.5421">
        <ele>242.39</ele>
        <time>2013-06-02T13:58:21Z</time>
      </trkpt>
      <trkpt lat="45.27636" lon="5.54212">
        <ele>242.87</ele>
        <time>2013-06-02T13:58:22Z</time>
      </trkpt>
      <trkpt lat="45.27633" lon="5.54224">
        <ele>243.35</ele>
        <time>2013-06-02T13:58:26Z</time>
      </trkpt>
      <trkpt lat="45.27616" lon="5.54251">
        <ele>244.31</ele>
        <time>2013-06-02T13:58:38Z</time>
      </trkpt>
      <trkpt lat="45.27609" lon="5.54265">
        <ele>248.16</ele>
        <time>2013-06-02T13:58:44Z</time>
      </trkpt>
      <trkpt lat="45.27588" lon="5.54288">
        <ele>251.04</ele>
        <time>2013-06-02T13:58:56Z</time>
      </trkpt>
      <trkpt lat="45.27568" lon="5.54316">
        <ele>252.96</ele>
        <time>2013-06-02T13:59:09Z</time>
      </trkpt>
      <trkpt lat="45.27576" lon="5.54347">
        <ele>255.85</ele>
        <time>2013-06-02T13:59:21Z</time>
      </trkpt>
      <trkpt lat="45.27587" lon="5.54365">
        <ele>258.73</ele>
        <time>2013-06-02T13:59:31Z</time>
      </trkpt>
      <trkpt lat="45.27589" lon="5.54369">
        <ele>259.21</ele>
        <time>2013-06-02T13:59:34Z</time>
      </trkpt>
      <trkpt lat="45.27597" lon="5.54397">
        <ele>263.54</ele>
        <time>2013-06-02T13:59:48Z</time>
      </trkpt>
      <trkpt lat="45.27607" lon="5.54422">
        <ele>265.94</ele>
        <time>2013-06-02T13:59:59Z</time>
      </trkpt>
      <trkpt lat="45.27601" lon="5.54442">
        <ele>268.35</ele>
        <time>2013-06-02T14:00:09Z</time>
      </trkpt>
      <trkpt lat="45.27585" lon="5.54464">
        <ele>270.27</ele>
        <time>2013-06-02T14:00:22Z</time>
      </trkpt>
      <trkpt lat="45.27575" lon="5.54482">
        <ele>271.71</ele>
        <time>2013-06-02T14:00:32Z</time>
      </trkpt>
      <trkpt lat="45.27565" lon="5.54488">
        <ele>272.67</ele>
        <time>2013-06-02T14:00:40Z</time>
      </trkpt>
      <trkpt lat="45.27555" lon="5.54507">
        <ele>275.56</ele>
        <time>2013-06-02T14:00:50Z</time>
      </trkpt>
      <trkpt lat="45.27551" lon="5.54513">
        <ele>277</ele>
        <time>2013-06-02T14:00:56Z</time>
      </trkpt>
      <trkpt lat="45.27547" lon="5.54523">
        <ele>277.96</ele>
        <time>2013-06-02T14:00:59Z</time>
      </trkpt>
      <trkpt lat="45.27539" lon="5.54546">
        <ele>279.88</ele>
        <time>2013-06-02T14:01:07Z</time>
      </trkpt>
      <trkpt lat="45.27535" lon="5.5456">
        <ele>280.36</ele>
        <time>2013-06-02T14:01:13Z</time>
      </trkpt>
      <trkpt lat="45.27544" lon="5.54585">
        <ele>278.44</ele>
        <time>2013-06-02T14:01:18Z</time>
      </trkpt>
      <trkpt lat="45.27591" lon="5.54673">
        <ele>275.56</ele>
        <time>2013-06-02T14:01:27Z</time>
      </trkpt>
      <trkpt lat="45.27601" lon="5.54708">
        <ele>273.63</ele>
        <time>2013-06-02T14:01:31Z</time>
      </trkpt>
      <trkpt lat="45.27614" lon="5.54742">
        <ele>273.15</ele>
        <time>2013-06-02T14:01:35Z</time>
      </trkpt>
      <trkpt lat="45.27619" lon="5.54748">
        <ele>273.15</ele>
        <time>2013-06-02T14:01:36Z</time>
      </trkpt>
      <trkpt lat="45.27625" lon="5.54752">
        <ele>273.15</ele>
        <time>2013-06-02T14:01:37Z</time>
      </trkpt>
      <trkpt lat="45.2763" lon="5.54754">
        <ele>273.15</ele>
        <time>2013-06-02T14:01:38Z</time>
      </trkpt>
      <trkpt lat="45.27636" lon="5.54754">
        <ele>273.63</ele>
        <time>2013-06-02T14:01:39Z</time>
      </trkpt>
      <trkpt lat="45.2764" lon="5.54753">
        <ele>273.15</ele>
        <time>2013-06-02T14:01:40Z</time>
      </trkpt>
      <trkpt lat="45.27644" lon="5.54751">
        <ele>272.67</ele>
        <time>2013-06-02T14:01:41Z</time>
      </trkpt>
      <trkpt lat="45.27649" lon="5.54749">
        <ele>272.67</ele>
        <time>2013-06-02T14:01:42Z</time>
      </trkpt>
      <trkpt lat="45.27653" lon="5.54747">
        <ele>273.63</ele>
        <time>2013-06-02T14:01:43Z</time>
      </trkpt>
      <trkpt lat="45.27657" lon="5.54747">
        <ele>273.15</ele>
        <time>2013-06-02T14:01:44Z</time>
      </trkpt>
      <trkpt lat="45.27661" lon="5.54749">
        <ele>274.11</ele>
        <time>2013-06-02T14:01:45Z</time>
      </trkpt>
      <trkpt lat="45.27663" lon="5.54751">
        <ele>274.11</ele>
        <time>2013-06-02T14:01:46Z</time>
      </trkpt>
      <trkpt lat="45.27664" lon="5.54754">
        <ele>273.63</ele>
        <time>2013-06-02T14:01:47Z</time>
      </trkpt>
      <trkpt lat="45.27665" lon="5.54756">
        <ele>274.11</ele>
        <time>2013-06-02T14:01:48Z</time>
      </trkpt>
      <trkpt lat="45.27667" lon="5.54759">
        <ele>274.11</ele>
        <time>2013-06-02T14:01:49Z</time>
      </trkpt>
      <trkpt lat="45.27668" lon="5.54761">
        <ele>274.11</ele>
        <time>2013-06-02T14:01:50Z</time>
      </trkpt>
      <trkpt lat="45.27668" lon="5.54763">
        <ele>274.59</ele>
        <time>2013-06-02T14:01:51Z</time>
      </trkpt>
      <trkpt lat="45.27668" lon="5.54765">
        <ele>274.59</ele>
        <time>2013-06-02T14:01:52Z</time>
      </trkpt>
      <trkpt lat="45.27668" lon="5.54768">
        <ele>274.59</ele>
        <time>2013-06-02T14:01:53Z</time>
      </trkpt>
      <trkpt lat="45.27668" lon="5.5477">
        <ele>274.59</ele>
        <time>2013-06-02T14:01:54Z</time>
      </trkpt>
      <trkpt lat="45.27679" lon="5.54803">
        <ele>276.52</ele>
        <time>2013-06-02T14:02:08Z</time>
      </trkpt>
      <trkpt lat="45.27685" lon="5.5484">
        <ele>277.96</ele>
        <time>2013-06-02T14:02:22Z</time>
      </trkpt>
      <trkpt lat="45.27684" lon="5.54867">
        <ele>279.4</ele>
        <time>2013-06-02T14:02:32Z</time>
      </trkpt>
      <trkpt lat="45.27684" lon="5.5487">
        <ele>279.4</ele>
        <time>2013-06-02T14:02:33Z</time>
      </trkpt>
      <trkpt lat="45.27684" lon="5.54872">
        <ele>279.88</ele>
        <time>2013-06-02T14:02:34Z</time>
      </trkpt>
      <trkpt lat="45.2768" lon="5.54908">
        <ele>282.28</ele>
        <time>2013-06-02T14:02:47Z</time>
      </trkpt>
      <trkpt lat="45.27679" lon="5.54918">
        <ele>283.25</ele>
        <time>2013-06-02T14:02:51Z</time>
      </trkpt>
      <trkpt lat="45.27678" lon="5.5492">
        <ele>283.25</ele>
        <time>2013-06-02T14:02:52Z</time>
      </trkpt>
      <trkpt lat="45.27677" lon="5.54922">
        <ele>283.25</ele>
        <time>2013-06-02T14:02:53Z</time>
      </trkpt>
      <trkpt lat="45.27676" lon="5.54925">
        <ele>283.25</ele>
        <time>2013-06-02T14:02:54Z</time>
      </trkpt>
      <trkpt lat="45.27676" lon="5.54927">
        <ele>283.73</ele>
        <time>2013-06-02T14:02:55Z</time>
      </trkpt>
      <trkpt lat="45.27657" lon="5.54966">
        <ele>286.13</ele>
        <time>2013-06-02T14:03:12Z</time>
      </trkpt>
      <trkpt lat="45.27636" lon="5.54995">
        <ele>289.01</ele>
        <time>2013-06-02T14:03:28Z</time>
      </trkpt>
      <trkpt lat="45.27626" lon="5.55008">
        <ele>290.46</ele>
        <time>2013-06-02T14:03:35Z</time>
      </trkpt>
      <trkpt lat="45.27602" lon="5.55025">
        <ele>292.38</ele>
        <time>2013-06-02T14:03:50Z</time>
      </trkpt>
      <trkpt lat="45.27578" lon="5.55031">
        <ele>295.74</ele>
        <time>2013-06-02T14:04:03Z</time>
      </trkpt>
      <trkpt lat="45.27549" lon="5.55043">
        <ele>298.63</ele>
        <time>2013-06-02T14:04:19Z</time>
      </trkpt>
      <trkpt lat="45.2753" lon="5.55065">
        <ele>300.55</ele>
        <time>2013-06-02T14:04:32Z</time>
      </trkpt>
      <trkpt lat="45.27512" lon="5.55091">
        <ele>303.91</ele>
        <time>2013-06-02T14:04:46Z</time>
      </trkpt>
      <trkpt lat="45.27511" lon="5.55111">
        <ele>305.84</ele>
        <time>2013-06-02T14:04:54Z</time>
      </trkpt>
      <trkpt lat="45.27512" lon="5.55113">
        <ele>305.36</ele>
        <time>2013-06-02T14:04:55Z</time>
      </trkpt>
      <trkpt lat="45.27514" lon="5.55116">
        <ele>305.36</ele>
        <time>2013-06-02T14:04:56Z</time>
      </trkpt>
      <trkpt lat="45.27516" lon="5.55118">
        <ele>306.32</ele>
        <time>2013-06-02T14:04:57Z</time>
      </trkpt>
      <trkpt lat="45.27518" lon="5.5512">
        <ele>306.32</ele>
        <time>2013-06-02T14:04:58Z</time>
      </trkpt>
      <trkpt lat="45.27521" lon="5.55122">
        <ele>306.32</ele>
        <time>2013-06-02T14:04:59Z</time>
      </trkpt>
      <trkpt lat="45.27523" lon="5.55124">
        <ele>306.8</ele>
        <time>2013-06-02T14:05:00Z</time>
      </trkpt>
      <trkpt lat="45.27525" lon="5.55126">
        <ele>306.8</ele>
        <time>2013-06-02T14:05:01Z</time>
      </trkpt>
      <trkpt lat="45.27528" lon="5.55128">
        <ele>307.28</ele>
        <time>2013-06-02T14:05:02Z</time>
      </trkpt>
      <trkpt lat="45.27556" lon="5.55145">
        <ele>310.16</ele>
        <time>2013-06-02T14:05:16Z</time>
      </trkpt>
      <trkpt lat="45.27552" lon="5.5517">
        <ele>313.05</ele>
        <time>2013-06-02T14:05:28Z</time>
      </trkpt>
      <trkpt lat="45.27544" lon="5.55184">
        <ele>314.49</ele>
        <time>2013-06-02T14:05:35Z</time>
      </trkpt>
      <trkpt lat="45.27544" lon="5.55187">
        <ele>314.49</ele>
        <time>2013-06-02T14:05:36Z</time>
      </trkpt>
      <trkpt lat="45.27544" lon="5.5519">
        <ele>314.97</ele>
        <time>2013-06-02T14:05:37Z</time>
      </trkpt>
      <trkpt lat="45.27543" lon="5.55193">
        <ele>314.49</ele>
        <time>2013-06-02T14:05:38Z</time>
      </trkpt>
      <trkpt lat="45.27543" lon="5.55196">
        <ele>314.97</ele>
        <time>2013-06-02T14:05:39Z</time>
      </trkpt>
      <trkpt lat="45.27542" lon="5.55198">
        <ele>315.45</ele>
        <time>2013-06-02T14:05:40Z</time>
      </trkpt>
      <trkpt lat="45.27547" lon="5.55235">
        <ele>317.37</ele>
        <time>2013-06-02T14:05:53Z</time>
      </trkpt>
      <trkpt lat="45.27548" lon="5.55237">
        <ele>318.33</ele>
        <time>2013-06-02T14:05:54Z</time>
      </trkpt>
      <trkpt lat="45.27549" lon="5.55239">
        <ele>318.33</ele>
        <time>2013-06-02T14:05:55Z</time>
      </trkpt>
      <trkpt lat="45.2755" lon="5.55241">
        <ele>318.81</ele>
        <time>2013-06-02T14:05:56Z</time>
      </trkpt>
      <trkpt lat="45.27552" lon="5.55244">
        <ele>318.81</ele>
        <time>2013-06-02T14:05:57Z</time>
      </trkpt>
      <trkpt lat="45.27553" lon="5.55245">
        <ele>318.81</ele>
        <time>2013-06-02T14:05:58Z</time>
      </trkpt>
      <trkpt lat="45.27555" lon="5.55247">
        <ele>319.3</ele>
        <time>2013-06-02T14:05:59Z</time>
      </trkpt>
      <trkpt lat="45.27566" lon="5.55264">
        <ele>321.22</ele>
        <time>2013-06-02T14:06:09Z</time>
      </trkpt>
      <trkpt lat="45.2757" lon="5.55277">
        <ele>321.7</ele>
        <time>2013-06-02T14:06:14Z</time>
      </trkpt>
      <trkpt lat="45.27575" lon="5.55308">
        <ele>325.06</ele>
        <time>2013-06-02T14:06:26Z</time>
      </trkpt>
      <trkpt lat="45.27588" lon="5.5534">
        <ele>327.47</ele>
        <time>2013-06-02T14:06:38Z</time>
      </trkpt>
      <trkpt lat="45.27609" lon="5.5537">
        <ele>328.91</ele>
        <time>2013-06-02T14:06:51Z</time>
      </trkpt>
      <trkpt lat="45.27618" lon="5.55387">
        <ele>330.35</ele>
        <time>2013-06-02T14:07:00Z</time>
      </trkpt>
      <trkpt lat="45.27616" lon="5.55392">
        <ele>331.79</ele>
        <time>2013-06-02T14:07:03Z</time>
      </trkpt>
      <trkpt lat="45.27616" lon="5.55395">
        <ele>331.79</ele>
        <time>2013-06-02T14:07:04Z</time>
      </trkpt>
      <trkpt lat="45.27615" lon="5.55398">
        <ele>331.79</ele>
        <time>2013-06-02T14:07:05Z</time>
      </trkpt>
      <trkpt lat="45.27615" lon="5.55401">
        <ele>332.27</ele>
        <time>2013-06-02T14:07:06Z</time>
      </trkpt>
      <trkpt lat="45.27616" lon="5.55404">
        <ele>332.27</ele>
        <time>2013-06-02T14:07:07Z</time>
      </trkpt>
      <trkpt lat="45.27617" lon="5.5541">
        <ele>332.75</ele>
        <time>2013-06-02T14:07:09Z</time>
      </trkpt>
      <trkpt lat="45.27617" lon="5.55415">
        <ele>333.23</ele>
        <time>2013-06-02T14:07:11Z</time>
      </trkpt>
      <trkpt lat="45.27617" lon="5.55418">
        <ele>333.23</ele>
        <time>2013-06-02T14:07:12Z</time>
      </trkpt>
      <trkpt lat="45.27627" lon="5.55453">
        <ele>336.12</ele>
        <time>2013-06-02T14:07:25Z</time>
      </trkpt>
      <trkpt lat="45.27636" lon="5.55464">
        <ele>336.6</ele>
        <time>2013-06-02T14:07:31Z</time>
      </trkpt>
      <trkpt lat="45.27639" lon="5.55466">
        <ele>337.08</ele>
        <time>2013-06-02T14:07:32Z</time>
      </trkpt>
      <trkpt lat="45.27641" lon="5.55468">
        <ele>337.08</ele>
        <time>2013-06-02T14:07:33Z</time>
      </trkpt>
      <trkpt lat="45.27643" lon="5.5547">
        <ele>337.08</ele>
        <time>2013-06-02T14:07:34Z</time>
      </trkpt>
      <trkpt lat="45.27645" lon="5.55472">
        <ele>338.04</ele>
        <time>2013-06-02T14:07:35Z</time>
      </trkpt>
      <trkpt lat="45.27647" lon="5.55473">
        <ele>337.56</ele>
        <time>2013-06-02T14:07:36Z</time>
      </trkpt>
      <trkpt lat="45.27653" lon="5.55481">
        <ele>338.52</ele>
        <time>2013-06-02T14:07:40Z</time>
      </trkpt>
      <trkpt lat="45.27654" lon="5.55482">
        <ele>338.52</ele>
        <time>2013-06-02T14:07:41Z</time>
      </trkpt>
      <trkpt lat="45.27675" lon="5.55507">
        <ele>341.41</ele>
        <time>2013-06-02T14:07:54Z</time>
      </trkpt>
      <trkpt lat="45.27688" lon="5.55529">
        <ele>343.33</ele>
        <time>2013-06-02T14:08:04Z</time>
      </trkpt>
      <trkpt lat="45.27695" lon="5.55553">
        <ele>345.73</ele>
        <time>2013-06-02T14:08:15Z</time>
      </trkpt>
      <trkpt lat="45.27712" lon="5.5558">
        <ele>348.13</ele>
        <time>2013-06-02T14:08:27Z</time>
      </trkpt>
      <trkpt lat="45.27727" lon="5.55603">
        <ele>350.06</ele>
        <time>2013-06-02T14:08:38Z</time>
      </trkpt>
      <trkpt lat="45.2774" lon="5.55624">
        <ele>352.46</ele>
        <time>2013-06-02T14:08:49Z</time>
      </trkpt>
      <trkpt lat="45.27742" lon="5.55629">
        <ele>352.94</ele>
        <time>2013-06-02T14:08:52Z</time>
      </trkpt>
      <trkpt lat="45.27759" lon="5.55659">
        <ele>355.83</ele>
        <time>2013-06-02T14:09:05Z</time>
      </trkpt>
      <trkpt lat="45.27776" lon="5.55682">
        <ele>357.75</ele>
        <time>2013-06-02T14:09:17Z</time>
      </trkpt>
      <trkpt lat="45.27797" lon="5.55709">
        <ele>361.11</ele>
        <time>2013-06-02T14:09:30Z</time>
      </trkpt>
      <trkpt lat="45.27812" lon="5.55733">
        <ele>363.04</ele>
        <time>2013-06-02T14:09:42Z</time>
      </trkpt>
      <trkpt lat="45.27826" lon="5.5576">
        <ele>364.96</ele>
        <time>2013-06-02T14:09:54Z</time>
      </trkpt>
      <trkpt lat="45.27826" lon="5.55768">
        <ele>365.44</ele>
        <time>2013-06-02T14:09:57Z</time>
      </trkpt>
      <trkpt lat="45.27825" lon="5.5577">
        <ele>365.44</ele>
        <time>2013-06-02T14:09:58Z</time>
      </trkpt>
      <trkpt lat="45.27813" lon="5.55769">
        <ele>365.92</ele>
        <time>2013-06-02T14:10:04Z</time>
      </trkpt>
      <trkpt lat="45.27812" lon="5.55766">
        <ele>365.92</ele>
        <time>2013-06-02T14:10:05Z</time>
      </trkpt>
      <trkpt lat="45.27811" lon="5.55764">
        <ele>365.92</ele>
        <time>2013-06-02T14:10:06Z</time>
      </trkpt>
      <trkpt lat="45.27811" lon="5.55761">
        <ele>366.4</ele>
        <time>2013-06-02T14:10:07Z</time>
      </trkpt>
      <trkpt lat="45.2781" lon="5.55759">
        <ele>366.4</ele>
        <time>2013-06-02T14:10:08Z</time>
      </trkpt>
      <trkpt lat="45.2781" lon="5.55756">
        <ele>366.4</ele>
        <time>2013-06-02T14:10:09Z</time>
      </trkpt>
      <trkpt lat="45.27791" lon="5.55717">
        <ele>368.8</ele>
        <time>2013-06-02T14:10:27Z</time>
      </trkpt>
      <trkpt lat="45.27783" lon="5.55709">
        <ele>369.76</ele>
        <time>2013-06-02T14:10:32Z</time>
      </trkpt>
      <trkpt lat="45.27781" lon="5.55708">
        <ele>369.76</ele>
        <time>2013-06-02T14:10:33Z</time>
      </trkpt>
      <trkpt lat="45.27779" lon="5.55707">
        <ele>369.76</ele>
        <time>2013-06-02T14:10:34Z</time>
      </trkpt>
      <trkpt lat="45.27776" lon="5.55704">
        <ele>370.24</ele>
        <time>2013-06-02T14:10:36Z</time>
      </trkpt>
      <trkpt lat="45.27775" lon="5.55703">
        <ele>370.24</ele>
        <time>2013-06-02T14:10:37Z</time>
      </trkpt>
      <trkpt lat="45.27774" lon="5.55702">
        <ele>370.73</ele>
        <time>2013-06-02T14:10:38Z</time>
      </trkpt>
      <trkpt lat="45.27772" lon="5.55701">
        <ele>370.73</ele>
        <time>2013-06-02T14:10:39Z</time>
      </trkpt>
      <trkpt lat="45.27771" lon="5.557">
        <ele>371.21</ele>
        <time>2013-06-02T14:10:40Z</time>
      </trkpt>
      <trkpt lat="45.27748" lon="5.55682">
        <ele>374.09</ele>
        <time>2013-06-02T14:10:54Z</time>
      </trkpt>
      <trkpt lat="45.27742" lon="5.55676">
        <ele>374.57</ele>
        <time>2013-06-02T14:10:58Z</time>
      </trkpt>
      <trkpt lat="45.27741" lon="5.55675">
        <ele>375.05</ele>
        <time>2013-06-02T14:10:59Z</time>
      </trkpt>
      <trkpt lat="45.27739" lon="5.55673">
        <ele>375.05</ele>
        <time>2013-06-02T14:11:00Z</time>
      </trkpt>
      <trkpt lat="45.27738" lon="5.55672">
        <ele>375.05</ele>
        <time>2013-06-02T14:11:01Z</time>
      </trkpt>
      <trkpt lat="45.27736" lon="5.55671">
        <ele>375.53</ele>
        <time>2013-06-02T14:11:02Z</time>
      </trkpt>
      <trkpt lat="45.27735" lon="5.5567">
        <ele>375.53</ele>
        <time>2013-06-02T14:11:03Z</time>
      </trkpt>
      <trkpt lat="45.27733" lon="5.55669">
        <ele>376.01</ele>
        <time>2013-06-02T14:11:04Z</time>
      </trkpt>
      <trkpt lat="45.27732" lon="5.55667">
        <ele>376.49</ele>
        <time>2013-06-02T14:11:05Z</time>
      </trkpt>
      <trkpt lat="45.2773" lon="5.55666">
        <ele>376.49</ele>
        <time>2013-06-02T14:11:06Z</time>
      </trkpt>
      <trkpt lat="45.27708" lon="5.55648">
        <ele>378.42</ele>
        <time>2013-06-02T14:11:19Z</time>
      </trkpt>
      <trkpt lat="45.27686" lon="5.55625">
        <ele>380.82</ele>
        <time>2013-06-02T14:11:33Z</time>
      </trkpt>
      <trkpt lat="45.27681" lon="5.55621">
        <ele>381.3</ele>
        <time>2013-06-02T14:11:36Z</time>
      </trkpt>
      <trkpt lat="45.2768" lon="5.55619">
        <ele>381.78</ele>
        <time>2013-06-02T14:11:37Z</time>
      </trkpt>
      <trkpt lat="45.27679" lon="5.55618">
        <ele>382.26</ele>
        <time>2013-06-02T14:11:38Z</time>
      </trkpt>
      <trkpt lat="45.27677" lon="5.55616">
        <ele>382.26</ele>
        <time>2013-06-02T14:11:39Z</time>
      </trkpt>
      <trkpt lat="45.27676" lon="5.55614">
        <ele>382.26</ele>
        <time>2013-06-02T14:11:40Z</time>
      </trkpt>
      <trkpt lat="45.27674" lon="5.55613">
        <ele>382.74</ele>
        <time>2013-06-02T14:11:41Z</time>
      </trkpt>
      <trkpt lat="45.27657" lon="5.55596">
        <ele>385.15</ele>
        <time>2013-06-02T14:11:51Z</time>
      </trkpt>
      <trkpt lat="45.27655" lon="5.55594">
        <ele>384.66</ele>
        <time>2013-06-02T14:11:52Z</time>
      </trkpt>
      <trkpt lat="45.27654" lon="5.55592">
        <ele>385.15</ele>
        <time>2013-06-02T14:11:53Z</time>
      </trkpt>
      <trkpt lat="45.27652" lon="5.5559">
        <ele>385.63</ele>
        <time>2013-06-02T14:11:54Z</time>
      </trkpt>
      <trkpt lat="45.27651" lon="5.55588">
        <ele>385.63</ele>
        <time>2013-06-02T14:11:55Z</time>
      </trkpt>
      <trkpt lat="45.27633" lon="5.55565">
        <ele>388.51</ele>
        <time>2013-06-02T14:12:09Z</time>
      </trkpt>
      <trkpt lat="45.27632" lon="5.55562">
        <ele>388.51</ele>
        <time>2013-06-02T14:12:10Z</time>
      </trkpt>
      <trkpt lat="45.27631" lon="5.5556">
        <ele>388.99</ele>
        <time>2013-06-02T14:12:11Z</time>
      </trkpt>
      <trkpt lat="45.2763" lon="5.55558">
        <ele>388.51</ele>
        <time>2013-06-02T14:12:12Z</time>
      </trkpt>
      <trkpt lat="45.27628" lon="5.55556">
        <ele>388.99</ele>
        <time>2013-06-02T14:12:13Z</time>
      </trkpt>
      <trkpt lat="45.27627" lon="5.55555">
        <ele>389.47</ele>
        <time>2013-06-02T14:12:14Z</time>
      </trkpt>
      <trkpt lat="45.27623" lon="5.55549">
        <ele>389.95</ele>
        <time>2013-06-02T14:12:17Z</time>
      </trkpt>
      <trkpt lat="45.27622" lon="5.55548">
        <ele>390.43</ele>
        <time>2013-06-02T14:12:18Z</time>
      </trkpt>
      <trkpt lat="45.276" lon="5.55525">
        <ele>392.84</ele>
        <time>2013-06-02T14:12:32Z</time>
      </trkpt>
      <trkpt lat="45.27581" lon="5.55503">
        <ele>395.24</ele>
        <time>2013-06-02T14:12:45Z</time>
      </trkpt>
      <trkpt lat="45.27559" lon="5.55476">
        <ele>398.12</ele>
        <time>2013-06-02T14:12:59Z</time>
      </trkpt>
      <trkpt lat="45.27538" lon="5.55454">
        <ele>401.49</ele>
        <time>2013-06-02T14:13:12Z</time>
      </trkpt>
      <trkpt lat="45.27519" lon="5.55431">
        <ele>404.37</ele>
        <time>2013-06-02T14:13:25Z</time>
      </trkpt>
      <trkpt lat="45.27514" lon="5.55425">
        <ele>402.93</ele>
        <time>2013-06-02T14:13:28Z</time>
      </trkpt>
      <trkpt lat="45.27513" lon="5.55424">
        <ele>404.85</ele>
        <time>2013-06-02T14:13:29Z</time>
      </trkpt>
      <trkpt lat="45.27509" lon="5.55421">
        <ele>400.53</ele>
        <time>2013-06-02T14:13:31Z</time>
      </trkpt>
      <trkpt lat="45.27508" lon="5.5542">
        <ele>408.7</ele>
        <time>2013-06-02T14:13:32Z</time>
      </trkpt>
      <trkpt lat="45.27505" lon="5.55416">
        <ele>401.97</ele>
        <time>2013-06-02T14:13:34Z</time>
      </trkpt>
      <trkpt lat="45.27504" lon="5.55415">
        <ele>406.29</ele>
        <time>2013-06-02T14:13:35Z</time>
      </trkpt>
      <trkpt lat="45.2749" lon="5.5538">
        <ele>408.22</ele>
        <time>2013-06-02T14:13:49Z</time>
      </trkpt>
      <trkpt lat="45.27477" lon="5.55353">
        <ele>411.1</ele>
        <time>2013-06-02T14:14:01Z</time>
      </trkpt>
      <trkpt lat="45.27457" lon="5.55329">
        <ele>413.98</ele>
        <time>2013-06-02T14:14:14Z</time>
      </trkpt>
      <trkpt lat="45.27438" lon="5.55306">
        <ele>415.43</ele>
        <time>2013-06-02T14:14:27Z</time>
      </trkpt>
      <trkpt lat="45.27419" lon="5.55291">
        <ele>417.35</ele>
        <time>2013-06-02T14:14:39Z</time>
      </trkpt>
      <trkpt lat="45.27395" lon="5.55277">
        <ele>416.87</ele>
        <time>2013-06-02T14:14:52Z</time>
      </trkpt>
      <trkpt lat="45.27391" lon="5.55274">
        <ele>420.71</ele>
        <time>2013-06-02T14:14:54Z</time>
      </trkpt>
      <trkpt lat="45.27388" lon="5.55272">
        <ele>413.5</ele>
        <time>2013-06-02T14:14:56Z</time>
      </trkpt>
      <trkpt lat="45.27386" lon="5.55271">
        <ele>421.68</ele>
        <time>2013-06-02T14:14:57Z</time>
      </trkpt>
      <trkpt lat="45.27367" lon="5.55251">
        <ele>423.12</ele>
        <time>2013-06-02T14:15:10Z</time>
      </trkpt>
      <trkpt lat="45.27348" lon="5.55228">
        <ele>426</ele>
        <time>2013-06-02T14:15:24Z</time>
      </trkpt>
      <trkpt lat="45.27336" lon="5.55208">
        <ele>427.92</ele>
        <time>2013-06-02T14:15:34Z</time>
      </trkpt>
      <trkpt lat="45.27327" lon="5.55183">
        <ele>430.33</ele>
        <time>2013-06-02T14:15:45Z</time>
      </trkpt>
      <trkpt lat="45.27321" lon="5.55145">
        <ele>431.77</ele>
        <time>2013-06-02T14:15:58Z</time>
      </trkpt>
      <trkpt lat="45.2732" lon="5.55143">
        <ele>432.25</ele>
        <time>2013-06-02T14:15:59Z</time>
      </trkpt>
      <trkpt lat="45.27313" lon="5.55132">
        <ele>433.21</ele>
        <time>2013-06-02T14:16:06Z</time>
      </trkpt>
      <trkpt lat="45.27311" lon="5.55132">
        <ele>434.17</ele>
        <time>2013-06-02T14:16:07Z</time>
      </trkpt>
      <trkpt lat="45.27305" lon="5.55131">
        <ele>434.17</ele>
        <time>2013-06-02T14:16:10Z</time>
      </trkpt>
      <trkpt lat="45.27303" lon="5.55133">
        <ele>433.69</ele>
        <time>2013-06-02T14:16:11Z</time>
      </trkpt>
      <trkpt lat="45.27301" lon="5.55134">
        <ele>434.17</ele>
        <time>2013-06-02T14:16:12Z</time>
      </trkpt>
      <trkpt lat="45.27296" lon="5.55134">
        <ele>434.65</ele>
        <time>2013-06-02T14:16:14Z</time>
      </trkpt>
      <trkpt lat="45.27294" lon="5.55135">
        <ele>433.69</ele>
        <time>2013-06-02T14:16:15Z</time>
      </trkpt>
      <trkpt lat="45.27293" lon="5.55137">
        <ele>434.65</ele>
        <time>2013-06-02T14:16:16Z</time>
      </trkpt>
      <trkpt lat="45.27298" lon="5.5517">
        <ele>435.61</ele>
        <time>2013-06-02T14:16:29Z</time>
      </trkpt>
      <trkpt lat="45.27293" lon="5.55206">
        <ele>438.5</ele>
        <time>2013-06-02T14:16:43Z</time>
      </trkpt>
      <trkpt lat="45.27288" lon="5.55218">
        <ele>439.46</ele>
        <time>2013-06-02T14:16:48Z</time>
      </trkpt>
      <trkpt lat="45.27287" lon="5.55225">
        <ele>440.42</ele>
        <time>2013-06-02T14:16:51Z</time>
      </trkpt>
      <trkpt lat="45.27286" lon="5.55227">
        <ele>440.42</ele>
        <time>2013-06-02T14:16:52Z</time>
      </trkpt>
      <trkpt lat="45.27285" lon="5.5523">
        <ele>440.42</ele>
        <time>2013-06-02T14:16:53Z</time>
      </trkpt>
      <trkpt lat="45.27285" lon="5.55233">
        <ele>440.9</ele>
        <time>2013-06-02T14:16:54Z</time>
      </trkpt>
      <trkpt lat="45.27284" lon="5.55236">
        <ele>440.9</ele>
        <time>2013-06-02T14:16:55Z</time>
      </trkpt>
      <trkpt lat="45.27284" lon="5.55239">
        <ele>440.9</ele>
        <time>2013-06-02T14:16:56Z</time>
      </trkpt>
      <trkpt lat="45.27283" lon="5.55253">
        <ele>441.86</ele>
        <time>2013-06-02T14:17:01Z</time>
      </trkpt>
      <trkpt lat="45.27284" lon="5.55255">
        <ele>441.86</ele>
        <time>2013-06-02T14:17:02Z</time>
      </trkpt>
      <trkpt lat="45.27286" lon="5.55258">
        <ele>442.34</ele>
        <time>2013-06-02T14:17:03Z</time>
      </trkpt>
      <trkpt lat="45.27287" lon="5.55261">
        <ele>442.34</ele>
        <time>2013-06-02T14:17:04Z</time>
      </trkpt>
      <trkpt lat="45.27287" lon="5.55264">
        <ele>442.82</ele>
        <time>2013-06-02T14:17:05Z</time>
      </trkpt>
      <trkpt lat="45.27293" lon="5.55301">
        <ele>445.23</ele>
        <time>2013-06-02T14:17:19Z</time>
      </trkpt>
      <trkpt lat="45.273" lon="5.55315">
        <ele>446.19</ele>
        <time>2013-06-02T14:17:25Z</time>
      </trkpt>
      <trkpt lat="45.27301" lon="5.55317">
        <ele>446.19</ele>
        <time>2013-06-02T14:17:26Z</time>
      </trkpt>
      <trkpt lat="45.27301" lon="5.55319">
        <ele>446.67</ele>
        <time>2013-06-02T14:17:27Z</time>
      </trkpt>
      <trkpt lat="45.27303" lon="5.55321">
        <ele>446.67</ele>
        <time>2013-06-02T14:17:28Z</time>
      </trkpt>
      <trkpt lat="45.27304" lon="5.55323">
        <ele>447.15</ele>
        <time>2013-06-02T14:17:29Z</time>
      </trkpt>
      <trkpt lat="45.27305" lon="5.55325">
        <ele>447.15</ele>
        <time>2013-06-02T14:17:30Z</time>
      </trkpt>
      <trkpt lat="45.27306" lon="5.55327">
        <ele>447.15</ele>
        <time>2013-06-02T14:17:31Z</time>
      </trkpt>
      <trkpt lat="45.27322" lon="5.55355">
        <ele>449.55</ele>
        <time>2013-06-02T14:17:43Z</time>
      </trkpt>
      <trkpt lat="45.27339" lon="5.55382">
        <ele>451.96</ele>
        <time>2013-06-02T14:17:56Z</time>
      </trkpt>
      <trkpt lat="45.27355" lon="5.55404">
        <ele>454.84</ele>
        <time>2013-06-02T14:18:08Z</time>
      </trkpt>
      <trkpt lat="45.27371" lon="5.55434">
        <ele>456.76</ele>
        <time>2013-06-02T14:18:22Z</time>
      </trkpt>
      <trkpt lat="45.27389" lon="5.55464">
        <ele>459.17</ele>
        <time>2013-06-02T14:18:36Z</time>
      </trkpt>
      <trkpt lat="45.27399" lon="5.55474">
        <ele>461.09</ele>
        <time>2013-06-02T14:18:43Z</time>
      </trkpt>
      <trkpt lat="45.27422" lon="5.55499">
        <ele>463.01</ele>
        <time>2013-06-02T14:18:57Z</time>
      </trkpt>
      <trkpt lat="45.27435" lon="5.55514">
        <ele>466.86</ele>
        <time>2013-06-02T14:19:05Z</time>
      </trkpt>
      <trkpt lat="45.27437" lon="5.55516">
        <ele>459.17</ele>
        <time>2013-06-02T14:19:06Z</time>
      </trkpt>
      <trkpt lat="45.27438" lon="5.55518">
        <ele>464.45</ele>
        <time>2013-06-02T14:19:07Z</time>
      </trkpt>
      <trkpt lat="45.27455" lon="5.55538">
        <ele>466.86</ele>
        <time>2013-06-02T14:19:19Z</time>
      </trkpt>
      <trkpt lat="45.27472" lon="5.55565">
        <ele>469.74</ele>
        <time>2013-06-02T14:19:32Z</time>
      </trkpt>
      <trkpt lat="45.27488" lon="5.5559">
        <ele>471.66</ele>
        <time>2013-06-02T14:19:44Z</time>
      </trkpt>
      <trkpt lat="45.27499" lon="5.55608">
        <ele>474.07</ele>
        <time>2013-06-02T14:19:53Z</time>
      </trkpt>
      <trkpt lat="45.27515" lon="5.55632">
        <ele>475.99</ele>
        <time>2013-06-02T14:20:05Z</time>
      </trkpt>
      <trkpt lat="45.2754" lon="5.55658">
        <ele>478.87</ele>
        <time>2013-06-02T14:20:20Z</time>
      </trkpt>
      <trkpt lat="45.27545" lon="5.55664">
        <ele>478.39</ele>
        <time>2013-06-02T14:20:23Z</time>
      </trkpt>
      <trkpt lat="45.27547" lon="5.55666">
        <ele>478.87</ele>
        <time>2013-06-02T14:20:24Z</time>
      </trkpt>
      <trkpt lat="45.27565" lon="5.55685">
        <ele>480.8</ele>
        <time>2013-06-02T14:20:35Z</time>
      </trkpt>
      <trkpt lat="45.27586" lon="5.55708">
        <ele>482.72</ele>
        <time>2013-06-02T14:20:48Z</time>
      </trkpt>
      <trkpt lat="45.27601" lon="5.55725">
        <ele>484.64</ele>
        <time>2013-06-02T14:20:59Z</time>
      </trkpt>
      <trkpt lat="45.27618" lon="5.55743">
        <ele>486.56</ele>
        <time>2013-06-02T14:21:09Z</time>
      </trkpt>
      <trkpt lat="45.27633" lon="5.55759">
        <ele>488.49</ele>
        <time>2013-06-02T14:21:19Z</time>
      </trkpt>
      <trkpt lat="45.27634" lon="5.55761">
        <ele>488.97</ele>
        <time>2013-06-02T14:21:21Z</time>
      </trkpt>
      <trkpt lat="45.27637" lon="5.55778">
        <ele>490.41</ele>
        <time>2013-06-02T14:21:29Z</time>
      </trkpt>
      <trkpt lat="45.27637" lon="5.5578">
        <ele>490.41</ele>
        <time>2013-06-02T14:21:30Z</time>
      </trkpt>
      <trkpt lat="45.27636" lon="5.55789">
        <ele>490.89</ele>
        <time>2013-06-02T14:21:34Z</time>
      </trkpt>
      <trkpt lat="45.27636" lon="5.55792">
        <ele>491.37</ele>
        <time>2013-06-02T14:21:35Z</time>
      </trkpt>
      <trkpt lat="45.27638" lon="5.55795">
        <ele>491.85</ele>
        <time>2013-06-02T14:21:36Z</time>
      </trkpt>
      <trkpt lat="45.27653" lon="5.55832">
        <ele>494.74</ele>
        <time>2013-06-02T14:21:51Z</time>
      </trkpt>
      <trkpt lat="45.27661" lon="5.55844">
        <ele>496.18</ele>
        <time>2013-06-02T14:21:57Z</time>
      </trkpt>
      <trkpt lat="45.27663" lon="5.55847">
        <ele>496.18</ele>
        <time>2013-06-02T14:21:58Z</time>
      </trkpt>
      <trkpt lat="45.27675" lon="5.55878">
        <ele>499.54</ele>
        <time>2013-06-02T14:22:11Z</time>
      </trkpt>
      <trkpt lat="45.27685" lon="5.55912">
        <ele>500.98</ele>
        <time>2013-06-02T14:22:25Z</time>
      </trkpt>
      <trkpt lat="45.277" lon="5.55936">
        <ele>503.39</ele>
        <time>2013-06-02T14:22:37Z</time>
      </trkpt>
      <trkpt lat="45.2772" lon="5.55968">
        <ele>506.75</ele>
        <time>2013-06-02T14:22:52Z</time>
      </trkpt>
      <trkpt lat="45.27733" lon="5.55999">
        <ele>509.64</ele>
        <time>2013-06-02T14:23:05Z</time>
      </trkpt>
      <trkpt lat="45.27741" lon="5.56034">
        <ele>512.52</ele>
        <time>2013-06-02T14:23:19Z</time>
      </trkpt>
      <trkpt lat="45.27744" lon="5.56043">
        <ele>512.52</ele>
        <time>2013-06-02T14:23:23Z</time>
      </trkpt>
      <trkpt lat="45.27747" lon="5.56045">
        <ele>513</ele>
        <time>2013-06-02T14:23:24Z</time>
      </trkpt>
      <trkpt lat="45.27749" lon="5.56047">
        <ele>513.48</ele>
        <time>2013-06-02T14:23:25Z</time>
      </trkpt>
      <trkpt lat="45.2775" lon="5.56049">
        <ele>513.48</ele>
        <time>2013-06-02T14:23:26Z</time>
      </trkpt>
      <trkpt lat="45.2775" lon="5.56052">
        <ele>513</ele>
        <time>2013-06-02T14:23:27Z</time>
      </trkpt>
      <trkpt lat="45.27751" lon="5.56055">
        <ele>513.48</ele>
        <time>2013-06-02T14:23:28Z</time>
      </trkpt>
      <trkpt lat="45.27752" lon="5.56057">
        <ele>513.96</ele>
        <time>2013-06-02T14:23:29Z</time>
      </trkpt>
      <trkpt lat="45.27753" lon="5.56059">
        <ele>513.96</ele>
        <time>2013-06-02T14:23:30Z</time>
      </trkpt>
      <trkpt lat="45.27753" lon="5.56062">
        <ele>514.44</ele>
        <time>2013-06-02T14:23:31Z</time>
      </trkpt>
      <trkpt lat="45.27754" lon="5.56064">
        <ele>514.44</ele>
        <time>2013-06-02T14:23:32Z</time>
      </trkpt>
      <trkpt lat="45.27755" lon="5.56067">
        <ele>514.44</ele>
        <time>2013-06-02T14:23:33Z</time>
      </trkpt>
      <trkpt lat="45.27755" lon="5.56069">
        <ele>514.92</ele>
        <time>2013-06-02T14:23:34Z</time>
      </trkpt>
      <trkpt lat="45.27757" lon="5.56072">
        <ele>514.92</ele>
        <time>2013-06-02T14:23:35Z</time>
      </trkpt>
      <trkpt lat="45.27758" lon="5.56074">
        <ele>515.4</ele>
        <time>2013-06-02T14:23:36Z</time>
      </trkpt>
      <trkpt lat="45.27759" lon="5.56076">
        <ele>514.92</ele>
        <time>2013-06-02T14:23:37Z</time>
      </trkpt>
      <trkpt lat="45.2776" lon="5.56078">
        <ele>515.4</ele>
        <time>2013-06-02T14:23:38Z</time>
      </trkpt>
      <trkpt lat="45.27761" lon="5.5608">
        <ele>515.88</ele>
        <time>2013-06-02T14:23:39Z</time>
      </trkpt>
      <trkpt lat="45.2777" lon="5.5611">
        <ele>518.29</ele>
        <time>2013-06-02T14:23:51Z</time>
      </trkpt>
      <trkpt lat="45.27774" lon="5.56149">
        <ele>521.65</ele>
        <time>2013-06-02T14:24:05Z</time>
      </trkpt>
      <trkpt lat="45.27763" lon="5.56171">
        <ele>522.61</ele>
        <time>2013-06-02T14:24:16Z</time>
      </trkpt>
      <trkpt lat="45.27747" lon="5.56154">
        <ele>524.06</ele>
        <time>2013-06-02T14:24:26Z</time>
      </trkpt>
      <trkpt lat="45.27737" lon="5.56121">
        <ele>526.94</ele>
        <time>2013-06-02T14:24:39Z</time>
      </trkpt>
      <trkpt lat="45.27713" lon="5.56095">
        <ele>529.82</ele>
        <time>2013-06-02T14:24:52Z</time>
      </trkpt>
      <trkpt lat="45.27694" lon="5.56074">
        <ele>530.79</ele>
        <time>2013-06-02T14:25:04Z</time>
      </trkpt>
      <trkpt lat="45.27672" lon="5.56054">
        <ele>532.71</ele>
        <time>2013-06-02T14:25:18Z</time>
      </trkpt>
      <trkpt lat="45.27646" lon="5.5604">
        <ele>535.59</ele>
        <time>2013-06-02T14:25:33Z</time>
      </trkpt>
      <trkpt lat="45.2762" lon="5.56028">
        <ele>537.99</ele>
        <time>2013-06-02T14:25:47Z</time>
      </trkpt>
      <trkpt lat="45.27618" lon="5.56027">
        <ele>537.51</ele>
        <time>2013-06-02T14:25:48Z</time>
      </trkpt>
      <trkpt lat="45.27617" lon="5.56026">
        <ele>537.99</ele>
        <time>2013-06-02T14:25:49Z</time>
      </trkpt>
      <trkpt lat="45.2759" lon="5.56004">
        <ele>540.88</ele>
        <time>2013-06-02T14:26:05Z</time>
      </trkpt>
      <trkpt lat="45.2757" lon="5.55984">
        <ele>543.76</ele>
        <time>2013-06-02T14:26:18Z</time>
      </trkpt>
      <trkpt lat="45.27545" lon="5.55957">
        <ele>546.65</ele>
        <time>2013-06-02T14:26:34Z</time>
      </trkpt>
      <trkpt lat="45.27525" lon="5.55936">
        <ele>549.53</ele>
        <time>2013-06-02T14:26:49Z</time>
      </trkpt>
      <trkpt lat="45.27511" lon="5.5592">
        <ele>550.97</ele>
        <time>2013-06-02T14:26:59Z</time>
      </trkpt>
      <trkpt lat="45.27497" lon="5.55902">
        <ele>552.9</ele>
        <time>2013-06-02T14:27:11Z</time>
      </trkpt>
      <trkpt lat="45.27496" lon="5.55901">
        <ele>553.38</ele>
        <time>2013-06-02T14:27:21Z</time>
      </trkpt>
      <trkpt lat="45.27496" lon="5.55901">
        <ele>553.86</ele>
        <time>2013-06-02T14:27:39Z</time>
      </trkpt>
      <trkpt lat="45.27495" lon="5.559">
        <ele>553.38</ele>
        <time>2013-06-02T14:27:40Z</time>
      </trkpt>
      <trkpt lat="45.27494" lon="5.55899">
        <ele>553.86</ele>
        <time>2013-06-02T14:27:41Z</time>
      </trkpt>
      <trkpt lat="45.27493" lon="5.55898">
        <ele>553.86</ele>
        <time>2013-06-02T14:27:42Z</time>
      </trkpt>
      <trkpt lat="45.27491" lon="5.55897">
        <ele>554.34</ele>
        <time>2013-06-02T14:27:43Z</time>
      </trkpt>
      <trkpt lat="45.2749" lon="5.55895">
        <ele>554.34</ele>
        <time>2013-06-02T14:27:44Z</time>
      </trkpt>
      <trkpt lat="45.27488" lon="5.55893">
        <ele>554.82</ele>
        <time>2013-06-02T14:27:45Z</time>
      </trkpt>
      <trkpt lat="45.27486" lon="5.55891">
        <ele>554.82</ele>
        <time>2013-06-02T14:27:46Z</time>
      </trkpt>
      <trkpt lat="45.27485" lon="5.55889">
        <ele>554.82</ele>
        <time>2013-06-02T14:27:47Z</time>
      </trkpt>
      <trkpt lat="45.27484" lon="5.55888">
        <ele>555.3</ele>
        <time>2013-06-02T14:27:48Z</time>
      </trkpt>
      <trkpt lat="45.27482" lon="5.55887">
        <ele>555.3</ele>
        <time>2013-06-02T14:27:49Z</time>
      </trkpt>
      <trkpt lat="45.2748" lon="5.55885">
        <ele>555.78</ele>
        <time>2013-06-02T14:27:50Z</time>
      </trkpt>
      <trkpt lat="45.27478" lon="5.55884">
        <ele>555.3</ele>
        <time>2013-06-02T14:27:51Z</time>
      </trkpt>
      <trkpt lat="45.27477" lon="5.55882">
        <ele>555.78</ele>
        <time>2013-06-02T14:27:52Z</time>
      </trkpt>
      <trkpt lat="45.27465" lon="5.55874">
        <ele>556.26</ele>
        <time>2013-06-02T14:27:59Z</time>
      </trkpt>
      <trkpt lat="45.27463" lon="5.55872">
        <ele>556.74</ele>
        <time>2013-06-02T14:28:00Z</time>
      </trkpt>
      <trkpt lat="45.27435" lon="5.55862">
        <ele>559.14</ele>
        <time>2013-06-02T14:28:14Z</time>
      </trkpt>
      <trkpt lat="45.27409" lon="5.55855">
        <ele>561.55</ele>
        <time>2013-06-02T14:28:27Z</time>
      </trkpt>
      <trkpt lat="45.27408" lon="5.55854">
        <ele>562.03</ele>
        <time>2013-06-02T14:28:28Z</time>
      </trkpt>
      <trkpt lat="45.27406" lon="5.55853">
        <ele>562.03</ele>
        <time>2013-06-02T14:28:29Z</time>
      </trkpt>
      <trkpt lat="45.27404" lon="5.55852">
        <ele>562.03</ele>
        <time>2013-06-02T14:28:30Z</time>
      </trkpt>
      <trkpt lat="45.27402" lon="5.55852">
        <ele>562.51</ele>
        <time>2013-06-02T14:28:31Z</time>
      </trkpt>
      <trkpt lat="45.274" lon="5.55852">
        <ele>562.51</ele>
        <time>2013-06-02T14:28:32Z</time>
      </trkpt>
      <trkpt lat="45.27391" lon="5.55857">
        <ele>563.47</ele>
        <time>2013-06-02T14:28:37Z</time>
      </trkpt>
      <trkpt lat="45.2739" lon="5.55859">
        <ele>563.47</ele>
        <time>2013-06-02T14:28:38Z</time>
      </trkpt>
      <trkpt lat="45.2739" lon="5.55862">
        <ele>563.95</ele>
        <time>2013-06-02T14:28:39Z</time>
      </trkpt>
      <trkpt lat="45.27391" lon="5.55864">
        <ele>563.95</ele>
        <time>2013-06-02T14:28:40Z</time>
      </trkpt>
      <trkpt lat="45.27392" lon="5.55867">
        <ele>563.95</ele>
        <time>2013-06-02T14:28:41Z</time>
      </trkpt>
      <trkpt lat="45.27393" lon="5.55869">
        <ele>563.95</ele>
        <time>2013-06-02T14:28:42Z</time>
      </trkpt>
      <trkpt lat="45.27394" lon="5.55872">
        <ele>564.91</ele>
        <time>2013-06-02T14:28:43Z</time>
      </trkpt>
      <trkpt lat="45.27394" lon="5.55875">
        <ele>564.43</ele>
        <time>2013-06-02T14:28:44Z</time>
      </trkpt>
      <trkpt lat="45.27395" lon="5.55877">
        <ele>564.43</ele>
        <time>2013-06-02T14:28:45Z</time>
      </trkpt>
      <trkpt lat="45.27395" lon="5.55881">
        <ele>564.91</ele>
        <time>2013-06-02T14:28:46Z</time>
      </trkpt>
      <trkpt lat="45.27396" lon="5.55883">
        <ele>564.43</ele>
        <time>2013-06-02T14:28:47Z</time>
      </trkpt>
      <trkpt lat="45.27405" lon="5.55907">
        <ele>565.39</ele>
        <time>2013-06-02T14:28:57Z</time>
      </trkpt>
      <trkpt lat="45.27405" lon="5.55909">
        <ele>565.87</ele>
        <time>2013-06-02T14:28:58Z</time>
      </trkpt>
      <trkpt lat="45.27406" lon="5.55911">
        <ele>565.39</ele>
        <time>2013-06-02T14:28:59Z</time>
      </trkpt>
      <trkpt lat="45.27406" lon="5.55912">
        <ele>565.87</ele>
        <time>2013-06-02T14:29:00Z</time>
      </trkpt>
      <trkpt lat="45.27407" lon="5.55915">
        <ele>565.87</ele>
        <time>2013-06-02T14:29:01Z</time>
      </trkpt>
      <trkpt lat="45.27408" lon="5.55917">
        <ele>566.35</ele>
        <time>2013-06-02T14:29:02Z</time>
      </trkpt>
      <trkpt lat="45.27423" lon="5.55953">
        <ele>568.76</ele>
        <time>2013-06-02T14:29:16Z</time>
      </trkpt>
      <trkpt lat="45.2744" lon="5.55985">
        <ele>569.72</ele>
        <time>2013-06-02T14:29:30Z</time>
      </trkpt>
      <trkpt lat="45.27462" lon="5.5601">
        <ele>572.12</ele>
        <time>2013-06-02T14:29:44Z</time>
      </trkpt>
      <trkpt lat="45.27484" lon="5.56036">
        <ele>573.56</ele>
        <time>2013-06-02T14:29:58Z</time>
      </trkpt>
      <trkpt lat="45.27486" lon="5.5604">
        <ele>574.04</ele>
        <time>2013-06-02T14:30:00Z</time>
      </trkpt>
      <trkpt lat="45.27487" lon="5.56043">
        <ele>574.53</ele>
        <time>2013-06-02T14:30:01Z</time>
      </trkpt>
      <trkpt lat="45.27501" lon="5.56081">
        <ele>577.41</ele>
        <time>2013-06-02T14:30:17Z</time>
      </trkpt>
      <trkpt lat="45.27515" lon="5.56114">
        <ele>579.81</ele>
        <time>2013-06-02T14:30:31Z</time>
      </trkpt>
      <trkpt lat="45.27532" lon="5.56146">
        <ele>581.73</ele>
        <time>2013-06-02T14:30:46Z</time>
      </trkpt>
      <trkpt lat="45.27536" lon="5.56164">
        <ele>581.73</ele>
        <time>2013-06-02T14:30:54Z</time>
      </trkpt>
      <trkpt lat="45.27525" lon="5.56185">
        <ele>584.62</ele>
        <time>2013-06-02T14:31:07Z</time>
      </trkpt>
      <trkpt lat="45.27519" lon="5.56193">
        <ele>586.06</ele>
        <time>2013-06-02T14:31:13Z</time>
      </trkpt>
      <trkpt lat="45.27512" lon="5.56195">
        <ele>587.5</ele>
        <time>2013-06-02T14:31:18Z</time>
      </trkpt>
      <trkpt lat="45.2751" lon="5.56194">
        <ele>587.02</ele>
        <time>2013-06-02T14:31:19Z</time>
      </trkpt>
      <trkpt lat="45.27509" lon="5.56193">
        <ele>587.5</ele>
        <time>2013-06-02T14:31:20Z</time>
      </trkpt>
      <trkpt lat="45.27508" lon="5.56192">
        <ele>587.5</ele>
        <time>2013-06-02T14:31:21Z</time>
      </trkpt>
      <trkpt lat="45.27507" lon="5.56191">
        <ele>587.5</ele>
        <time>2013-06-02T14:31:22Z</time>
      </trkpt>
      <trkpt lat="45.27505" lon="5.5619">
        <ele>587.98</ele>
        <time>2013-06-02T14:31:23Z</time>
      </trkpt>
      <trkpt lat="45.27493" lon="5.56181">
        <ele>589.43</ele>
        <time>2013-06-02T14:31:33Z</time>
      </trkpt>
      <trkpt lat="45.27473" lon="5.56171">
        <ele>591.83</ele>
        <time>2013-06-02T14:31:47Z</time>
      </trkpt>
      <trkpt lat="45.27453" lon="5.56159">
        <ele>594.71</ele>
        <time>2013-06-02T14:32:02Z</time>
      </trkpt>
      <trkpt lat="45.27434" lon="5.56141">
        <ele>597.6</ele>
        <time>2013-06-02T14:32:18Z</time>
      </trkpt>
      <trkpt lat="45.27433" lon="5.56141">
        <ele>598.08</ele>
        <time>2013-06-02T14:32:19Z</time>
      </trkpt>
      <trkpt lat="45.27432" lon="5.56143">
        <ele>597.6</ele>
        <time>2013-06-02T14:32:20Z</time>
      </trkpt>
      <trkpt lat="45.2743" lon="5.56144">
        <ele>598.08</ele>
        <time>2013-06-02T14:32:21Z</time>
      </trkpt>
      <trkpt lat="45.2743" lon="5.56146">
        <ele>598.08</ele>
        <time>2013-06-02T14:32:22Z</time>
      </trkpt>
      <trkpt lat="45.27429" lon="5.56148">
        <ele>598.56</ele>
        <time>2013-06-02T14:32:23Z</time>
      </trkpt>
      <trkpt lat="45.2743" lon="5.5615">
        <ele>598.56</ele>
        <time>2013-06-02T14:32:24Z</time>
      </trkpt>
      <trkpt lat="45.2743" lon="5.56151">
        <ele>598.56</ele>
        <time>2013-06-02T14:32:25Z</time>
      </trkpt>
      <trkpt lat="45.27431" lon="5.56153">
        <ele>598.56</ele>
        <time>2013-06-02T14:32:26Z</time>
      </trkpt>
      <trkpt lat="45.27435" lon="5.56162">
        <ele>600</ele>
        <time>2013-06-02T14:32:31Z</time>
      </trkpt>
      <trkpt lat="45.27436" lon="5.56163">
        <ele>599.52</ele>
        <time>2013-06-02T14:32:32Z</time>
      </trkpt>
      <trkpt lat="45.27437" lon="5.56165">
        <ele>600</ele>
        <time>2013-06-02T14:32:33Z</time>
      </trkpt>
      <trkpt lat="45.27438" lon="5.56166">
        <ele>599.52</ele>
        <time>2013-06-02T14:32:34Z</time>
      </trkpt>
      <trkpt lat="45.27438" lon="5.56168">
        <ele>600</ele>
        <time>2013-06-02T14:32:35Z</time>
      </trkpt>
      <trkpt lat="45.27439" lon="5.5617">
        <ele>600.96</ele>
        <time>2013-06-02T14:32:36Z</time>
      </trkpt>
      <trkpt lat="45.2744" lon="5.56172">
        <ele>600.96</ele>
        <time>2013-06-02T14:32:37Z</time>
      </trkpt>
      <trkpt lat="45.27441" lon="5.56175">
        <ele>601.92</ele>
        <time>2013-06-02T14:32:39Z</time>
      </trkpt>
      <trkpt lat="45.27441" lon="5.56177">
        <ele>601.44</ele>
        <time>2013-06-02T14:32:40Z</time>
      </trkpt>
      <trkpt lat="45.27445" lon="5.56194">
        <ele>603.85</ele>
        <time>2013-06-02T14:32:49Z</time>
      </trkpt>
      <trkpt lat="45.27446" lon="5.56196">
        <ele>604.33</ele>
        <time>2013-06-02T14:32:50Z</time>
      </trkpt>
      <trkpt lat="45.27446" lon="5.56198">
        <ele>604.81</ele>
        <time>2013-06-02T14:32:51Z</time>
      </trkpt>
      <trkpt lat="45.27449" lon="5.56213">
        <ele>605.77</ele>
        <time>2013-06-02T14:32:58Z</time>
      </trkpt>
      <trkpt lat="45.27449" lon="5.56215">
        <ele>605.77</ele>
        <time>2013-06-02T14:32:59Z</time>
      </trkpt>
      <trkpt lat="45.27449" lon="5.56217">
        <ele>605.77</ele>
        <time>2013-06-02T14:33:00Z</time>
      </trkpt>
      <trkpt lat="45.27449" lon="5.56219">
        <ele>605.77</ele>
        <time>2013-06-02T14:33:01Z</time>
      </trkpt>
      <trkpt lat="45.27448" lon="5.56222">
        <ele>605.77</ele>
        <time>2013-06-02T14:33:02Z</time>
      </trkpt>
      <trkpt lat="45.27448" lon="5.56224">
        <ele>606.25</ele>
        <time>2013-06-02T14:33:03Z</time>
      </trkpt>
      <trkpt lat="45.27448" lon="5.56225">
        <ele>606.25</ele>
        <time>2013-06-02T14:33:04Z</time>
      </trkpt>
      <trkpt lat="45.27447" lon="5.56227">
        <ele>607.21</ele>
        <time>2013-06-02T14:33:05Z</time>
      </trkpt>
      <trkpt lat="45.27434" lon="5.5622">
        <ele>609.13</ele>
        <time>2013-06-02T14:33:16Z</time>
      </trkpt>
      <trkpt lat="45.27418" lon="5.5621">
        <ele>612.98</ele>
        <time>2013-06-02T14:33:28Z</time>
      </trkpt>
      <trkpt lat="45.27397" lon="5.56208">
        <ele>615.86</ele>
        <time>2013-06-02T14:33:42Z</time>
      </trkpt>
      <trkpt lat="45.27393" lon="5.56215">
        <ele>616.82</ele>
        <time>2013-06-02T14:33:46Z</time>
      </trkpt>
      <trkpt lat="45.274" lon="5.56231">
        <ele>618.26</ele>
        <time>2013-06-02T14:33:55Z</time>
      </trkpt>
      <trkpt lat="45.27402" lon="5.56259">
        <ele>622.11</ele>
        <time>2013-06-02T14:34:09Z</time>
      </trkpt>
      <trkpt lat="45.27401" lon="5.56261">
        <ele>621.63</ele>
        <time>2013-06-02T14:34:10Z</time>
      </trkpt>
      <trkpt lat="45.27407" lon="5.56274">
        <ele>624.99</ele>
        <time>2013-06-02T14:34:18Z</time>
      </trkpt>
      <trkpt lat="45.27421" lon="5.56293">
        <ele>625.96</ele>
        <time>2013-06-02T14:34:32Z</time>
      </trkpt>
      <trkpt lat="45.27422" lon="5.56294">
        <ele>625.96</ele>
        <time>2013-06-02T14:34:33Z</time>
      </trkpt>
      <trkpt lat="45.27422" lon="5.56301">
        <ele>626.92</ele>
        <time>2013-06-02T14:34:37Z</time>
      </trkpt>
      <trkpt lat="45.2741" lon="5.56307">
        <ele>628.84</ele>
        <time>2013-06-02T14:34:47Z</time>
      </trkpt>
      <trkpt lat="45.27404" lon="5.56306">
        <ele>630.28</ele>
        <time>2013-06-02T14:34:52Z</time>
      </trkpt>
      <trkpt lat="45.27392" lon="5.56304">
        <ele>633.17</ele>
        <time>2013-06-02T14:35:02Z</time>
      </trkpt>
      <trkpt lat="45.27383" lon="5.56304">
        <ele>635.09</ele>
        <time>2013-06-02T14:35:17Z</time>
      </trkpt>
      <trkpt lat="45.27383" lon="5.56304">
        <ele>635.09</ele>
        <time>2013-06-02T14:35:42Z</time>
      </trkpt>
      <trkpt lat="45.27383" lon="5.56304">
        <ele>635.09</ele>
        <time>2013-06-02T14:36:08Z</time>
      </trkpt>
      <trkpt lat="45.27383" lon="5.56304">
        <ele>635.09</ele>
        <time>2013-06-02T14:36:40Z</time>
      </trkpt>
      <trkpt lat="45.27383" lon="5.56304">
        <ele>634.61</ele>
        <time>2013-06-02T14:37:09Z</time>
      </trkpt>
      <trkpt lat="45.27383" lon="5.56305">
        <ele>635.09</ele>
        <time>2013-06-02T14:37:35Z</time>
      </trkpt>
      <trkpt lat="45.27383" lon="5.56305">
        <ele>635.09</ele>
        <time>2013-06-02T14:37:58Z</time>
      </trkpt>
      <trkpt lat="45.27382" lon="5.56307">
        <ele>635.57</ele>
        <time>2013-06-02T14:38:13Z</time>
      </trkpt>
      <trkpt lat="45.27382" lon="5.56307">
        <ele>635.57</ele>
        <time>2013-06-02T14:38:37Z</time>
      </trkpt>
      <trkpt lat="45.27382" lon="5.56306">
        <ele>638.93</ele>
        <time>2013-06-02T14:38:59Z</time>
      </trkpt>
      <trkpt lat="45.27382" lon="5.56306">
        <ele>634.13</ele>
        <time>2013-06-02T14:39:00Z</time>
      </trkpt>
      <trkpt lat="45.27382" lon="5.56306">
        <ele>637.49</ele>
        <time>2013-06-02T14:39:01Z</time>
      </trkpt>
      <trkpt lat="45.27382" lon="5.56306">
        <ele>636.05</ele>
        <time>2013-06-02T14:39:22Z</time>
      </trkpt>
      <trkpt lat="45.27382" lon="5.56306">
        <ele>636.05</ele>
        <time>2013-06-02T14:39:47Z</time>
      </trkpt>
      <trkpt lat="45.27383" lon="5.56306">
        <ele>636.53</ele>
        <time>2013-06-02T14:39:53Z</time>
      </trkpt>
      <trkpt lat="45.27383" lon="5.56306">
        <ele>636.05</ele>
        <time>2013-06-02T14:40:14Z</time>
      </trkpt>
      <trkpt lat="45.27382" lon="5.56308">
        <ele>637.01</ele>
        <time>2013-06-02T14:40:39Z</time>
      </trkpt>
      <trkpt lat="45.27375" lon="5.56311">
        <ele>640.38</ele>
        <time>2013-06-02T14:40:49Z</time>
      </trkpt>
      <trkpt lat="45.27365" lon="5.56316">
        <ele>642.78</ele>
        <time>2013-06-02T14:40:56Z</time>
      </trkpt>
      <trkpt lat="45.27357" lon="5.56318">
        <ele>644.22</ele>
        <time>2013-06-02T14:41:02Z</time>
      </trkpt>
      <trkpt lat="45.27358" lon="5.56331">
        <ele>648.55</ele>
        <time>2013-06-02T14:41:14Z</time>
      </trkpt>
      <trkpt lat="45.27358" lon="5.56335">
        <ele>649.03</ele>
        <time>2013-06-02T14:41:17Z</time>
      </trkpt>
      <trkpt lat="45.27359" lon="5.56338">
        <ele>649.51</ele>
        <time>2013-06-02T14:41:19Z</time>
      </trkpt>
      <trkpt lat="45.27359" lon="5.56342">
        <ele>650.95</ele>
        <time>2013-06-02T14:41:23Z</time>
      </trkpt>
      <trkpt lat="45.27365" lon="5.56355">
        <ele>653.83</ele>
        <time>2013-06-02T14:41:33Z</time>
      </trkpt>
      <trkpt lat="45.2737" lon="5.56365">
        <ele>654.8</ele>
        <time>2013-06-02T14:41:39Z</time>
      </trkpt>
      <trkpt lat="45.27382" lon="5.56381">
        <ele>654.8</ele>
        <time>2013-06-02T14:41:48Z</time>
      </trkpt>
      <trkpt lat="45.27391" lon="5.56395">
        <ele>655.28</ele>
        <time>2013-06-02T14:41:56Z</time>
      </trkpt>
      <trkpt lat="45.27396" lon="5.56406">
        <ele>656.24</ele>
        <time>2013-06-02T14:42:02Z</time>
      </trkpt>
      <trkpt lat="45.27409" lon="5.56426">
        <ele>656.24</ele>
        <time>2013-06-02T14:42:15Z</time>
      </trkpt>
      <trkpt lat="45.27414" lon="5.56432">
        <ele>656.72</ele>
        <time>2013-06-02T14:42:19Z</time>
      </trkpt>
      <trkpt lat="45.27416" lon="5.56436">
        <ele>657.2</ele>
        <time>2013-06-02T14:42:21Z</time>
      </trkpt>
      <trkpt lat="45.27423" lon="5.56462">
        <ele>658.64</ele>
        <time>2013-06-02T14:42:35Z</time>
      </trkpt>
      <trkpt lat="45.27424" lon="5.56478">
        <ele>659.6</ele>
        <time>2013-06-02T14:42:43Z</time>
      </trkpt>
      <trkpt lat="45.27418" lon="5.56498">
        <ele>662.97</ele>
        <time>2013-06-02T14:42:55Z</time>
      </trkpt>
      <trkpt lat="45.27415" lon="5.5651">
        <ele>665.37</ele>
        <time>2013-06-02T14:43:02Z</time>
      </trkpt>
      <trkpt lat="45.27413" lon="5.56519">
        <ele>666.81</ele>
        <time>2013-06-02T14:43:06Z</time>
      </trkpt>
      <trkpt lat="45.27412" lon="5.56531">
        <ele>668.73</ele>
        <time>2013-06-02T14:43:17Z</time>
      </trkpt>
      <trkpt lat="45.27412" lon="5.56538">
        <ele>669.7</ele>
        <time>2013-06-02T14:43:32Z</time>
      </trkpt>
      <trkpt lat="45.27414" lon="5.56539">
        <ele>669.7</ele>
        <time>2013-06-02T14:43:34Z</time>
      </trkpt>
      <trkpt lat="45.27417" lon="5.56545">
        <ele>670.18</ele>
        <time>2013-06-02T14:43:38Z</time>
      </trkpt>
      <trkpt lat="45.27425" lon="5.56554">
        <ele>669.7</ele>
        <time>2013-06-02T14:43:46Z</time>
      </trkpt>
      <trkpt lat="45.27445" lon="5.56567">
        <ele>670.66</ele>
        <time>2013-06-02T14:44:00Z</time>
      </trkpt>
      <trkpt lat="45.27461" lon="5.56584">
        <ele>671.14</ele>
        <time>2013-06-02T14:44:12Z</time>
      </trkpt>
      <trkpt lat="45.2747" lon="5.56594">
        <ele>672.1</ele>
        <time>2013-06-02T14:44:20Z</time>
      </trkpt>
      <trkpt lat="45.27478" lon="5.56609">
        <ele>669.7</ele>
        <time>2013-06-02T14:44:27Z</time>
      </trkpt>
      <trkpt lat="45.27487" lon="5.56626">
        <ele>667.29</ele>
        <time>2013-06-02T14:44:32Z</time>
      </trkpt>
      <trkpt lat="45.27506" lon="5.56648">
        <ele>667.29</ele>
        <time>2013-06-02T14:44:38Z</time>
      </trkpt>
      <trkpt lat="45.27511" lon="5.56659">
        <ele>665.85</ele>
        <time>2013-06-02T14:44:41Z</time>
      </trkpt>
      <trkpt lat="45.27515" lon="5.56695">
        <ele>662.49</ele>
        <time>2013-06-02T14:44:49Z</time>
      </trkpt>
      <trkpt lat="45.27529" lon="5.56721">
        <ele>663.45</ele>
        <time>2013-06-02T14:44:54Z</time>
      </trkpt>
      <trkpt lat="45.27543" lon="5.56736">
        <ele>663.45</ele>
        <time>2013-06-02T14:45:01Z</time>
      </trkpt>
      <trkpt lat="45.27572" lon="5.56758">
        <ele>664.41</ele>
        <time>2013-06-02T14:45:14Z</time>
      </trkpt>
      <trkpt lat="45.27609" lon="5.56778">
        <ele>665.85</ele>
        <time>2013-06-02T14:45:29Z</time>
      </trkpt>
      <trkpt lat="45.2764" lon="5.56805">
        <ele>666.33</ele>
        <time>2013-06-02T14:45:43Z</time>
      </trkpt>
      <trkpt lat="45.27672" lon="5.56842">
        <ele>666.33</ele>
        <time>2013-06-02T14:45:59Z</time>
      </trkpt>
      <trkpt lat="45.2769" lon="5.56864">
        <ele>667.77</ele>
        <time>2013-06-02T14:46:10Z</time>
      </trkpt>
      <trkpt lat="45.27718" lon="5.56881">
        <ele>669.22</ele>
        <time>2013-06-02T14:46:22Z</time>
      </trkpt>
      <trkpt lat="45.27735" lon="5.56911">
        <ele>671.62</ele>
        <time>2013-06-02T14:46:34Z</time>
      </trkpt>
      <trkpt lat="45.27758" lon="5.56942">
        <ele>673.54</ele>
        <time>2013-06-02T14:46:48Z</time>
      </trkpt>
      <trkpt lat="45.27785" lon="5.5698">
        <ele>675.94</ele>
        <time>2013-06-02T14:47:05Z</time>
      </trkpt>
      <trkpt lat="45.27803" lon="5.57006">
        <ele>678.35</ele>
        <time>2013-06-02T14:47:17Z</time>
      </trkpt>
      <trkpt lat="45.27805" lon="5.57008">
        <ele>678.83</ele>
        <time>2013-06-02T14:47:19Z</time>
      </trkpt>
      <trkpt lat="45.27806" lon="5.57016">
        <ele>679.31</ele>
        <time>2013-06-02T14:47:23Z</time>
      </trkpt>
      <trkpt lat="45.27809" lon="5.57031">
        <ele>680.75</ele>
        <time>2013-06-02T14:47:29Z</time>
      </trkpt>
      <trkpt lat="45.27819" lon="5.57044">
        <ele>682.19</ele>
        <time>2013-06-02T14:47:38Z</time>
      </trkpt>
      <trkpt lat="45.27821" lon="5.57047">
        <ele>682.67</ele>
        <time>2013-06-02T14:47:40Z</time>
      </trkpt>
      <trkpt lat="45.27836" lon="5.57065">
        <ele>685.56</ele>
        <time>2013-06-02T14:47:55Z</time>
      </trkpt>
      <trkpt lat="45.27838" lon="5.57081">
        <ele>687.96</ele>
        <time>2013-06-02T14:48:08Z</time>
      </trkpt>
      <trkpt lat="45.27839" lon="5.5709">
        <ele>687.96</ele>
        <time>2013-06-02T14:48:20Z</time>
      </trkpt>
      <trkpt lat="45.2784" lon="5.57094">
        <ele>688.92</ele>
        <time>2013-06-02T14:48:31Z</time>
      </trkpt>
      <trkpt lat="45.27844" lon="5.57111">
        <ele>690.84</ele>
        <time>2013-06-02T14:48:44Z</time>
      </trkpt>
      <trkpt lat="45.27845" lon="5.57123">
        <ele>692.77</ele>
        <time>2013-06-02T14:48:55Z</time>
      </trkpt>
      <trkpt lat="45.27843" lon="5.57134">
        <ele>694.69</ele>
        <time>2013-06-02T14:49:06Z</time>
      </trkpt>
      <trkpt lat="45.27842" lon="5.57143">
        <ele>696.13</ele>
        <time>2013-06-02T14:49:20Z</time>
      </trkpt>
      <trkpt lat="45.27845" lon="5.57158">
        <ele>698.05</ele>
        <time>2013-06-02T14:49:32Z</time>
      </trkpt>
      <trkpt lat="45.27852" lon="5.57171">
        <ele>699.5</ele>
        <time>2013-06-02T14:49:43Z</time>
      </trkpt>
      <trkpt lat="45.27851" lon="5.57172">
        <ele>699.5</ele>
        <time>2013-06-02T14:49:55Z</time>
      </trkpt>
      <trkpt lat="45.2785" lon="5.57173">
        <ele>699.98</ele>
        <time>2013-06-02T14:50:15Z</time>
      </trkpt>
      <trkpt lat="45.2785" lon="5.57173">
        <ele>699.5</ele>
        <time>2013-06-02T14:50:38Z</time>
      </trkpt>
      <trkpt lat="45.27854" lon="5.57178">
        <ele>700.94</ele>
        <time>2013-06-02T14:50:59Z</time>
      </trkpt>
      <trkpt lat="45.27854" lon="5.57179">
        <ele>700.94</ele>
        <time>2013-06-02T14:51:00Z</time>
      </trkpt>
      <trkpt lat="45.27859" lon="5.57185">
        <ele>702.38</ele>
        <time>2013-06-02T14:51:05Z</time>
      </trkpt>
      <trkpt lat="45.27865" lon="5.57191">
        <ele>702.86</ele>
        <time>2013-06-02T14:51:10Z</time>
      </trkpt>
      <trkpt lat="45.27872" lon="5.57207">
        <ele>705.26</ele>
        <time>2013-06-02T14:51:22Z</time>
      </trkpt>
      <trkpt lat="45.27887" lon="5.57225">
        <ele>707.67</ele>
        <time>2013-06-02T14:51:35Z</time>
      </trkpt>
      <trkpt lat="45.27893" lon="5.57235">
        <ele>708.63</ele>
        <time>2013-06-02T14:51:42Z</time>
      </trkpt>
      <trkpt lat="45.27906" lon="5.57256">
        <ele>711.03</ele>
        <time>2013-06-02T14:51:55Z</time>
      </trkpt>
      <trkpt lat="45.27907" lon="5.57258">
        <ele>711.03</ele>
        <time>2013-06-02T14:51:56Z</time>
      </trkpt>
      <trkpt lat="45.2791" lon="5.57266">
        <ele>711.51</ele>
        <time>2013-06-02T14:52:01Z</time>
      </trkpt>
      <trkpt lat="45.27916" lon="5.57278">
        <ele>712.47</ele>
        <time>2013-06-02T14:52:08Z</time>
      </trkpt>
      <trkpt lat="45.27926" lon="5.57296">
        <ele>713.92</ele>
        <time>2013-06-02T14:52:20Z</time>
      </trkpt>
      <trkpt lat="45.27933" lon="5.57313">
        <ele>714.88</ele>
        <time>2013-06-02T14:52:30Z</time>
      </trkpt>
      <trkpt lat="45.27945" lon="5.5734">
        <ele>717.28</ele>
        <time>2013-06-02T14:52:44Z</time>
      </trkpt>
      <trkpt lat="45.27953" lon="5.57364">
        <ele>718.72</ele>
        <time>2013-06-02T14:52:55Z</time>
      </trkpt>
      <trkpt lat="45.27957" lon="5.57374">
        <ele>719.2</ele>
        <time>2013-06-02T14:53:00Z</time>
      </trkpt>
      <trkpt lat="45.27966" lon="5.57393">
        <ele>720.16</ele>
        <time>2013-06-02T14:53:10Z</time>
      </trkpt>
      <trkpt lat="45.27972" lon="5.57407">
        <ele>720.16</ele>
        <time>2013-06-02T14:53:17Z</time>
      </trkpt>
      <trkpt lat="45.27978" lon="5.57417">
        <ele>721.13</ele>
        <time>2013-06-02T14:53:23Z</time>
      </trkpt>
      <trkpt lat="45.27985" lon="5.57431">
        <ele>721.13</ele>
        <time>2013-06-02T14:53:29Z</time>
      </trkpt>
      <trkpt lat="45.28001" lon="5.5746">
        <ele>723.05</ele>
        <time>2013-06-02T14:53:42Z</time>
      </trkpt>
      <trkpt lat="45.28012" lon="5.57482">
        <ele>724.01</ele>
        <time>2013-06-02T14:53:52Z</time>
      </trkpt>
      <trkpt lat="45.28017" lon="5.57499">
        <ele>726.41</ele>
        <time>2013-06-02T14:54:03Z</time>
      </trkpt>
      <trkpt lat="45.2802" lon="5.57506">
        <ele>727.37</ele>
        <time>2013-06-02T14:54:07Z</time>
      </trkpt>
      <trkpt lat="45.28031" lon="5.57526">
        <ele>728.82</ele>
        <time>2013-06-02T14:54:19Z</time>
      </trkpt>
      <trkpt lat="45.28032" lon="5.57526">
        <ele>729.3</ele>
        <time>2013-06-02T14:54:20Z</time>
      </trkpt>
      <trkpt lat="45.28037" lon="5.57533">
        <ele>730.26</ele>
        <time>2013-06-02T14:54:24Z</time>
      </trkpt>
      <trkpt lat="45.28051" lon="5.5755">
        <ele>732.66</ele>
        <time>2013-06-02T14:54:36Z</time>
      </trkpt>
      <trkpt lat="45.2805" lon="5.57579">
        <ele>735.07</ele>
        <time>2013-06-02T14:54:50Z</time>
      </trkpt>
      <trkpt lat="45.2805" lon="5.57601">
        <ele>736.51</ele>
        <time>2013-06-02T14:55:03Z</time>
      </trkpt>
      <trkpt lat="45.2805" lon="5.57615">
        <ele>737.95</ele>
        <time>2013-06-02T14:55:15Z</time>
      </trkpt>
      <trkpt lat="45.28045" lon="5.57631">
        <ele>739.87</ele>
        <time>2013-06-02T14:55:29Z</time>
      </trkpt>
      <trkpt lat="45.28037" lon="5.57633">
        <ele>741.79</ele>
        <time>2013-06-02T14:55:41Z</time>
      </trkpt>
      <trkpt lat="45.28029" lon="5.57631">
        <ele>744.2</ele>
        <time>2013-06-02T14:55:55Z</time>
      </trkpt>
      <trkpt lat="45.28023" lon="5.5763">
        <ele>747.08</ele>
        <time>2013-06-02T14:56:09Z</time>
      </trkpt>
      <trkpt lat="45.28016" lon="5.57623">
        <ele>748.52</ele>
        <time>2013-06-02T14:56:21Z</time>
      </trkpt>
      <trkpt lat="45.2801" lon="5.57613">
        <ele>750.93</ele>
        <time>2013-06-02T14:56:37Z</time>
      </trkpt>
      <trkpt lat="45.28005" lon="5.57609">
        <ele>751.89</ele>
        <time>2013-06-02T14:56:44Z</time>
      </trkpt>
      <trkpt lat="45.28" lon="5.57606">
        <ele>753.81</ele>
        <time>2013-06-02T14:56:55Z</time>
      </trkpt>
      <trkpt lat="45.2799" lon="5.57603">
        <ele>755.73</ele>
        <time>2013-06-02T14:57:06Z</time>
      </trkpt>
      <trkpt lat="45.27984" lon="5.57601">
        <ele>757.66</ele>
        <time>2013-06-02T14:57:18Z</time>
      </trkpt>
      <trkpt lat="45.27977" lon="5.576">
        <ele>760.06</ele>
        <time>2013-06-02T14:57:31Z</time>
      </trkpt>
      <trkpt lat="45.27963" lon="5.57599">
        <ele>761.02</ele>
        <time>2013-06-02T14:57:43Z</time>
      </trkpt>
      <trkpt lat="45.27958" lon="5.57597">
        <ele>761.98</ele>
        <time>2013-06-02T14:57:57Z</time>
      </trkpt>
      <trkpt lat="45.27947" lon="5.57595">
        <ele>763.42</ele>
        <time>2013-06-02T14:58:10Z</time>
      </trkpt>
      <trkpt lat="45.27936" lon="5.57598">
        <ele>765.83</ele>
        <time>2013-06-02T14:58:23Z</time>
      </trkpt>
      <trkpt lat="45.27926" lon="5.57602">
        <ele>767.75</ele>
        <time>2013-06-02T14:58:32Z</time>
      </trkpt>
      <trkpt lat="45.27918" lon="5.57606">
        <ele>767.75</ele>
        <time>2013-06-02T14:58:36Z</time>
      </trkpt>
      <trkpt lat="45.27899" lon="5.5762">
        <ele>769.19</ele>
        <time>2013-06-02T14:58:48Z</time>
      </trkpt>
      <trkpt lat="45.27887" lon="5.57633">
        <ele>770.15</ele>
        <time>2013-06-02T14:59:01Z</time>
      </trkpt>
      <trkpt lat="45.27885" lon="5.57634">
        <ele>770.63</ele>
        <time>2013-06-02T14:59:03Z</time>
      </trkpt>
      <trkpt lat="45.27878" lon="5.57636">
        <ele>771.11</ele>
        <time>2013-06-02T14:59:09Z</time>
      </trkpt>
      <trkpt lat="45.27866" lon="5.57649">
        <ele>773.52</ele>
        <time>2013-06-02T14:59:22Z</time>
      </trkpt>
      <trkpt lat="45.27849" lon="5.5766">
        <ele>775.92</ele>
        <time>2013-06-02T14:59:37Z</time>
      </trkpt>
      <trkpt lat="45.2784" lon="5.57666">
        <ele>776.88</ele>
        <time>2013-06-02T14:59:41Z</time>
      </trkpt>
      <trkpt lat="45.27828" lon="5.57668">
        <ele>777.36</ele>
        <time>2013-06-02T14:59:49Z</time>
      </trkpt>
      <trkpt lat="45.27799" lon="5.57661">
        <ele>779.29</ele>
        <time>2013-06-02T15:00:03Z</time>
      </trkpt>
      <trkpt lat="45.27791" lon="5.5766">
        <ele>779.29</ele>
        <time>2013-06-02T15:00:07Z</time>
      </trkpt>
      <trkpt lat="45.27776" lon="5.57655">
        <ele>779.29</ele>
        <time>2013-06-02T15:00:17Z</time>
      </trkpt>
      <trkpt lat="45.2777" lon="5.57653">
        <ele>779.77</ele>
        <time>2013-06-02T15:00:22Z</time>
      </trkpt>
      <trkpt lat="45.27749" lon="5.5765">
        <ele>781.21</ele>
        <time>2013-06-02T15:00:36Z</time>
      </trkpt>
      <trkpt lat="45.27724" lon="5.57647">
        <ele>783.61</ele>
        <time>2013-06-02T15:00:49Z</time>
      </trkpt>
      <trkpt lat="45.27694" lon="5.57652">
        <ele>786.02</ele>
        <time>2013-06-02T15:01:02Z</time>
      </trkpt>
      <trkpt lat="45.27679" lon="5.57652">
        <ele>786.5</ele>
        <time>2013-06-02T15:01:08Z</time>
      </trkpt>
      <trkpt lat="45.27653" lon="5.57657">
        <ele>788.9</ele>
        <time>2013-06-02T15:01:21Z</time>
      </trkpt>
      <trkpt lat="45.27635" lon="5.57663">
        <ele>790.82</ele>
        <time>2013-06-02T15:01:31Z</time>
      </trkpt>
      <trkpt lat="45.27623" lon="5.57667">
        <ele>792.26</ele>
        <time>2013-06-02T15:01:37Z</time>
      </trkpt>
      <trkpt lat="45.27616" lon="5.57667">
        <ele>792.74</ele>
        <time>2013-06-02T15:01:41Z</time>
      </trkpt>
      <trkpt lat="45.27604" lon="5.57667">
        <ele>793.71</ele>
        <time>2013-06-02T15:01:47Z</time>
      </trkpt>
      <trkpt lat="45.2759" lon="5.57666">
        <ele>793.71</ele>
        <time>2013-06-02T15:01:52Z</time>
      </trkpt>
      <trkpt lat="45.27585" lon="5.57664">
        <ele>793.71</ele>
        <time>2013-06-02T15:01:54Z</time>
      </trkpt>
      <trkpt lat="45.27572" lon="5.57654">
        <ele>794.19</ele>
        <time>2013-06-02T15:02:00Z</time>
      </trkpt>
      <trkpt lat="45.27556" lon="5.57646">
        <ele>794.19</ele>
        <time>2013-06-02T15:02:06Z</time>
      </trkpt>
      <trkpt lat="45.27538" lon="5.5765">
        <ele>792.74</ele>
        <time>2013-06-02T15:02:13Z</time>
      </trkpt>
      <trkpt lat="45.27497" lon="5.57663">
        <ele>793.22</ele>
        <time>2013-06-02T15:02:26Z</time>
      </trkpt>
      <trkpt lat="45.27451" lon="5.57658">
        <ele>790.82</ele>
        <time>2013-06-02T15:02:36Z</time>
      </trkpt>
      <trkpt lat="45.27446" lon="5.57659">
        <ele>791.3</ele>
        <time>2013-06-02T15:02:37Z</time>
      </trkpt>
      <trkpt lat="45.27428" lon="5.57659">
        <ele>791.3</ele>
        <time>2013-06-02T15:02:42Z</time>
      </trkpt>
      <trkpt lat="45.27427" lon="5.57657">
        <ele>791.78</ele>
        <time>2013-06-02T15:02:43Z</time>
      </trkpt>
      <trkpt lat="45.27425" lon="5.57656">
        <ele>791.78</ele>
        <time>2013-06-02T15:02:44Z</time>
      </trkpt>
      <trkpt lat="45.27424" lon="5.57654">
        <ele>790.82</ele>
        <time>2013-06-02T15:02:45Z</time>
      </trkpt>
      <trkpt lat="45.27421" lon="5.57651">
        <ele>790.34</ele>
        <time>2013-06-02T15:02:46Z</time>
      </trkpt>
      <trkpt lat="45.27419" lon="5.57647">
        <ele>790.34</ele>
        <time>2013-06-02T15:02:47Z</time>
      </trkpt>
      <trkpt lat="45.27416" lon="5.57643">
        <ele>789.38</ele>
        <time>2013-06-02T15:02:48Z</time>
      </trkpt>
      <trkpt lat="45.27414" lon="5.57639">
        <ele>788.9</ele>
        <time>2013-06-02T15:02:49Z</time>
      </trkpt>
      <trkpt lat="45.2741" lon="5.5763">
        <ele>786.98</ele>
        <time>2013-06-02T15:02:51Z</time>
      </trkpt>
      <trkpt lat="45.2741" lon="5.57625">
        <ele>786.5</ele>
        <time>2013-06-02T15:02:52Z</time>
      </trkpt>
      <trkpt lat="45.27409" lon="5.57622">
        <ele>786.02</ele>
        <time>2013-06-02T15:02:53Z</time>
      </trkpt>
      <trkpt lat="45.27408" lon="5.57618">
        <ele>784.57</ele>
        <time>2013-06-02T15:02:54Z</time>
      </trkpt>
      <trkpt lat="45.27407" lon="5.57613">
        <ele>784.09</ele>
        <time>2013-06-02T15:02:55Z</time>
      </trkpt>
      <trkpt lat="45.27406" lon="5.57608">
        <ele>782.65</ele>
        <time>2013-06-02T15:02:56Z</time>
      </trkpt>
      <trkpt lat="45.27405" lon="5.57603">
        <ele>782.17</ele>
        <time>2013-06-02T15:02:57Z</time>
      </trkpt>
      <trkpt lat="45.27404" lon="5.57597">
        <ele>781.69</ele>
        <time>2013-06-02T15:02:58Z</time>
      </trkpt>
      <trkpt lat="45.27402" lon="5.57591">
        <ele>780.25</ele>
        <time>2013-06-02T15:02:59Z</time>
      </trkpt>
      <trkpt lat="45.27395" lon="5.57561">
        <ele>775.44</ele>
        <time>2013-06-02T15:03:04Z</time>
      </trkpt>
      <trkpt lat="45.27394" lon="5.57549">
        <ele>773.52</ele>
        <time>2013-06-02T15:03:07Z</time>
      </trkpt>
      <trkpt lat="45.27392" lon="5.57545">
        <ele>772.08</ele>
        <time>2013-06-02T15:03:11Z</time>
      </trkpt>
      <trkpt lat="45.27385" lon="5.57532">
        <ele>769.67</ele>
        <time>2013-06-02T15:03:16Z</time>
      </trkpt>
      <trkpt lat="45.27383" lon="5.5752">
        <ele>767.27</ele>
        <time>2013-06-02T15:03:21Z</time>
      </trkpt>
      <trkpt lat="45.27378" lon="5.57507">
        <ele>763.9</ele>
        <time>2013-06-02T15:03:28Z</time>
      </trkpt>
      <trkpt lat="45.27378" lon="5.57502">
        <ele>762.94</ele>
        <time>2013-06-02T15:03:30Z</time>
      </trkpt>
      <trkpt lat="45.27374" lon="5.57494">
        <ele>760.54</ele>
        <time>2013-06-02T15:03:34Z</time>
      </trkpt>
      <trkpt lat="45.2737" lon="5.57484">
        <ele>757.18</ele>
        <time>2013-06-02T15:03:38Z</time>
      </trkpt>
      <trkpt lat="45.2737" lon="5.57481">
        <ele>755.25</ele>
        <time>2013-06-02T15:03:40Z</time>
      </trkpt>
      <trkpt lat="45.2737" lon="5.57476">
        <ele>753.81</ele>
        <time>2013-06-02T15:03:43Z</time>
      </trkpt>
      <trkpt lat="45.27366" lon="5.57461">
        <ele>751.41</ele>
        <time>2013-06-02T15:03:47Z</time>
      </trkpt>
      <trkpt lat="45.27366" lon="5.57456">
        <ele>750.93</ele>
        <time>2013-06-02T15:03:48Z</time>
      </trkpt>
      <trkpt lat="45.27364" lon="5.57438">
        <ele>747.56</ele>
        <time>2013-06-02T15:03:54Z</time>
      </trkpt>
      <trkpt lat="45.27354" lon="5.57428">
        <ele>745.16</ele>
        <time>2013-06-02T15:04:01Z</time>
      </trkpt>
      <trkpt lat="45.27345" lon="5.57418">
        <ele>740.83</ele>
        <time>2013-06-02T15:04:06Z</time>
      </trkpt>
      <trkpt lat="45.2733" lon="5.57403">
        <ele>737.95</ele>
        <time>2013-06-02T15:04:12Z</time>
      </trkpt>
      <trkpt lat="45.27315" lon="5.57387">
        <ele>735.07</ele>
        <time>2013-06-02T15:04:19Z</time>
      </trkpt>
      <trkpt lat="45.27312" lon="5.57381">
        <ele>732.18</ele>
        <time>2013-06-02T15:04:22Z</time>
      </trkpt>
      <trkpt lat="45.27316" lon="5.57366">
        <ele>730.26</ele>
        <time>2013-06-02T15:04:25Z</time>
      </trkpt>
      <trkpt lat="45.2732" lon="5.57349">
        <ele>728.82</ele>
        <time>2013-06-02T15:04:30Z</time>
      </trkpt>
      <trkpt lat="45.27312" lon="5.57349">
        <ele>728.82</ele>
        <time>2013-06-02T15:04:39Z</time>
      </trkpt>
      <trkpt lat="45.27307" lon="5.57328">
        <ele>726.89</ele>
        <time>2013-06-02T15:04:46Z</time>
      </trkpt>
      <trkpt lat="45.27305" lon="5.57322">
        <ele>725.93</ele>
        <time>2013-06-02T15:04:47Z</time>
      </trkpt>
      <trkpt lat="45.27302" lon="5.57316">
        <ele>725.45</ele>
        <time>2013-06-02T15:04:48Z</time>
      </trkpt>
      <trkpt lat="45.27298" lon="5.57308">
        <ele>724.49</ele>
        <time>2013-06-02T15:04:49Z</time>
      </trkpt>
      <trkpt lat="45.27289" lon="5.57283">
        <ele>723.05</ele>
        <time>2013-06-02T15:04:52Z</time>
      </trkpt>
      <trkpt lat="45.27288" lon="5.57274">
        <ele>723.05</ele>
        <time>2013-06-02T15:04:53Z</time>
      </trkpt>
      <trkpt lat="45.27288" lon="5.57265">
        <ele>722.09</ele>
        <time>2013-06-02T15:04:54Z</time>
      </trkpt>
      <trkpt lat="45.27287" lon="5.5724">
        <ele>721.61</ele>
        <time>2013-06-02T15:04:57Z</time>
      </trkpt>
      <trkpt lat="45.27284" lon="5.57235">
        <ele>721.13</ele>
        <time>2013-06-02T15:04:58Z</time>
      </trkpt>
      <trkpt lat="45.27279" lon="5.57232">
        <ele>721.13</ele>
        <time>2013-06-02T15:04:59Z</time>
      </trkpt>
      <trkpt lat="45.27269" lon="5.57234">
        <ele>720.16</ele>
        <time>2013-06-02T15:05:01Z</time>
      </trkpt>
      <trkpt lat="45.27264" lon="5.57237">
        <ele>719.68</ele>
        <time>2013-06-02T15:05:02Z</time>
      </trkpt>
      <trkpt lat="45.27258" lon="5.57241">
        <ele>718.72</ele>
        <time>2013-06-02T15:05:03Z</time>
      </trkpt>
      <trkpt lat="45.27253" lon="5.57245">
        <ele>718.24</ele>
        <time>2013-06-02T15:05:04Z</time>
      </trkpt>
      <trkpt lat="45.27249" lon="5.57246">
        <ele>717.76</ele>
        <time>2013-06-02T15:05:05Z</time>
      </trkpt>
      <trkpt lat="45.27246" lon="5.57248">
        <ele>718.24</ele>
        <time>2013-06-02T15:05:06Z</time>
      </trkpt>
      <trkpt lat="45.27243" lon="5.57249">
        <ele>718.72</ele>
        <time>2013-06-02T15:05:07Z</time>
      </trkpt>
      <trkpt lat="45.27242" lon="5.57249">
        <ele>718.24</ele>
        <time>2013-06-02T15:05:08Z</time>
      </trkpt>
      <trkpt lat="45.2724" lon="5.57249">
        <ele>717.76</ele>
        <time>2013-06-02T15:05:09Z</time>
      </trkpt>
      <trkpt lat="45.27238" lon="5.5725">
        <ele>717.76</ele>
        <time>2013-06-02T15:05:10Z</time>
      </trkpt>
      <trkpt lat="45.27219" lon="5.57251">
        <ele>716.8</ele>
        <time>2013-06-02T15:05:19Z</time>
      </trkpt>
      <trkpt lat="45.27214" lon="5.57249">
        <ele>716.32</ele>
        <time>2013-06-02T15:05:20Z</time>
      </trkpt>
      <trkpt lat="45.27187" lon="5.57235">
        <ele>712.47</ele>
        <time>2013-06-02T15:05:25Z</time>
      </trkpt>
      <trkpt lat="45.27179" lon="5.57235">
        <ele>711.99</ele>
        <time>2013-06-02T15:05:26Z</time>
      </trkpt>
      <trkpt lat="45.27171" lon="5.57238">
        <ele>711.03</ele>
        <time>2013-06-02T15:05:27Z</time>
      </trkpt>
      <trkpt lat="45.27163" lon="5.57242">
        <ele>709.59</ele>
        <time>2013-06-02T15:05:28Z</time>
      </trkpt>
      <trkpt lat="45.27155" lon="5.57243">
        <ele>708.63</ele>
        <time>2013-06-02T15:05:29Z</time>
      </trkpt>
      <trkpt lat="45.27147" lon="5.57241">
        <ele>708.15</ele>
        <time>2013-06-02T15:05:30Z</time>
      </trkpt>
      <trkpt lat="45.2714" lon="5.57241">
        <ele>709.11</ele>
        <time>2013-06-02T15:05:31Z</time>
      </trkpt>
      <trkpt lat="45.27134" lon="5.57242">
        <ele>708.63</ele>
        <time>2013-06-02T15:05:32Z</time>
      </trkpt>
      <trkpt lat="45.27128" lon="5.57245">
        <ele>708.15</ele>
        <time>2013-06-02T15:05:33Z</time>
      </trkpt>
      <trkpt lat="45.27123" lon="5.57249">
        <ele>707.67</ele>
        <time>2013-06-02T15:05:34Z</time>
      </trkpt>
      <trkpt lat="45.27118" lon="5.57255">
        <ele>708.15</ele>
        <time>2013-06-02T15:05:35Z</time>
      </trkpt>
      <trkpt lat="45.27113" lon="5.57261">
        <ele>708.15</ele>
        <time>2013-06-02T15:05:36Z</time>
      </trkpt>
      <trkpt lat="45.27109" lon="5.57268">
        <ele>707.67</ele>
        <time>2013-06-02T15:05:37Z</time>
      </trkpt>
      <trkpt lat="45.27101" lon="5.5728">
        <ele>707.19</ele>
        <time>2013-06-02T15:05:39Z</time>
      </trkpt>
      <trkpt lat="45.27071" lon="5.57316">
        <ele>708.15</ele>
        <time>2013-06-02T15:05:47Z</time>
      </trkpt>
      <trkpt lat="45.27057" lon="5.57324">
        <ele>706.71</ele>
        <time>2013-06-02T15:05:50Z</time>
      </trkpt>
      <trkpt lat="45.27053" lon="5.57327">
        <ele>706.23</ele>
        <time>2013-06-02T15:05:51Z</time>
      </trkpt>
      <trkpt lat="45.27049" lon="5.5733">
        <ele>706.23</ele>
        <time>2013-06-02T15:05:52Z</time>
      </trkpt>
      <trkpt lat="45.27041" lon="5.57336">
        <ele>704.3</ele>
        <time>2013-06-02T15:05:54Z</time>
      </trkpt>
      <trkpt lat="45.27035" lon="5.5734">
        <ele>703.34</ele>
        <time>2013-06-02T15:05:55Z</time>
      </trkpt>
      <trkpt lat="45.27029" lon="5.57345">
        <ele>702.86</ele>
        <time>2013-06-02T15:05:56Z</time>
      </trkpt>
      <trkpt lat="45.27023" lon="5.5735">
        <ele>701.42</ele>
        <time>2013-06-02T15:05:57Z</time>
      </trkpt>
      <trkpt lat="45.27017" lon="5.57357">
        <ele>699.5</ele>
        <time>2013-06-02T15:05:58Z</time>
      </trkpt>
      <trkpt lat="45.27002" lon="5.57371">
        <ele>697.57</ele>
        <time>2013-06-02T15:06:01Z</time>
      </trkpt>
      <trkpt lat="45.26998" lon="5.57375">
        <ele>696.61</ele>
        <time>2013-06-02T15:06:02Z</time>
      </trkpt>
      <trkpt lat="45.26992" lon="5.57381">
        <ele>695.65</ele>
        <time>2013-06-02T15:06:04Z</time>
      </trkpt>
      <trkpt lat="45.26986" lon="5.57386">
        <ele>694.21</ele>
        <time>2013-06-02T15:06:06Z</time>
      </trkpt>
      <trkpt lat="45.26984" lon="5.57388">
        <ele>694.21</ele>
        <time>2013-06-02T15:06:07Z</time>
      </trkpt>
      <trkpt lat="45.26981" lon="5.5739">
        <ele>694.21</ele>
        <time>2013-06-02T15:06:08Z</time>
      </trkpt>
      <trkpt lat="45.26977" lon="5.57392">
        <ele>693.73</ele>
        <time>2013-06-02T15:06:09Z</time>
      </trkpt>
      <trkpt lat="45.26973" lon="5.57395">
        <ele>692.29</ele>
        <time>2013-06-02T15:06:10Z</time>
      </trkpt>
      <trkpt lat="45.26967" lon="5.57397">
        <ele>691.81</ele>
        <time>2013-06-02T15:06:11Z</time>
      </trkpt>
      <trkpt lat="45.26961" lon="5.57397">
        <ele>690.84</ele>
        <time>2013-06-02T15:06:12Z</time>
      </trkpt>
      <trkpt lat="45.2693" lon="5.57394">
        <ele>687</ele>
        <time>2013-06-02T15:06:16Z</time>
      </trkpt>
      <trkpt lat="45.26913" lon="5.57394">
        <ele>685.08</ele>
        <time>2013-06-02T15:06:18Z</time>
      </trkpt>
      <trkpt lat="45.26904" lon="5.57396">
        <ele>684.12</ele>
        <time>2013-06-02T15:06:19Z</time>
      </trkpt>
      <trkpt lat="45.26896" lon="5.57401">
        <ele>683.63</ele>
        <time>2013-06-02T15:06:20Z</time>
      </trkpt>
      <trkpt lat="45.26846" lon="5.57446">
        <ele>683.15</ele>
        <time>2013-06-02T15:06:27Z</time>
      </trkpt>
      <trkpt lat="45.26841" lon="5.57453">
        <ele>683.15</ele>
        <time>2013-06-02T15:06:28Z</time>
      </trkpt>
      <trkpt lat="45.26836" lon="5.5746">
        <ele>683.15</ele>
        <time>2013-06-02T15:06:29Z</time>
      </trkpt>
      <trkpt lat="45.2683" lon="5.57467">
        <ele>683.15</ele>
        <time>2013-06-02T15:06:30Z</time>
      </trkpt>
      <trkpt lat="45.26824" lon="5.57471">
        <ele>683.15</ele>
        <time>2013-06-02T15:06:31Z</time>
      </trkpt>
      <trkpt lat="45.26818" lon="5.57474">
        <ele>683.15</ele>
        <time>2013-06-02T15:06:32Z</time>
      </trkpt>
      <trkpt lat="45.26811" lon="5.57474">
        <ele>683.15</ele>
        <time>2013-06-02T15:06:33Z</time>
      </trkpt>
      <trkpt lat="45.26805" lon="5.57473">
        <ele>683.15</ele>
        <time>2013-06-02T15:06:34Z</time>
      </trkpt>
      <trkpt lat="45.26799" lon="5.57471">
        <ele>683.15</ele>
        <time>2013-06-02T15:06:35Z</time>
      </trkpt>
      <trkpt lat="45.26793" lon="5.57468">
        <ele>683.15</ele>
        <time>2013-06-02T15:06:36Z</time>
      </trkpt>
      <trkpt lat="45.26788" lon="5.57466">
        <ele>683.63</ele>
        <time>2013-06-02T15:06:37Z</time>
      </trkpt>
      <trkpt lat="45.26777" lon="5.57462">
        <ele>683.15</ele>
        <time>2013-06-02T15:06:39Z</time>
      </trkpt>
      <trkpt lat="45.26771" lon="5.57462">
        <ele>683.15</ele>
        <time>2013-06-02T15:06:40Z</time>
      </trkpt>
      <trkpt lat="45.26753" lon="5.57461">
        <ele>683.63</ele>
        <time>2013-06-02T15:06:43Z</time>
      </trkpt>
      <trkpt lat="45.26727" lon="5.57463">
        <ele>679.79</ele>
        <time>2013-06-02T15:06:48Z</time>
      </trkpt>
      <trkpt lat="45.26722" lon="5.57462">
        <ele>683.15</ele>
        <time>2013-06-02T15:06:49Z</time>
      </trkpt>
      <trkpt lat="45.26717" lon="5.57462">
        <ele>683.15</ele>
        <time>2013-06-02T15:06:50Z</time>
      </trkpt>
      <trkpt lat="45.26709" lon="5.57459">
        <ele>683.15</ele>
        <time>2013-06-02T15:06:52Z</time>
      </trkpt>
      <trkpt lat="45.26669" lon="5.57448">
        <ele>684.12</ele>
        <time>2013-06-02T15:07:03Z</time>
      </trkpt>
      <trkpt lat="45.26645" lon="5.57479">
        <ele>685.08</ele>
        <time>2013-06-02T15:07:13Z</time>
      </trkpt>
      <trkpt lat="45.26616" lon="5.57514">
        <ele>687.96</ele>
        <time>2013-06-02T15:07:24Z</time>
      </trkpt>
      <trkpt lat="45.26596" lon="5.57539">
        <ele>690.84</ele>
        <time>2013-06-02T15:07:35Z</time>
      </trkpt>
      <trkpt lat="45.26593" lon="5.57592">
        <ele>692.77</ele>
        <time>2013-06-02T15:07:51Z</time>
      </trkpt>
      <trkpt lat="45.26587" lon="5.57607">
        <ele>693.73</ele>
        <time>2013-06-02T15:07:56Z</time>
      </trkpt>
      <trkpt lat="45.26584" lon="5.57608">
        <ele>693.73</ele>
        <time>2013-06-02T15:07:57Z</time>
      </trkpt>
      <trkpt lat="45.26581" lon="5.57608">
        <ele>693.73</ele>
        <time>2013-06-02T15:07:58Z</time>
      </trkpt>
      <trkpt lat="45.26579" lon="5.57606">
        <ele>693.25</ele>
        <time>2013-06-02T15:07:59Z</time>
      </trkpt>
      <trkpt lat="45.26577" lon="5.57603">
        <ele>693.73</ele>
        <time>2013-06-02T15:08:00Z</time>
      </trkpt>
      <trkpt lat="45.26576" lon="5.57601">
        <ele>693.73</ele>
        <time>2013-06-02T15:08:01Z</time>
      </trkpt>
      <trkpt lat="45.26574" lon="5.57598">
        <ele>693.73</ele>
        <time>2013-06-02T15:08:02Z</time>
      </trkpt>
      <trkpt lat="45.26568" lon="5.57554">
        <ele>694.69</ele>
        <time>2013-06-02T15:08:16Z</time>
      </trkpt>
      <trkpt lat="45.26569" lon="5.57519">
        <ele>697.57</ele>
        <time>2013-06-02T15:08:28Z</time>
      </trkpt>
      <trkpt lat="45.26566" lon="5.57503">
        <ele>699.5</ele>
        <time>2013-06-02T15:08:33Z</time>
      </trkpt>
      <trkpt lat="45.26554" lon="5.57469">
        <ele>702.38</ele>
        <time>2013-06-02T15:08:43Z</time>
      </trkpt>
      <trkpt lat="45.26537" lon="5.57426">
        <ele>702.86</ele>
        <time>2013-06-02T15:08:55Z</time>
      </trkpt>
      <trkpt lat="45.26529" lon="5.5739">
        <ele>703.34</ele>
        <time>2013-06-02T15:09:04Z</time>
      </trkpt>
      <trkpt lat="45.26511" lon="5.57349">
        <ele>701.9</ele>
        <time>2013-06-02T15:09:13Z</time>
      </trkpt>
      <trkpt lat="45.26508" lon="5.57336">
        <ele>700.94</ele>
        <time>2013-06-02T15:09:15Z</time>
      </trkpt>
      <trkpt lat="45.26505" lon="5.57321">
        <ele>699.98</ele>
        <time>2013-06-02T15:09:17Z</time>
      </trkpt>
      <trkpt lat="45.26503" lon="5.57314">
        <ele>699.5</ele>
        <time>2013-06-02T15:09:18Z</time>
      </trkpt>
      <trkpt lat="45.265" lon="5.57308">
        <ele>699.5</ele>
        <time>2013-06-02T15:09:19Z</time>
      </trkpt>
      <trkpt lat="45.26497" lon="5.57301">
        <ele>699.02</ele>
        <time>2013-06-02T15:09:20Z</time>
      </trkpt>
      <trkpt lat="45.26493" lon="5.57293">
        <ele>699.02</ele>
        <time>2013-06-02T15:09:21Z</time>
      </trkpt>
      <trkpt lat="45.26489" lon="5.57287">
        <ele>698.53</ele>
        <time>2013-06-02T15:09:22Z</time>
      </trkpt>
      <trkpt lat="45.26485" lon="5.57279">
        <ele>698.53</ele>
        <time>2013-06-02T15:09:23Z</time>
      </trkpt>
      <trkpt lat="45.26456" lon="5.57226">
        <ele>696.61</ele>
        <time>2013-06-02T15:09:30Z</time>
      </trkpt>
      <trkpt lat="45.26451" lon="5.5722">
        <ele>697.09</ele>
        <time>2013-06-02T15:09:31Z</time>
      </trkpt>
      <trkpt lat="45.26432" lon="5.57198">
        <ele>700.46</ele>
        <time>2013-06-02T15:09:36Z</time>
      </trkpt>
      <trkpt lat="45.26425" lon="5.57192">
        <ele>701.9</ele>
        <time>2013-06-02T15:09:39Z</time>
      </trkpt>
      <trkpt lat="45.26398" lon="5.57166">
        <ele>701.9</ele>
        <time>2013-06-02T15:09:48Z</time>
      </trkpt>
      <trkpt lat="45.26361" lon="5.57136">
        <ele>701.42</ele>
        <time>2013-06-02T15:09:58Z</time>
      </trkpt>
      <trkpt lat="45.26356" lon="5.57135">
        <ele>701.42</ele>
        <time>2013-06-02T15:09:59Z</time>
      </trkpt>
      <trkpt lat="45.26351" lon="5.57135">
        <ele>701.42</ele>
        <time>2013-06-02T15:10:00Z</time>
      </trkpt>
      <trkpt lat="45.26346" lon="5.57136">
        <ele>700.94</ele>
        <time>2013-06-02T15:10:01Z</time>
      </trkpt>
      <trkpt lat="45.26341" lon="5.57138">
        <ele>700.46</ele>
        <time>2013-06-02T15:10:02Z</time>
      </trkpt>
      <trkpt lat="45.26336" lon="5.5714">
        <ele>700.46</ele>
        <time>2013-06-02T15:10:03Z</time>
      </trkpt>
      <trkpt lat="45.26332" lon="5.57142">
        <ele>699.98</ele>
        <time>2013-06-02T15:10:04Z</time>
      </trkpt>
      <trkpt lat="45.26324" lon="5.57148">
        <ele>699.98</ele>
        <time>2013-06-02T15:10:06Z</time>
      </trkpt>
      <trkpt lat="45.26319" lon="5.5715">
        <ele>699.98</ele>
        <time>2013-06-02T15:10:07Z</time>
      </trkpt>
      <trkpt lat="45.26315" lon="5.57153">
        <ele>699.98</ele>
        <time>2013-06-02T15:10:08Z</time>
      </trkpt>
      <trkpt lat="45.26312" lon="5.57156">
        <ele>700.46</ele>
        <time>2013-06-02T15:10:09Z</time>
      </trkpt>
      <trkpt lat="45.26308" lon="5.5716">
        <ele>699.98</ele>
        <time>2013-06-02T15:10:10Z</time>
      </trkpt>
      <trkpt lat="45.26305" lon="5.57162">
        <ele>700.94</ele>
        <time>2013-06-02T15:10:11Z</time>
      </trkpt>
      <trkpt lat="45.26301" lon="5.57165">
        <ele>700.94</ele>
        <time>2013-06-02T15:10:12Z</time>
      </trkpt>
      <trkpt lat="45.26292" lon="5.57168">
        <ele>702.38</ele>
        <time>2013-06-02T15:10:15Z</time>
      </trkpt>
      <trkpt lat="45.2629" lon="5.57169">
        <ele>702.86</ele>
        <time>2013-06-02T15:10:16Z</time>
      </trkpt>
      <trkpt lat="45.26288" lon="5.57169">
        <ele>702.86</ele>
        <time>2013-06-02T15:10:17Z</time>
      </trkpt>
      <trkpt lat="45.26261" lon="5.57181">
        <ele>703.82</ele>
        <time>2013-06-02T15:10:28Z</time>
      </trkpt>
      <trkpt lat="45.26241" lon="5.57197">
        <ele>704.78</ele>
        <time>2013-06-02T15:10:40Z</time>
      </trkpt>
      <trkpt lat="45.26223" lon="5.5721">
        <ele>703.34</ele>
        <time>2013-06-02T15:10:52Z</time>
      </trkpt>
      <trkpt lat="45.26196" lon="5.57241">
        <ele>705.26</ele>
        <time>2013-06-02T15:11:04Z</time>
      </trkpt>
      <trkpt lat="45.2617" lon="5.57283">
        <ele>705.75</ele>
        <time>2013-06-02T15:11:18Z</time>
      </trkpt>
      <trkpt lat="45.26149" lon="5.57315">
        <ele>705.75</ele>
        <time>2013-06-02T15:11:28Z</time>
      </trkpt>
      <trkpt lat="45.26127" lon="5.57358">
        <ele>708.63</ele>
        <time>2013-06-02T15:11:40Z</time>
      </trkpt>
      <trkpt lat="45.26101" lon="5.57404">
        <ele>708.15</ele>
        <time>2013-06-02T15:11:51Z</time>
      </trkpt>
      <trkpt lat="45.26081" lon="5.57442">
        <ele>705.75</ele>
        <time>2013-06-02T15:12:00Z</time>
      </trkpt>
      <trkpt lat="45.2607" lon="5.57457">
        <ele>704.3</ele>
        <time>2013-06-02T15:12:03Z</time>
      </trkpt>
      <trkpt lat="45.26045" lon="5.57485">
        <ele>702.38</ele>
        <time>2013-06-02T15:12:11Z</time>
      </trkpt>
      <trkpt lat="45.26028" lon="5.57506">
        <ele>701.42</ele>
        <time>2013-06-02T15:12:17Z</time>
      </trkpt>
      <trkpt lat="45.26025" lon="5.57506">
        <ele>701.42</ele>
        <time>2013-06-02T15:12:18Z</time>
      </trkpt>
      <trkpt lat="45.26006" lon="5.57492">
        <ele>700.46</ele>
        <time>2013-06-02T15:12:28Z</time>
      </trkpt>
      <trkpt lat="45.25979" lon="5.57465">
        <ele>701.42</ele>
        <time>2013-06-02T15:12:40Z</time>
      </trkpt>
      <trkpt lat="45.25949" lon="5.57445">
        <ele>704.3</ele>
        <time>2013-06-02T15:12:53Z</time>
      </trkpt>
      <trkpt lat="45.25939" lon="5.57435">
        <ele>705.75</ele>
        <time>2013-06-02T15:13:00Z</time>
      </trkpt>
      <trkpt lat="45.25919" lon="5.57415">
        <ele>707.67</ele>
        <time>2013-06-02T15:13:12Z</time>
      </trkpt>
      <trkpt lat="45.25895" lon="5.57402">
        <ele>710.55</ele>
        <time>2013-06-02T15:13:26Z</time>
      </trkpt>
      <trkpt lat="45.25869" lon="5.57389">
        <ele>713.44</ele>
        <time>2013-06-02T15:13:41Z</time>
      </trkpt>
      <trkpt lat="45.25846" lon="5.57375">
        <ele>716.32</ele>
        <time>2013-06-02T15:13:55Z</time>
      </trkpt>
      <trkpt lat="45.2584" lon="5.57369">
        <ele>717.76</ele>
        <time>2013-06-02T15:13:59Z</time>
      </trkpt>
      <trkpt lat="45.25816" lon="5.57356">
        <ele>721.13</ele>
        <time>2013-06-02T15:14:12Z</time>
      </trkpt>
      <trkpt lat="45.25804" lon="5.57353">
        <ele>721.13</ele>
        <time>2013-06-02T15:14:21Z</time>
      </trkpt>
      <trkpt lat="45.25803" lon="5.57352">
        <ele>721.13</ele>
        <time>2013-06-02T15:14:22Z</time>
      </trkpt>
      <trkpt lat="45.25802" lon="5.57352">
        <ele>721.13</ele>
        <time>2013-06-02T15:14:23Z</time>
      </trkpt>
      <trkpt lat="45.258" lon="5.57352">
        <ele>721.61</ele>
        <time>2013-06-02T15:14:24Z</time>
      </trkpt>
      <trkpt lat="45.25798" lon="5.57352">
        <ele>721.61</ele>
        <time>2013-06-02T15:14:25Z</time>
      </trkpt>
      <trkpt lat="45.25794" lon="5.57354">
        <ele>722.57</ele>
        <time>2013-06-02T15:14:28Z</time>
      </trkpt>
      <trkpt lat="45.25792" lon="5.57354">
        <ele>722.57</ele>
        <time>2013-06-02T15:14:29Z</time>
      </trkpt>
      <trkpt lat="45.25786" lon="5.57353">
        <ele>723.05</ele>
        <time>2013-06-02T15:14:32Z</time>
      </trkpt>
      <trkpt lat="45.25785" lon="5.57352">
        <ele>723.53</ele>
        <time>2013-06-02T15:14:33Z</time>
      </trkpt>
      <trkpt lat="45.25783" lon="5.57352">
        <ele>723.53</ele>
        <time>2013-06-02T15:14:34Z</time>
      </trkpt>
      <trkpt lat="45.25782" lon="5.57351">
        <ele>724.01</ele>
        <time>2013-06-02T15:14:35Z</time>
      </trkpt>
      <trkpt lat="45.2578" lon="5.57351">
        <ele>723.53</ele>
        <time>2013-06-02T15:14:36Z</time>
      </trkpt>
      <trkpt lat="45.25778" lon="5.57351">
        <ele>723.53</ele>
        <time>2013-06-02T15:14:37Z</time>
      </trkpt>
      <trkpt lat="45.25777" lon="5.57351">
        <ele>724.49</ele>
        <time>2013-06-02T15:14:38Z</time>
      </trkpt>
      <trkpt lat="45.25775" lon="5.5735">
        <ele>724.01</ele>
        <time>2013-06-02T15:14:39Z</time>
      </trkpt>
      <trkpt lat="45.25774" lon="5.57349">
        <ele>724.49</ele>
        <time>2013-06-02T15:14:40Z</time>
      </trkpt>
      <trkpt lat="45.25772" lon="5.57348">
        <ele>724.49</ele>
        <time>2013-06-02T15:14:41Z</time>
      </trkpt>
      <trkpt lat="45.25771" lon="5.57348">
        <ele>725.45</ele>
        <time>2013-06-02T15:14:42Z</time>
      </trkpt>
      <trkpt lat="45.25769" lon="5.57348">
        <ele>725.45</ele>
        <time>2013-06-02T15:14:43Z</time>
      </trkpt>
      <trkpt lat="45.25753" lon="5.57342">
        <ele>727.86</ele>
        <time>2013-06-02T15:14:55Z</time>
      </trkpt>
      <trkpt lat="45.25735" lon="5.57347">
        <ele>730.74</ele>
        <time>2013-06-02T15:15:08Z</time>
      </trkpt>
      <trkpt lat="45.25731" lon="5.57348">
        <ele>731.22</ele>
        <time>2013-06-02T15:15:11Z</time>
      </trkpt>
      <trkpt lat="45.25729" lon="5.57349">
        <ele>731.7</ele>
        <time>2013-06-02T15:15:12Z</time>
      </trkpt>
      <trkpt lat="45.25728" lon="5.57349">
        <ele>731.7</ele>
        <time>2013-06-02T15:15:13Z</time>
      </trkpt>
      <trkpt lat="45.25727" lon="5.5735">
        <ele>731.7</ele>
        <time>2013-06-02T15:15:14Z</time>
      </trkpt>
      <trkpt lat="45.25726" lon="5.5735">
        <ele>732.18</ele>
        <time>2013-06-02T15:15:15Z</time>
      </trkpt>
      <trkpt lat="45.25724" lon="5.57351">
        <ele>732.18</ele>
        <time>2013-06-02T15:15:16Z</time>
      </trkpt>
      <trkpt lat="45.25723" lon="5.57352">
        <ele>732.18</ele>
        <time>2013-06-02T15:15:17Z</time>
      </trkpt>
      <trkpt lat="45.25722" lon="5.57353">
        <ele>732.66</ele>
        <time>2013-06-02T15:15:18Z</time>
      </trkpt>
      <trkpt lat="45.25721" lon="5.57354">
        <ele>733.62</ele>
        <time>2013-06-02T15:15:19Z</time>
      </trkpt>
      <trkpt lat="45.2572" lon="5.57355">
        <ele>733.62</ele>
        <time>2013-06-02T15:15:20Z</time>
      </trkpt>
      <trkpt lat="45.25719" lon="5.57356">
        <ele>733.62</ele>
        <time>2013-06-02T15:15:21Z</time>
      </trkpt>
      <trkpt lat="45.25718" lon="5.57356">
        <ele>733.62</ele>
        <time>2013-06-02T15:15:22Z</time>
      </trkpt>
      <trkpt lat="45.25716" lon="5.57357">
        <ele>733.62</ele>
        <time>2013-06-02T15:15:23Z</time>
      </trkpt>
      <trkpt lat="45.25708" lon="5.57363">
        <ele>736.51</ele>
        <time>2013-06-02T15:15:31Z</time>
      </trkpt>
      <trkpt lat="45.25707" lon="5.57363">
        <ele>736.51</ele>
        <time>2013-06-02T15:15:32Z</time>
      </trkpt>
      <trkpt lat="45.25706" lon="5.57364">
        <ele>737.47</ele>
        <time>2013-06-02T15:15:33Z</time>
      </trkpt>
      <trkpt lat="45.25705" lon="5.57364">
        <ele>736.99</ele>
        <time>2013-06-02T15:15:34Z</time>
      </trkpt>
      <trkpt lat="45.25704" lon="5.57365">
        <ele>736.99</ele>
        <time>2013-06-02T15:15:35Z</time>
      </trkpt>
      <trkpt lat="45.25703" lon="5.57366">
        <ele>736.99</ele>
        <time>2013-06-02T15:15:36Z</time>
      </trkpt>
      <trkpt lat="45.25694" lon="5.57366">
        <ele>739.87</ele>
        <time>2013-06-02T15:15:46Z</time>
      </trkpt>
      <trkpt lat="45.25692" lon="5.57366">
        <ele>739.87</ele>
        <time>2013-06-02T15:15:47Z</time>
      </trkpt>
      <trkpt lat="45.25671" lon="5.57367">
        <ele>741.79</ele>
        <time>2013-06-02T15:16:00Z</time>
      </trkpt>
      <trkpt lat="45.25654" lon="5.57374">
        <ele>744.68</ele>
        <time>2013-06-02T15:16:13Z</time>
      </trkpt>
      <trkpt lat="45.25648" lon="5.5738">
        <ele>745.16</ele>
        <time>2013-06-02T15:16:20Z</time>
      </trkpt>
      <trkpt lat="45.25647" lon="5.57382">
        <ele>746.12</ele>
        <time>2013-06-02T15:16:21Z</time>
      </trkpt>
      <trkpt lat="45.25646" lon="5.57384">
        <ele>746.12</ele>
        <time>2013-06-02T15:16:22Z</time>
      </trkpt>
      <trkpt lat="45.25645" lon="5.57385">
        <ele>746.12</ele>
        <time>2013-06-02T15:16:23Z</time>
      </trkpt>
      <trkpt lat="45.25644" lon="5.57387">
        <ele>746.6</ele>
        <time>2013-06-02T15:16:24Z</time>
      </trkpt>
      <trkpt lat="45.25643" lon="5.57389">
        <ele>746.12</ele>
        <time>2013-06-02T15:16:25Z</time>
      </trkpt>
      <trkpt lat="45.25642" lon="5.57391">
        <ele>746.6</ele>
        <time>2013-06-02T15:16:26Z</time>
      </trkpt>
      <trkpt lat="45.25623" lon="5.57384">
        <ele>749.49</ele>
        <time>2013-06-02T15:16:40Z</time>
      </trkpt>
      <trkpt lat="45.25606" lon="5.57375">
        <ele>749.97</ele>
        <time>2013-06-02T15:16:53Z</time>
      </trkpt>
      <trkpt lat="45.25592" lon="5.57369">
        <ele>752.37</ele>
        <time>2013-06-02T15:17:05Z</time>
      </trkpt>
      <trkpt lat="45.2559" lon="5.57368">
        <ele>752.37</ele>
        <time>2013-06-02T15:17:07Z</time>
      </trkpt>
      <trkpt lat="45.25583" lon="5.57366">
        <ele>752.85</ele>
        <time>2013-06-02T15:17:14Z</time>
      </trkpt>
      <trkpt lat="45.25582" lon="5.57365">
        <ele>753.81</ele>
        <time>2013-06-02T15:17:15Z</time>
      </trkpt>
      <trkpt lat="45.25578" lon="5.57364">
        <ele>754.29</ele>
        <time>2013-06-02T15:17:19Z</time>
      </trkpt>
      <trkpt lat="45.25576" lon="5.57363">
        <ele>754.29</ele>
        <time>2013-06-02T15:17:20Z</time>
      </trkpt>
      <trkpt lat="45.25573" lon="5.57362">
        <ele>755.25</ele>
        <time>2013-06-02T15:17:22Z</time>
      </trkpt>
      <trkpt lat="45.25556" lon="5.57361">
        <ele>757.66</ele>
        <time>2013-06-02T15:17:34Z</time>
      </trkpt>
      <trkpt lat="45.25549" lon="5.57355">
        <ele>760.06</ele>
        <time>2013-06-02T15:17:41Z</time>
      </trkpt>
      <trkpt lat="45.25536" lon="5.57353">
        <ele>761.98</ele>
        <time>2013-06-02T15:17:51Z</time>
      </trkpt>
      <trkpt lat="45.2553" lon="5.5735">
        <ele>762.46</ele>
        <time>2013-06-02T15:17:55Z</time>
      </trkpt>
      <trkpt lat="45.25522" lon="5.57347">
        <ele>763.42</ele>
        <time>2013-06-02T15:18:00Z</time>
      </trkpt>
      <trkpt lat="45.25521" lon="5.57346">
        <ele>763.9</ele>
        <time>2013-06-02T15:18:01Z</time>
      </trkpt>
      <trkpt lat="45.25518" lon="5.57345">
        <ele>764.87</ele>
        <time>2013-06-02T15:18:03Z</time>
      </trkpt>
      <trkpt lat="45.25513" lon="5.57344">
        <ele>764.87</ele>
        <time>2013-06-02T15:18:09Z</time>
      </trkpt>
      <trkpt lat="45.2551" lon="5.57343">
        <ele>765.35</ele>
        <time>2013-06-02T15:18:11Z</time>
      </trkpt>
      <trkpt lat="45.25506" lon="5.57341">
        <ele>766.79</ele>
        <time>2013-06-02T15:18:15Z</time>
      </trkpt>
      <trkpt lat="45.25491" lon="5.57339">
        <ele>769.67</ele>
        <time>2013-06-02T15:18:29Z</time>
      </trkpt>
      <trkpt lat="45.25471" lon="5.5734">
        <ele>772.56</ele>
        <time>2013-06-02T15:18:40Z</time>
      </trkpt>
      <trkpt lat="45.25462" lon="5.57343">
        <ele>773.52</ele>
        <time>2013-06-02T15:18:46Z</time>
      </trkpt>
      <trkpt lat="45.25444" lon="5.57352">
        <ele>776.88</ele>
        <time>2013-06-02T15:18:58Z</time>
      </trkpt>
      <trkpt lat="45.25435" lon="5.57356">
        <ele>778.32</ele>
        <time>2013-06-02T15:19:05Z</time>
      </trkpt>
      <trkpt lat="45.25433" lon="5.57357">
        <ele>778.32</ele>
        <time>2013-06-02T15:19:06Z</time>
      </trkpt>
      <trkpt lat="45.2542" lon="5.57361">
        <ele>781.69</ele>
        <time>2013-06-02T15:19:17Z</time>
      </trkpt>
      <trkpt lat="45.25407" lon="5.5737">
        <ele>784.57</ele>
        <time>2013-06-02T15:19:29Z</time>
      </trkpt>
      <trkpt lat="45.25397" lon="5.57376">
        <ele>786.98</ele>
        <time>2013-06-02T15:19:40Z</time>
      </trkpt>
      <trkpt lat="45.25396" lon="5.57377">
        <ele>787.46</ele>
        <time>2013-06-02T15:19:41Z</time>
      </trkpt>
      <trkpt lat="45.25395" lon="5.57378">
        <ele>787.46</ele>
        <time>2013-06-02T15:19:42Z</time>
      </trkpt>
      <trkpt lat="45.25381" lon="5.57374">
        <ele>789.86</ele>
        <time>2013-06-02T15:19:53Z</time>
      </trkpt>
      <trkpt lat="45.2538" lon="5.57373">
        <ele>789.86</ele>
        <time>2013-06-02T15:19:54Z</time>
      </trkpt>
      <trkpt lat="45.25378" lon="5.57372">
        <ele>789.86</ele>
        <time>2013-06-02T15:19:55Z</time>
      </trkpt>
      <trkpt lat="45.25377" lon="5.57368">
        <ele>790.82</ele>
        <time>2013-06-02T15:19:58Z</time>
      </trkpt>
      <trkpt lat="45.25375" lon="5.57364">
        <ele>791.3</ele>
        <time>2013-06-02T15:20:01Z</time>
      </trkpt>
      <trkpt lat="45.25371" lon="5.57361">
        <ele>792.74</ele>
        <time>2013-06-02T15:20:05Z</time>
      </trkpt>
      <trkpt lat="45.2536" lon="5.5736">
        <ele>795.63</ele>
        <time>2013-06-02T15:20:17Z</time>
      </trkpt>
      <trkpt lat="45.25354" lon="5.57359">
        <ele>798.03</ele>
        <time>2013-06-02T15:20:25Z</time>
      </trkpt>
      <trkpt lat="45.25351" lon="5.57359">
        <ele>798.03</ele>
        <time>2013-06-02T15:20:26Z</time>
      </trkpt>
      <trkpt lat="45.25342" lon="5.57359">
        <ele>799.47</ele>
        <time>2013-06-02T15:20:30Z</time>
      </trkpt>
      <trkpt lat="45.25337" lon="5.57359">
        <ele>799.95</ele>
        <time>2013-06-02T15:20:33Z</time>
      </trkpt>
      <trkpt lat="45.25335" lon="5.57358">
        <ele>799.95</ele>
        <time>2013-06-02T15:20:34Z</time>
      </trkpt>
      <trkpt lat="45.25333" lon="5.57357">
        <ele>800.44</ele>
        <time>2013-06-02T15:20:35Z</time>
      </trkpt>
      <trkpt lat="45.25332" lon="5.57356">
        <ele>800.44</ele>
        <time>2013-06-02T15:20:36Z</time>
      </trkpt>
      <trkpt lat="45.25331" lon="5.57355">
        <ele>800.44</ele>
        <time>2013-06-02T15:20:37Z</time>
      </trkpt>
      <trkpt lat="45.2533" lon="5.57353">
        <ele>800.92</ele>
        <time>2013-06-02T15:20:38Z</time>
      </trkpt>
      <trkpt lat="45.25329" lon="5.57351">
        <ele>800.92</ele>
        <time>2013-06-02T15:20:39Z</time>
      </trkpt>
      <trkpt lat="45.25328" lon="5.5735">
        <ele>800.92</ele>
        <time>2013-06-02T15:20:40Z</time>
      </trkpt>
      <trkpt lat="45.25328" lon="5.57348">
        <ele>800.92</ele>
        <time>2013-06-02T15:20:41Z</time>
      </trkpt>
      <trkpt lat="45.25329" lon="5.57345">
        <ele>800.92</ele>
        <time>2013-06-02T15:20:42Z</time>
      </trkpt>
      <trkpt lat="45.25329" lon="5.57342">
        <ele>800.92</ele>
        <time>2013-06-02T15:20:43Z</time>
      </trkpt>
      <trkpt lat="45.25328" lon="5.57339">
        <ele>800.92</ele>
        <time>2013-06-02T15:20:44Z</time>
      </trkpt>
      <trkpt lat="45.25324" lon="5.57326">
        <ele>800.92</ele>
        <time>2013-06-02T15:20:49Z</time>
      </trkpt>
      <trkpt lat="45.25324" lon="5.57324">
        <ele>800.92</ele>
        <time>2013-06-02T15:20:50Z</time>
      </trkpt>
      <trkpt lat="45.25323" lon="5.57322">
        <ele>800.92</ele>
        <time>2013-06-02T15:20:51Z</time>
      </trkpt>
      <trkpt lat="45.25323" lon="5.57319">
        <ele>800.92</ele>
        <time>2013-06-02T15:20:52Z</time>
      </trkpt>
      <trkpt lat="45.25322" lon="5.57317">
        <ele>800.92</ele>
        <time>2013-06-02T15:20:53Z</time>
      </trkpt>
      <trkpt lat="45.25322" lon="5.57314">
        <ele>801.4</ele>
        <time>2013-06-02T15:20:54Z</time>
      </trkpt>
      <trkpt lat="45.25322" lon="5.57309">
        <ele>801.4</ele>
        <time>2013-06-02T15:20:56Z</time>
      </trkpt>
      <trkpt lat="45.25322" lon="5.57297">
        <ele>801.88</ele>
        <time>2013-06-02T15:21:07Z</time>
      </trkpt>
      <trkpt lat="45.25325" lon="5.57286">
        <ele>803.8</ele>
        <time>2013-06-02T15:21:18Z</time>
      </trkpt>
      <trkpt lat="45.25325" lon="5.57279">
        <ele>804.28</ele>
        <time>2013-06-02T15:21:30Z</time>
      </trkpt>
      <trkpt lat="45.25328" lon="5.57269">
        <ele>804.76</ele>
        <time>2013-06-02T15:21:35Z</time>
      </trkpt>
      <trkpt lat="45.2533" lon="5.57265">
        <ele>805.24</ele>
        <time>2013-06-02T15:21:38Z</time>
      </trkpt>
      <trkpt lat="45.2534" lon="5.57249">
        <ele>805.72</ele>
        <time>2013-06-02T15:21:50Z</time>
      </trkpt>
      <trkpt lat="45.25351" lon="5.57232">
        <ele>806.2</ele>
        <time>2013-06-02T15:22:02Z</time>
      </trkpt>
      <trkpt lat="45.25353" lon="5.57229">
        <ele>805.72</ele>
        <time>2013-06-02T15:22:05Z</time>
      </trkpt>
      <trkpt lat="45.25355" lon="5.57227">
        <ele>806.2</ele>
        <time>2013-06-02T15:22:06Z</time>
      </trkpt>
      <trkpt lat="45.25367" lon="5.57216">
        <ele>807.16</ele>
        <time>2013-06-02T15:22:16Z</time>
      </trkpt>
      <trkpt lat="45.25383" lon="5.57205">
        <ele>808.61</ele>
        <time>2013-06-02T15:22:28Z</time>
      </trkpt>
      <trkpt lat="45.25391" lon="5.57193">
        <ele>810.53</ele>
        <time>2013-06-02T15:22:40Z</time>
      </trkpt>
      <trkpt lat="45.25391" lon="5.57187">
        <ele>812.45</ele>
        <time>2013-06-02T15:22:51Z</time>
      </trkpt>
      <trkpt lat="45.25393" lon="5.57177">
        <ele>814.37</ele>
        <time>2013-06-02T15:23:02Z</time>
      </trkpt>
      <trkpt lat="45.25393" lon="5.57177">
        <ele>814.85</ele>
        <time>2013-06-02T15:23:04Z</time>
      </trkpt>
      <trkpt lat="45.25401" lon="5.5716">
        <ele>816.3</ele>
        <time>2013-06-02T15:23:14Z</time>
      </trkpt>
      <trkpt lat="45.25412" lon="5.57138">
        <ele>817.74</ele>
        <time>2013-06-02T15:23:25Z</time>
      </trkpt>
      <trkpt lat="45.25415" lon="5.57134">
        <ele>817.74</ele>
        <time>2013-06-02T15:23:26Z</time>
      </trkpt>
      <trkpt lat="45.25422" lon="5.57124">
        <ele>818.22</ele>
        <time>2013-06-02T15:23:29Z</time>
      </trkpt>
      <trkpt lat="45.25434" lon="5.57109">
        <ele>820.62</ele>
        <time>2013-06-02T15:23:40Z</time>
      </trkpt>
      <trkpt lat="45.25442" lon="5.57098">
        <ele>822.55</ele>
        <time>2013-06-02T15:23:51Z</time>
      </trkpt>
      <trkpt lat="45.25446" lon="5.57094">
        <ele>822.55</ele>
        <time>2013-06-02T15:23:53Z</time>
      </trkpt>
      <trkpt lat="45.2546" lon="5.57078">
        <ele>824.95</ele>
        <time>2013-06-02T15:24:04Z</time>
      </trkpt>
      <trkpt lat="45.25464" lon="5.57073">
        <ele>825.91</ele>
        <time>2013-06-02T15:24:07Z</time>
      </trkpt>
      <trkpt lat="45.25476" lon="5.57063">
        <ele>827.83</ele>
        <time>2013-06-02T15:24:16Z</time>
      </trkpt>
      <trkpt lat="45.25491" lon="5.57053">
        <ele>830.72</ele>
        <time>2013-06-02T15:24:27Z</time>
      </trkpt>
      <trkpt lat="45.255" lon="5.57044">
        <ele>832.16</ele>
        <time>2013-06-02T15:24:36Z</time>
      </trkpt>
      <trkpt lat="45.25502" lon="5.57042">
        <ele>836</ele>
        <time>2013-06-02T15:24:50Z</time>
      </trkpt>
      <trkpt lat="45.25503" lon="5.57042">
        <ele>835.04</ele>
        <time>2013-06-02T15:25:10Z</time>
      </trkpt>
      <trkpt lat="45.25514" lon="5.57034">
        <ele>837.93</ele>
        <time>2013-06-02T15:25:21Z</time>
      </trkpt>
      <trkpt lat="45.25517" lon="5.57032">
        <ele>838.41</ele>
        <time>2013-06-02T15:25:22Z</time>
      </trkpt>
      <trkpt lat="45.2553" lon="5.57024">
        <ele>839.85</ele>
        <time>2013-06-02T15:25:33Z</time>
      </trkpt>
      <trkpt lat="45.2554" lon="5.57018">
        <ele>841.77</ele>
        <time>2013-06-02T15:25:47Z</time>
      </trkpt>
      <trkpt lat="45.25551" lon="5.57008">
        <ele>844.18</ele>
        <time>2013-06-02T15:26:00Z</time>
      </trkpt>
      <trkpt lat="45.25558" lon="5.57">
        <ele>846.58</ele>
        <time>2013-06-02T15:26:11Z</time>
      </trkpt>
      <trkpt lat="45.25556" lon="5.56986">
        <ele>848.5</ele>
        <time>2013-06-02T15:26:25Z</time>
      </trkpt>
      <trkpt lat="45.2555" lon="5.56979">
        <ele>850.9</ele>
        <time>2013-06-02T15:26:39Z</time>
      </trkpt>
      <trkpt lat="45.25541" lon="5.56969">
        <ele>853.79</ele>
        <time>2013-06-02T15:26:52Z</time>
      </trkpt>
      <trkpt lat="45.25536" lon="5.56962">
        <ele>856.19</ele>
        <time>2013-06-02T15:27:06Z</time>
      </trkpt>
      <trkpt lat="45.25531" lon="5.56952">
        <ele>859.08</ele>
        <time>2013-06-02T15:27:23Z</time>
      </trkpt>
      <trkpt lat="45.25522" lon="5.56939">
        <ele>861</ele>
        <time>2013-06-02T15:27:37Z</time>
      </trkpt>
      <trkpt lat="45.25518" lon="5.56936">
        <ele>862.92</ele>
        <time>2013-06-02T15:27:49Z</time>
      </trkpt>
      <trkpt lat="45.2551" lon="5.56928">
        <ele>865.8</ele>
        <time>2013-06-02T15:28:03Z</time>
      </trkpt>
      <trkpt lat="45.25506" lon="5.56925">
        <ele>867.25</ele>
        <time>2013-06-02T15:28:15Z</time>
      </trkpt>
      <trkpt lat="45.25494" lon="5.56922">
        <ele>870.13</ele>
        <time>2013-06-02T15:28:30Z</time>
      </trkpt>
      <trkpt lat="45.25484" lon="5.56925">
        <ele>873.01</ele>
        <time>2013-06-02T15:28:43Z</time>
      </trkpt>
      <trkpt lat="45.25477" lon="5.56925">
        <ele>873.98</ele>
        <time>2013-06-02T15:28:50Z</time>
      </trkpt>
      <trkpt lat="45.25461" lon="5.56923">
        <ele>876.38</ele>
        <time>2013-06-02T15:29:03Z</time>
      </trkpt>
      <trkpt lat="45.25456" lon="5.56917">
        <ele>877.34</ele>
        <time>2013-06-02T15:29:14Z</time>
      </trkpt>
      <trkpt lat="45.25455" lon="5.56913">
        <ele>876.38</ele>
        <time>2013-06-02T15:29:21Z</time>
      </trkpt>
      <trkpt lat="45.25457" lon="5.56902">
        <ele>873.98</ele>
        <time>2013-06-02T15:29:25Z</time>
      </trkpt>
      <trkpt lat="45.25472" lon="5.56893">
        <ele>870.13</ele>
        <time>2013-06-02T15:29:33Z</time>
      </trkpt>
      <trkpt lat="45.25478" lon="5.56889">
        <ele>866.77</ele>
        <time>2013-06-02T15:29:36Z</time>
      </trkpt>
      <trkpt lat="45.25498" lon="5.56867">
        <ele>862.92</ele>
        <time>2013-06-02T15:29:41Z</time>
      </trkpt>
      <trkpt lat="45.25512" lon="5.56841">
        <ele>861.96</ele>
        <time>2013-06-02T15:29:44Z</time>
      </trkpt>
      <trkpt lat="45.25515" lon="5.56835">
        <ele>861</ele>
        <time>2013-06-02T15:29:45Z</time>
      </trkpt>
      <trkpt lat="45.2552" lon="5.56829">
        <ele>860.52</ele>
        <time>2013-06-02T15:29:46Z</time>
      </trkpt>
      <trkpt lat="45.25525" lon="5.56823">
        <ele>860.04</ele>
        <time>2013-06-02T15:29:47Z</time>
      </trkpt>
      <trkpt lat="45.2553" lon="5.56818">
        <ele>859.56</ele>
        <time>2013-06-02T15:29:48Z</time>
      </trkpt>
      <trkpt lat="45.25535" lon="5.56815">
        <ele>859.08</ele>
        <time>2013-06-02T15:29:49Z</time>
      </trkpt>
      <trkpt lat="45.25547" lon="5.56808">
        <ele>858.11</ele>
        <time>2013-06-02T15:29:51Z</time>
      </trkpt>
      <trkpt lat="45.2556" lon="5.568">
        <ele>857.63</ele>
        <time>2013-06-02T15:29:53Z</time>
      </trkpt>
      <trkpt lat="45.25581" lon="5.56787">
        <ele>854.75</ele>
        <time>2013-06-02T15:29:56Z</time>
      </trkpt>
      <trkpt lat="45.25589" lon="5.56785">
        <ele>854.27</ele>
        <time>2013-06-02T15:29:57Z</time>
      </trkpt>
      <trkpt lat="45.25596" lon="5.56784">
        <ele>854.27</ele>
        <time>2013-06-02T15:29:58Z</time>
      </trkpt>
      <trkpt lat="45.25604" lon="5.56786">
        <ele>853.79</ele>
        <time>2013-06-02T15:29:59Z</time>
      </trkpt>
      <trkpt lat="45.25612" lon="5.56789">
        <ele>852.35</ele>
        <time>2013-06-02T15:30:00Z</time>
      </trkpt>
      <trkpt lat="45.25619" lon="5.56793">
        <ele>851.38</ele>
        <time>2013-06-02T15:30:01Z</time>
      </trkpt>
      <trkpt lat="45.25626" lon="5.56798">
        <ele>850.9</ele>
        <time>2013-06-02T15:30:02Z</time>
      </trkpt>
      <trkpt lat="45.25632" lon="5.56801">
        <ele>850.9</ele>
        <time>2013-06-02T15:30:03Z</time>
      </trkpt>
      <trkpt lat="45.25637" lon="5.56804">
        <ele>851.38</ele>
        <time>2013-06-02T15:30:04Z</time>
      </trkpt>
      <trkpt lat="45.25643" lon="5.56805">
        <ele>852.35</ele>
        <time>2013-06-02T15:30:05Z</time>
      </trkpt>
      <trkpt lat="45.25647" lon="5.56807">
        <ele>853.31</ele>
        <time>2013-06-02T15:30:06Z</time>
      </trkpt>
      <trkpt lat="45.25649" lon="5.56809">
        <ele>853.79</ele>
        <time>2013-06-02T15:30:07Z</time>
      </trkpt>
      <trkpt lat="45.25651" lon="5.5681">
        <ele>853.79</ele>
        <time>2013-06-02T15:30:08Z</time>
      </trkpt>
      <trkpt lat="45.25653" lon="5.56811">
        <ele>854.27</ele>
        <time>2013-06-02T15:30:09Z</time>
      </trkpt>
      <trkpt lat="45.25654" lon="5.56812">
        <ele>854.27</ele>
        <time>2013-06-02T15:30:10Z</time>
      </trkpt>
      <trkpt lat="45.25657" lon="5.56812">
        <ele>853.79</ele>
        <time>2013-06-02T15:30:11Z</time>
      </trkpt>
      <trkpt lat="45.25659" lon="5.56812">
        <ele>853.79</ele>
        <time>2013-06-02T15:30:12Z</time>
      </trkpt>
      <trkpt lat="45.25661" lon="5.56813">
        <ele>853.79</ele>
        <time>2013-06-02T15:30:13Z</time>
      </trkpt>
      <trkpt lat="45.25663" lon="5.56813">
        <ele>853.79</ele>
        <time>2013-06-02T15:30:14Z</time>
      </trkpt>
      <trkpt lat="45.25666" lon="5.56814">
        <ele>853.79</ele>
        <time>2013-06-02T15:30:15Z</time>
      </trkpt>
      <trkpt lat="45.25668" lon="5.56815">
        <ele>853.79</ele>
        <time>2013-06-02T15:30:16Z</time>
      </trkpt>
      <trkpt lat="45.25671" lon="5.56816">
        <ele>853.31</ele>
        <time>2013-06-02T15:30:17Z</time>
      </trkpt>
      <trkpt lat="45.25673" lon="5.56816">
        <ele>853.31</ele>
        <time>2013-06-02T15:30:18Z</time>
      </trkpt>
      <trkpt lat="45.25676" lon="5.56815">
        <ele>853.79</ele>
        <time>2013-06-02T15:30:19Z</time>
      </trkpt>
      <trkpt lat="45.25678" lon="5.56815">
        <ele>853.79</ele>
        <time>2013-06-02T15:30:20Z</time>
      </trkpt>
      <trkpt lat="45.2568" lon="5.56814">
        <ele>854.27</ele>
        <time>2013-06-02T15:30:21Z</time>
      </trkpt>
      <trkpt lat="45.257" lon="5.56818">
        <ele>853.31</ele>
        <time>2013-06-02T15:30:33Z</time>
      </trkpt>
      <trkpt lat="45.25701" lon="5.56818">
        <ele>853.31</ele>
        <time>2013-06-02T15:30:34Z</time>
      </trkpt>
      <trkpt lat="45.25703" lon="5.56818">
        <ele>853.79</ele>
        <time>2013-06-02T15:30:35Z</time>
      </trkpt>
      <trkpt lat="45.25704" lon="5.56817">
        <ele>853.79</ele>
        <time>2013-06-02T15:30:36Z</time>
      </trkpt>
      <trkpt lat="45.2571" lon="5.56819">
        <ele>853.31</ele>
        <time>2013-06-02T15:30:50Z</time>
      </trkpt>
      <trkpt lat="45.25723" lon="5.56819">
        <ele>851.87</ele>
        <time>2013-06-02T15:31:08Z</time>
      </trkpt>
      <trkpt lat="45.25725" lon="5.56819">
        <ele>852.35</ele>
        <time>2013-06-02T15:31:09Z</time>
      </trkpt>
      <trkpt lat="45.25756" lon="5.56804">
        <ele>850.42</ele>
        <time>2013-06-02T15:31:23Z</time>
      </trkpt>
      <trkpt lat="45.25769" lon="5.56798">
        <ele>847.06</ele>
        <time>2013-06-02T15:31:28Z</time>
      </trkpt>
      <trkpt lat="45.25778" lon="5.5679">
        <ele>844.18</ele>
        <time>2013-06-02T15:31:32Z</time>
      </trkpt>
      <trkpt lat="45.25786" lon="5.56785">
        <ele>840.81</ele>
        <time>2013-06-02T15:31:35Z</time>
      </trkpt>
      <trkpt lat="45.25789" lon="5.56782">
        <ele>839.85</ele>
        <time>2013-06-02T15:31:36Z</time>
      </trkpt>
      <trkpt lat="45.2579" lon="5.56779">
        <ele>838.89</ele>
        <time>2013-06-02T15:31:37Z</time>
      </trkpt>
      <trkpt lat="45.25792" lon="5.56774">
        <ele>838.41</ele>
        <time>2013-06-02T15:31:38Z</time>
      </trkpt>
      <trkpt lat="45.25794" lon="5.56771">
        <ele>836.96</ele>
        <time>2013-06-02T15:31:39Z</time>
      </trkpt>
      <trkpt lat="45.25797" lon="5.56768">
        <ele>836</ele>
        <time>2013-06-02T15:31:40Z</time>
      </trkpt>
      <trkpt lat="45.25803" lon="5.56762">
        <ele>834.08</ele>
        <time>2013-06-02T15:31:42Z</time>
      </trkpt>
      <trkpt lat="45.25805" lon="5.5676">
        <ele>832.64</ele>
        <time>2013-06-02T15:31:43Z</time>
      </trkpt>
      <trkpt lat="45.25807" lon="5.56758">
        <ele>832.64</ele>
        <time>2013-06-02T15:31:44Z</time>
      </trkpt>
      <trkpt lat="45.2581" lon="5.56757">
        <ele>831.2</ele>
        <time>2013-06-02T15:31:45Z</time>
      </trkpt>
      <trkpt lat="45.25811" lon="5.56756">
        <ele>829.76</ele>
        <time>2013-06-02T15:31:46Z</time>
      </trkpt>
      <trkpt lat="45.25814" lon="5.56756">
        <ele>828.79</ele>
        <time>2013-06-02T15:31:47Z</time>
      </trkpt>
      <trkpt lat="45.25816" lon="5.56756">
        <ele>827.83</ele>
        <time>2013-06-02T15:31:48Z</time>
      </trkpt>
      <trkpt lat="45.25829" lon="5.56755">
        <ele>824.47</ele>
        <time>2013-06-02T15:31:53Z</time>
      </trkpt>
      <trkpt lat="45.25843" lon="5.56754">
        <ele>819.66</ele>
        <time>2013-06-02T15:31:57Z</time>
      </trkpt>
      <trkpt lat="45.2585" lon="5.56755">
        <ele>817.74</ele>
        <time>2013-06-02T15:31:58Z</time>
      </trkpt>
      <trkpt lat="45.25868" lon="5.56756">
        <ele>814.85</ele>
        <time>2013-06-02T15:32:01Z</time>
      </trkpt>
      <trkpt lat="45.25874" lon="5.56756">
        <ele>813.89</ele>
        <time>2013-06-02T15:32:02Z</time>
      </trkpt>
      <trkpt lat="45.25879" lon="5.56756">
        <ele>813.41</ele>
        <time>2013-06-02T15:32:03Z</time>
      </trkpt>
      <trkpt lat="45.25885" lon="5.56754">
        <ele>813.41</ele>
        <time>2013-06-02T15:32:04Z</time>
      </trkpt>
      <trkpt lat="45.25892" lon="5.56751">
        <ele>813.41</ele>
        <time>2013-06-02T15:32:05Z</time>
      </trkpt>
      <trkpt lat="45.25898" lon="5.56749">
        <ele>813.89</ele>
        <time>2013-06-02T15:32:06Z</time>
      </trkpt>
      <trkpt lat="45.25903" lon="5.56746">
        <ele>813.89</ele>
        <time>2013-06-02T15:32:07Z</time>
      </trkpt>
      <trkpt lat="45.25915" lon="5.56736">
        <ele>816.3</ele>
        <time>2013-06-02T15:32:11Z</time>
      </trkpt>
      <trkpt lat="45.25921" lon="5.56728">
        <ele>817.26</ele>
        <time>2013-06-02T15:32:14Z</time>
      </trkpt>
      <trkpt lat="45.2594" lon="5.56709">
        <ele>820.62</ele>
        <time>2013-06-02T15:32:23Z</time>
      </trkpt>
      <trkpt lat="45.25969" lon="5.56699">
        <ele>821.58</ele>
        <time>2013-06-02T15:32:35Z</time>
      </trkpt>
      <trkpt lat="45.25982" lon="5.56698">
        <ele>821.1</ele>
        <time>2013-06-02T15:32:39Z</time>
      </trkpt>
      <trkpt lat="45.25993" lon="5.56702">
        <ele>819.66</ele>
        <time>2013-06-02T15:32:45Z</time>
      </trkpt>
      <trkpt lat="45.26001" lon="5.56689">
        <ele>821.1</ele>
        <time>2013-06-02T15:32:49Z</time>
      </trkpt>
      <trkpt lat="45.2602" lon="5.5667">
        <ele>816.78</ele>
        <time>2013-06-02T15:32:54Z</time>
      </trkpt>
      <trkpt lat="45.26023" lon="5.56653">
        <ele>812.93</ele>
        <time>2013-06-02T15:32:58Z</time>
      </trkpt>
      <trkpt lat="45.26024" lon="5.56646">
        <ele>811.49</ele>
        <time>2013-06-02T15:32:59Z</time>
      </trkpt>
      <trkpt lat="45.26028" lon="5.56627">
        <ele>808.13</ele>
        <time>2013-06-02T15:33:02Z</time>
      </trkpt>
      <trkpt lat="45.26031" lon="5.56623">
        <ele>808.13</ele>
        <time>2013-06-02T15:33:03Z</time>
      </trkpt>
      <trkpt lat="45.26037" lon="5.56619">
        <ele>809.09</ele>
        <time>2013-06-02T15:33:05Z</time>
      </trkpt>
      <trkpt lat="45.26041" lon="5.56612">
        <ele>810.05</ele>
        <time>2013-06-02T15:33:08Z</time>
      </trkpt>
      <trkpt lat="45.26062" lon="5.56582">
        <ele>805.24</ele>
        <time>2013-06-02T15:33:13Z</time>
      </trkpt>
      <trkpt lat="45.26071" lon="5.56567">
        <ele>802.84</ele>
        <time>2013-06-02T15:33:15Z</time>
      </trkpt>
      <trkpt lat="45.26075" lon="5.5656">
        <ele>801.4</ele>
        <time>2013-06-02T15:33:16Z</time>
      </trkpt>
      <trkpt lat="45.26079" lon="5.56554">
        <ele>800.44</ele>
        <time>2013-06-02T15:33:17Z</time>
      </trkpt>
      <trkpt lat="45.26083" lon="5.56549">
        <ele>798.51</ele>
        <time>2013-06-02T15:33:18Z</time>
      </trkpt>
      <trkpt lat="45.26087" lon="5.56545">
        <ele>797.07</ele>
        <time>2013-06-02T15:33:19Z</time>
      </trkpt>
      <trkpt lat="45.2609" lon="5.56543">
        <ele>796.11</ele>
        <time>2013-06-02T15:33:20Z</time>
      </trkpt>
      <trkpt lat="45.26096" lon="5.5654">
        <ele>795.63</ele>
        <time>2013-06-02T15:33:21Z</time>
      </trkpt>
      <trkpt lat="45.26111" lon="5.5653">
        <ele>790.82</ele>
        <time>2013-06-02T15:33:24Z</time>
      </trkpt>
      <trkpt lat="45.26117" lon="5.56523">
        <ele>787.94</ele>
        <time>2013-06-02T15:33:25Z</time>
      </trkpt>
      <trkpt lat="45.26135" lon="5.56496">
        <ele>784.57</ele>
        <time>2013-06-02T15:33:28Z</time>
      </trkpt>
      <trkpt lat="45.26146" lon="5.56478">
        <ele>783.13</ele>
        <time>2013-06-02T15:33:30Z</time>
      </trkpt>
      <trkpt lat="45.26162" lon="5.56447">
        <ele>781.69</ele>
        <time>2013-06-02T15:33:33Z</time>
      </trkpt>
      <trkpt lat="45.26165" lon="5.5644">
        <ele>782.17</ele>
        <time>2013-06-02T15:33:34Z</time>
      </trkpt>
      <trkpt lat="45.26167" lon="5.56434">
        <ele>781.69</ele>
        <time>2013-06-02T15:33:35Z</time>
      </trkpt>
      <trkpt lat="45.26181" lon="5.56401">
        <ele>778.81</ele>
        <time>2013-06-02T15:33:41Z</time>
      </trkpt>
      <trkpt lat="45.26185" lon="5.56396">
        <ele>778.32</ele>
        <time>2013-06-02T15:33:42Z</time>
      </trkpt>
      <trkpt lat="45.26188" lon="5.5639">
        <ele>778.81</ele>
        <time>2013-06-02T15:33:43Z</time>
      </trkpt>
      <trkpt lat="45.26189" lon="5.56384">
        <ele>777.84</ele>
        <time>2013-06-02T15:33:44Z</time>
      </trkpt>
      <trkpt lat="45.26193" lon="5.56371">
        <ele>776.88</ele>
        <time>2013-06-02T15:33:46Z</time>
      </trkpt>
      <trkpt lat="45.26194" lon="5.56364">
        <ele>776.4</ele>
        <time>2013-06-02T15:33:47Z</time>
      </trkpt>
      <trkpt lat="45.26195" lon="5.56357">
        <ele>775.44</ele>
        <time>2013-06-02T15:33:48Z</time>
      </trkpt>
      <trkpt lat="45.26196" lon="5.5635">
        <ele>774</ele>
        <time>2013-06-02T15:33:49Z</time>
      </trkpt>
      <trkpt lat="45.26197" lon="5.56344">
        <ele>774</ele>
        <time>2013-06-02T15:33:50Z</time>
      </trkpt>
      <trkpt lat="45.26197" lon="5.56338">
        <ele>773.52</ele>
        <time>2013-06-02T15:33:51Z</time>
      </trkpt>
      <trkpt lat="45.26199" lon="5.5632">
        <ele>773.04</ele>
        <time>2013-06-02T15:33:56Z</time>
      </trkpt>
      <trkpt lat="45.26198" lon="5.56316">
        <ele>772.08</ele>
        <time>2013-06-02T15:33:57Z</time>
      </trkpt>
      <trkpt lat="45.26199" lon="5.5631">
        <ele>772.08</ele>
        <time>2013-06-02T15:33:58Z</time>
      </trkpt>
      <trkpt lat="45.26197" lon="5.56296">
        <ele>770.15</ele>
        <time>2013-06-02T15:34:02Z</time>
      </trkpt>
      <trkpt lat="45.26196" lon="5.5629">
        <ele>770.15</ele>
        <time>2013-06-02T15:34:17Z</time>
      </trkpt>
      <trkpt lat="45.26196" lon="5.56289">
        <ele>769.67</ele>
        <time>2013-06-02T15:34:47Z</time>
      </trkpt>
      <trkpt lat="45.26196" lon="5.56289">
        <ele>770.15</ele>
        <time>2013-06-02T15:35:15Z</time>
      </trkpt>
      <trkpt lat="45.26196" lon="5.56288">
        <ele>770.15</ele>
        <time>2013-06-02T15:35:48Z</time>
      </trkpt>
      <trkpt lat="45.26196" lon="5.56288">
        <ele>770.63</ele>
        <time>2013-06-02T15:36:22Z</time>
      </trkpt>
      <trkpt lat="45.26196" lon="5.56286">
        <ele>770.15</ele>
        <time>2013-06-02T15:36:48Z</time>
      </trkpt>
      <trkpt lat="45.26196" lon="5.56286">
        <ele>770.63</ele>
        <time>2013-06-02T15:37:15Z</time>
      </trkpt>
      <trkpt lat="45.26196" lon="5.56286">
        <ele>770.15</ele>
        <time>2013-06-02T15:37:44Z</time>
      </trkpt>
      <trkpt lat="45.26195" lon="5.56281">
        <ele>769.19</ele>
        <time>2013-06-02T15:37:53Z</time>
      </trkpt>
      <trkpt lat="45.26195" lon="5.56278">
        <ele>769.19</ele>
        <time>2013-06-02T15:37:54Z</time>
      </trkpt>
      <trkpt lat="45.26195" lon="5.56274">
        <ele>768.23</ele>
        <time>2013-06-02T15:37:55Z</time>
      </trkpt>
      <trkpt lat="45.26195" lon="5.56269">
        <ele>767.75</ele>
        <time>2013-06-02T15:37:56Z</time>
      </trkpt>
      <trkpt lat="45.26194" lon="5.56263">
        <ele>766.79</ele>
        <time>2013-06-02T15:37:57Z</time>
      </trkpt>
      <trkpt lat="45.26194" lon="5.56255">
        <ele>765.35</ele>
        <time>2013-06-02T15:37:58Z</time>
      </trkpt>
      <trkpt lat="45.26195" lon="5.56236">
        <ele>761.98</ele>
        <time>2013-06-02T15:38:00Z</time>
      </trkpt>
      <trkpt lat="45.26196" lon="5.56218">
        <ele>759.1</ele>
        <time>2013-06-02T15:38:02Z</time>
      </trkpt>
      <trkpt lat="45.26196" lon="5.56209">
        <ele>756.69</ele>
        <time>2013-06-02T15:38:03Z</time>
      </trkpt>
      <trkpt lat="45.26196" lon="5.56201">
        <ele>756.21</ele>
        <time>2013-06-02T15:38:04Z</time>
      </trkpt>
      <trkpt lat="45.26196" lon="5.56195">
        <ele>755.73</ele>
        <time>2013-06-02T15:38:05Z</time>
      </trkpt>
      <trkpt lat="45.26197" lon="5.56192">
        <ele>755.25</ele>
        <time>2013-06-02T15:38:06Z</time>
      </trkpt>
      <trkpt lat="45.26198" lon="5.56186">
        <ele>754.29</ele>
        <time>2013-06-02T15:38:07Z</time>
      </trkpt>
      <trkpt lat="45.26201" lon="5.56181">
        <ele>753.81</ele>
        <time>2013-06-02T15:38:08Z</time>
      </trkpt>
      <trkpt lat="45.26207" lon="5.56176">
        <ele>752.37</ele>
        <time>2013-06-02T15:38:09Z</time>
      </trkpt>
      <trkpt lat="45.26213" lon="5.56171">
        <ele>750.93</ele>
        <time>2013-06-02T15:38:10Z</time>
      </trkpt>
      <trkpt lat="45.26217" lon="5.56168">
        <ele>750.45</ele>
        <time>2013-06-02T15:38:11Z</time>
      </trkpt>
      <trkpt lat="45.2623" lon="5.56163">
        <ele>748.52</ele>
        <time>2013-06-02T15:38:15Z</time>
      </trkpt>
      <trkpt lat="45.26235" lon="5.56162">
        <ele>747.08</ele>
        <time>2013-06-02T15:38:17Z</time>
      </trkpt>
      <trkpt lat="45.26237" lon="5.5616">
        <ele>746.6</ele>
        <time>2013-06-02T15:38:18Z</time>
      </trkpt>
      <trkpt lat="45.26253" lon="5.56141">
        <ele>744.68</ele>
        <time>2013-06-02T15:38:29Z</time>
      </trkpt>
      <trkpt lat="45.26266" lon="5.56108">
        <ele>743.24</ele>
        <time>2013-06-02T15:38:39Z</time>
      </trkpt>
      <trkpt lat="45.26291" lon="5.56073">
        <ele>742.76</ele>
        <time>2013-06-02T15:38:49Z</time>
      </trkpt>
      <trkpt lat="45.26301" lon="5.56054">
        <ele>742.28</ele>
        <time>2013-06-02T15:38:53Z</time>
      </trkpt>
      <trkpt lat="45.26304" lon="5.56049">
        <ele>742.28</ele>
        <time>2013-06-02T15:38:54Z</time>
      </trkpt>
      <trkpt lat="45.26306" lon="5.56043">
        <ele>741.79</ele>
        <time>2013-06-02T15:38:55Z</time>
      </trkpt>
      <trkpt lat="45.26308" lon="5.56037">
        <ele>742.28</ele>
        <time>2013-06-02T15:38:56Z</time>
      </trkpt>
      <trkpt lat="45.2631" lon="5.56031">
        <ele>741.79</ele>
        <time>2013-06-02T15:38:57Z</time>
      </trkpt>
      <trkpt lat="45.26312" lon="5.56024">
        <ele>741.31</ele>
        <time>2013-06-02T15:38:58Z</time>
      </trkpt>
      <trkpt lat="45.2632" lon="5.55997">
        <ele>740.83</ele>
        <time>2013-06-02T15:39:02Z</time>
      </trkpt>
      <trkpt lat="45.26322" lon="5.55989">
        <ele>740.35</ele>
        <time>2013-06-02T15:39:03Z</time>
      </trkpt>
      <trkpt lat="45.26324" lon="5.55981">
        <ele>739.87</ele>
        <time>2013-06-02T15:39:04Z</time>
      </trkpt>
      <trkpt lat="45.26327" lon="5.55973">
        <ele>739.87</ele>
        <time>2013-06-02T15:39:05Z</time>
      </trkpt>
      <trkpt lat="45.26329" lon="5.55966">
        <ele>739.39</ele>
        <time>2013-06-02T15:39:06Z</time>
      </trkpt>
      <trkpt lat="45.2633" lon="5.55957">
        <ele>738.91</ele>
        <time>2013-06-02T15:39:07Z</time>
      </trkpt>
      <trkpt lat="45.26331" lon="5.55949">
        <ele>738.43</ele>
        <time>2013-06-02T15:39:08Z</time>
      </trkpt>
      <trkpt lat="45.26334" lon="5.55934">
        <ele>739.39</ele>
        <time>2013-06-02T15:39:10Z</time>
      </trkpt>
      <trkpt lat="45.26336" lon="5.5593">
        <ele>739.87</ele>
        <time>2013-06-02T15:39:11Z</time>
      </trkpt>
      <trkpt lat="45.26344" lon="5.55914">
        <ele>740.35</ele>
        <time>2013-06-02T15:39:15Z</time>
      </trkpt>
      <trkpt lat="45.26346" lon="5.55908">
        <ele>740.35</ele>
        <time>2013-06-02T15:39:16Z</time>
      </trkpt>
      <trkpt lat="45.26348" lon="5.55904">
        <ele>740.35</ele>
        <time>2013-06-02T15:39:17Z</time>
      </trkpt>
      <trkpt lat="45.2635" lon="5.55898">
        <ele>740.35</ele>
        <time>2013-06-02T15:39:18Z</time>
      </trkpt>
      <trkpt lat="45.26351" lon="5.55894">
        <ele>740.35</ele>
        <time>2013-06-02T15:39:19Z</time>
      </trkpt>
      <trkpt lat="45.26354" lon="5.55888">
        <ele>740.83</ele>
        <time>2013-06-02T15:39:26Z</time>
      </trkpt>
      <trkpt lat="45.26354" lon="5.55887">
        <ele>740.35</ele>
        <time>2013-06-02T15:39:50Z</time>
      </trkpt>
      <trkpt lat="45.26356" lon="5.55887">
        <ele>740.35</ele>
        <time>2013-06-02T15:40:07Z</time>
      </trkpt>
      <trkpt lat="45.26352" lon="5.55888">
        <ele>742.28</ele>
        <time>2013-06-02T15:40:11Z</time>
      </trkpt>
      <trkpt lat="45.2635" lon="5.55887">
        <ele>740.83</ele>
        <time>2013-06-02T15:40:12Z</time>
      </trkpt>
      <trkpt lat="45.26349" lon="5.55885">
        <ele>739.87</ele>
        <time>2013-06-02T15:40:13Z</time>
      </trkpt>
      <trkpt lat="45.26348" lon="5.55881">
        <ele>740.83</ele>
        <time>2013-06-02T15:40:14Z</time>
      </trkpt>
    </trkseg>
  </trk>
</gpx>